<?xml version="1.0" encoding="UTF-8" standalone="no" ?>
<gpx xmlns="http://www.topografix.com/GPX/1/1" xmlns:xsi="http://www.w3.org/2001/XMLSchema-instance" xsi:schemaLocation="http://www.topografix.com/GPX/1/1 http://www.topografix.com/GPX/1/1/gpx.xsd" version="1.1" creator="VisuGPX - https://www.visugpx.com">
  <metadata>
    <name>VAE_Jausier-bonnette-Nice</name>
    <desc><![CDATA[Jausier-bonnette-Nice en VAE]]></desc>
  </metadata>
  <trk>
    <name><![CDATA[TKLG001BONNET]]></name>
    <trkseg>
      <trkpt lat="44.41978" lon="6.73538">
        <ele>1221</ele>
        <time>2010-09-18T06:38:46Z</time>
      </trkpt>
      <trkpt lat="44.41978" lon="6.73568">
        <ele>1222</ele>
        <time>2010-09-18T07:14:34Z</time>
      </trkpt>
      <trkpt lat="44.42012" lon="6.73613">
        <ele>1223</ele>
        <time>2010-09-18T07:14:48Z</time>
      </trkpt>
      <trkpt lat="44.4204" lon="6.73653">
        <ele>1222</ele>
        <time>2010-09-18T07:14:58Z</time>
      </trkpt>
      <trkpt lat="44.42033" lon="6.73717">
        <ele>1223</ele>
        <time>2010-09-18T07:15:08Z</time>
      </trkpt>
      <trkpt lat="44.42017" lon="6.73782">
        <ele>1225</ele>
        <time>2010-09-18T07:15:18Z</time>
      </trkpt>
      <trkpt lat="44.41995" lon="6.73932">
        <ele>1224</ele>
        <time>2010-09-18T07:15:38Z</time>
      </trkpt>
      <trkpt lat="44.41952" lon="6.73995">
        <ele>1226</ele>
        <time>2010-09-18T07:15:48Z</time>
      </trkpt>
      <trkpt lat="44.4173" lon="6.7417">
        <ele>1236</ele>
        <time>2010-09-18T07:16:32Z</time>
      </trkpt>
      <trkpt lat="44.41618" lon="6.74307">
        <ele>1241</ele>
        <time>2010-09-18T07:16:58Z</time>
      </trkpt>
      <trkpt lat="44.41585" lon="6.74333">
        <ele>1244</ele>
        <time>2010-09-18T07:17:05Z</time>
      </trkpt>
      <trkpt lat="44.41535" lon="6.74453">
        <ele>1250</ele>
        <time>2010-09-18T07:17:23Z</time>
      </trkpt>
      <trkpt lat="44.41522" lon="6.74512">
        <ele>1252</ele>
        <time>2010-09-18T07:17:31Z</time>
      </trkpt>
      <trkpt lat="44.41518" lon="6.74577">
        <ele>1255</ele>
        <time>2010-09-18T07:17:41Z</time>
      </trkpt>
      <trkpt lat="44.4149" lon="6.7467">
        <ele>1261</ele>
        <time>2010-09-18T07:17:56Z</time>
      </trkpt>
      <trkpt lat="44.41473" lon="6.74763">
        <ele>1265</ele>
        <time>2010-09-18T07:18:09Z</time>
      </trkpt>
      <trkpt lat="44.41455" lon="6.74817">
        <ele>1267</ele>
        <time>2010-09-18T07:18:17Z</time>
      </trkpt>
      <trkpt lat="44.4146" lon="6.74865">
        <ele>1270</ele>
        <time>2010-09-18T07:18:24Z</time>
      </trkpt>
      <trkpt lat="44.41535" lon="6.75047">
        <ele>1280</ele>
        <time>2010-09-18T07:18:53Z</time>
      </trkpt>
      <trkpt lat="44.4155" lon="6.7508">
        <ele>1282</ele>
        <time>2010-09-18T07:18:59Z</time>
      </trkpt>
      <trkpt lat="44.41512" lon="6.75122">
        <ele>1284</ele>
        <time>2010-09-18T07:19:08Z</time>
      </trkpt>
      <trkpt lat="44.41468" lon="6.75137">
        <ele>1287</ele>
        <time>2010-09-18T07:19:16Z</time>
      </trkpt>
      <trkpt lat="44.41462" lon="6.75173">
        <ele>1289</ele>
        <time>2010-09-18T07:19:22Z</time>
      </trkpt>
      <trkpt lat="44.41498" lon="6.75257">
        <ele>1294</ele>
        <time>2010-09-18T07:19:38Z</time>
      </trkpt>
      <trkpt lat="44.41482" lon="6.75275">
        <ele>1296</ele>
        <time>2010-09-18T07:19:45Z</time>
      </trkpt>
      <trkpt lat="44.41445" lon="6.75212">
        <ele>1301</ele>
        <time>2010-09-18T07:19:59Z</time>
      </trkpt>
      <trkpt lat="44.41393" lon="6.7517">
        <ele>1306</ele>
        <time>2010-09-18T07:20:13Z</time>
      </trkpt>
      <trkpt lat="44.41295" lon="6.75107">
        <ele>1315</ele>
        <time>2010-09-18T07:20:40Z</time>
      </trkpt>
      <trkpt lat="44.41273" lon="6.75127">
        <ele>1317</ele>
        <time>2010-09-18T07:20:47Z</time>
      </trkpt>
      <trkpt lat="44.41308" lon="6.75148">
        <ele>1319</ele>
        <time>2010-09-18T07:20:56Z</time>
      </trkpt>
      <trkpt lat="44.41332" lon="6.75192">
        <ele>1322</ele>
        <time>2010-09-18T07:21:06Z</time>
      </trkpt>
      <trkpt lat="44.4134" lon="6.75245">
        <ele>1323</ele>
        <time>2010-09-18T07:21:16Z</time>
      </trkpt>
      <trkpt lat="44.4136" lon="6.75308">
        <ele>1327</ele>
        <time>2010-09-18T07:21:29Z</time>
      </trkpt>
      <trkpt lat="44.41362" lon="6.75368">
        <ele>1330</ele>
        <time>2010-09-18T07:21:40Z</time>
      </trkpt>
      <trkpt lat="44.41362" lon="6.754">
        <ele>1332</ele>
        <time>2010-09-18T07:21:46Z</time>
      </trkpt>
      <trkpt lat="44.41268" lon="6.75275">
        <ele>1346</ele>
        <time>2010-09-18T07:22:22Z</time>
      </trkpt>
      <trkpt lat="44.41242" lon="6.75275">
        <ele>1347</ele>
        <time>2010-09-18T07:22:29Z</time>
      </trkpt>
      <trkpt lat="44.41245" lon="6.75317">
        <ele>1349</ele>
        <time>2010-09-18T07:22:37Z</time>
      </trkpt>
      <trkpt lat="44.41272" lon="6.7537">
        <ele>1352</ele>
        <time>2010-09-18T07:22:48Z</time>
      </trkpt>
      <trkpt lat="44.41305" lon="6.75482">
        <ele>1359</ele>
        <time>2010-09-18T07:23:09Z</time>
      </trkpt>
      <trkpt lat="44.41297" lon="6.75553">
        <ele>1363</ele>
        <time>2010-09-18T07:23:22Z</time>
      </trkpt>
      <trkpt lat="44.41278" lon="6.75583">
        <ele>1365</ele>
        <time>2010-09-18T07:23:29Z</time>
      </trkpt>
      <trkpt lat="44.41265" lon="6.75555">
        <ele>1369</ele>
        <time>2010-09-18T07:23:37Z</time>
      </trkpt>
      <trkpt lat="44.41273" lon="6.75512">
        <ele>1371</ele>
        <time>2010-09-18T07:23:45Z</time>
      </trkpt>
      <trkpt lat="44.41258" lon="6.75462">
        <ele>1375</ele>
        <time>2010-09-18T07:23:55Z</time>
      </trkpt>
      <trkpt lat="44.41132" lon="6.75283">
        <ele>1389</ele>
        <time>2010-09-18T07:24:41Z</time>
      </trkpt>
      <trkpt lat="44.41125" lon="6.7521">
        <ele>1393</ele>
        <time>2010-09-18T07:24:55Z</time>
      </trkpt>
      <trkpt lat="44.41123" lon="6.7515">
        <ele>1397</ele>
        <time>2010-09-18T07:25:06Z</time>
      </trkpt>
      <trkpt lat="44.41127" lon="6.75108">
        <ele>1399</ele>
        <time>2010-09-18T07:25:14Z</time>
      </trkpt>
      <trkpt lat="44.41105" lon="6.75095">
        <ele>1401</ele>
        <time>2010-09-18T07:25:21Z</time>
      </trkpt>
      <trkpt lat="44.41085" lon="6.75237">
        <ele>1407</ele>
        <time>2010-09-18T07:25:46Z</time>
      </trkpt>
      <trkpt lat="44.41052" lon="6.7529">
        <ele>1411</ele>
        <time>2010-09-18T07:25:59Z</time>
      </trkpt>
      <trkpt lat="44.41" lon="6.75325">
        <ele>1415</ele>
        <time>2010-09-18T07:26:13Z</time>
      </trkpt>
      <trkpt lat="44.40968" lon="6.75338">
        <ele>1419</ele>
        <time>2010-09-18T07:26:22Z</time>
      </trkpt>
      <trkpt lat="44.40908" lon="6.75337">
        <ele>1424</ele>
        <time>2010-09-18T07:26:38Z</time>
      </trkpt>
      <trkpt lat="44.40875" lon="6.75358">
        <ele>1427</ele>
        <time>2010-09-18T07:26:48Z</time>
      </trkpt>
      <trkpt lat="44.4083" lon="6.75402">
        <ele>1432</ele>
        <time>2010-09-18T07:27:03Z</time>
      </trkpt>
      <trkpt lat="44.40762" lon="6.75415">
        <ele>1438</ele>
        <time>2010-09-18T07:27:23Z</time>
      </trkpt>
      <trkpt lat="44.40733" lon="6.75445">
        <ele>1441</ele>
        <time>2010-09-18T07:27:33Z</time>
      </trkpt>
      <trkpt lat="44.40718" lon="6.75497">
        <ele>1444</ele>
        <time>2010-09-18T07:27:44Z</time>
      </trkpt>
      <trkpt lat="44.40703" lon="6.7553">
        <ele>1447</ele>
        <time>2010-09-18T07:27:52Z</time>
      </trkpt>
      <trkpt lat="44.40673" lon="6.75527">
        <ele>1449</ele>
        <time>2010-09-18T07:28:00Z</time>
      </trkpt>
      <trkpt lat="44.40642" lon="6.75467">
        <ele>1453</ele>
        <time>2010-09-18T07:28:13Z</time>
      </trkpt>
      <trkpt lat="44.40607" lon="6.7545">
        <ele>1455</ele>
        <time>2010-09-18T07:28:22Z</time>
      </trkpt>
      <trkpt lat="44.40578" lon="6.75473">
        <ele>1457</ele>
        <time>2010-09-18T07:28:30Z</time>
      </trkpt>
      <trkpt lat="44.4056" lon="6.75527">
        <ele>1460</ele>
        <time>2010-09-18T07:28:40Z</time>
      </trkpt>
      <trkpt lat="44.40562" lon="6.7562">
        <ele>1462</ele>
        <time>2010-09-18T07:28:54Z</time>
      </trkpt>
      <trkpt lat="44.40503" lon="6.75743">
        <ele>1469</ele>
        <time>2010-09-18T07:29:19Z</time>
      </trkpt>
      <trkpt lat="44.40502" lon="6.75798">
        <ele>1473</ele>
        <time>2010-09-18T07:29:28Z</time>
      </trkpt>
      <trkpt lat="44.40512" lon="6.75888">
        <ele>1477</ele>
        <time>2010-09-18T07:29:43Z</time>
      </trkpt>
      <trkpt lat="44.40495" lon="6.75945">
        <ele>1479</ele>
        <time>2010-09-18T07:29:53Z</time>
      </trkpt>
      <trkpt lat="44.40447" lon="6.76037">
        <ele>1486</ele>
        <time>2010-09-18T07:30:12Z</time>
      </trkpt>
      <trkpt lat="44.40398" lon="6.7606">
        <ele>1489</ele>
        <time>2010-09-18T07:30:24Z</time>
      </trkpt>
      <trkpt lat="44.40363" lon="6.7608">
        <ele>1491</ele>
        <time>2010-09-18T07:30:33Z</time>
      </trkpt>
      <trkpt lat="44.40342" lon="6.76142">
        <ele>1493</ele>
        <time>2010-09-18T07:30:44Z</time>
      </trkpt>
      <trkpt lat="44.40337" lon="6.7625">
        <ele>1498</ele>
        <time>2010-09-18T07:31:01Z</time>
      </trkpt>
      <trkpt lat="44.40265" lon="6.76438">
        <ele>1509</ele>
        <time>2010-09-18T07:31:36Z</time>
      </trkpt>
      <trkpt lat="44.40245" lon="6.76557">
        <ele>1515</ele>
        <time>2010-09-18T07:31:56Z</time>
      </trkpt>
      <trkpt lat="44.40223" lon="6.76588">
        <ele>1517</ele>
        <time>2010-09-18T07:32:04Z</time>
      </trkpt>
      <trkpt lat="44.40163" lon="6.76588">
        <ele>1522</ele>
        <time>2010-09-18T07:32:20Z</time>
      </trkpt>
      <trkpt lat="44.4013" lon="6.76607">
        <ele>1525</ele>
        <time>2010-09-18T07:32:29Z</time>
      </trkpt>
      <trkpt lat="44.40005" lon="6.76777">
        <ele>1539</ele>
        <time>2010-09-18T07:33:13Z</time>
      </trkpt>
      <trkpt lat="44.39942" lon="6.76813">
        <ele>1545</ele>
        <time>2010-09-18T07:33:31Z</time>
      </trkpt>
      <trkpt lat="44.3989" lon="6.76877">
        <ele>1550</ele>
        <time>2010-09-18T07:33:50Z</time>
      </trkpt>
      <trkpt lat="44.39852" lon="6.76885">
        <ele>1553</ele>
        <time>2010-09-18T07:34:01Z</time>
      </trkpt>
      <trkpt lat="44.39822" lon="6.76872">
        <ele>1557</ele>
        <time>2010-09-18T07:34:10Z</time>
      </trkpt>
      <trkpt lat="44.3975" lon="6.76755">
        <ele>1569</ele>
        <time>2010-09-18T07:34:42Z</time>
      </trkpt>
      <trkpt lat="44.39725" lon="6.76733">
        <ele>1571</ele>
        <time>2010-09-18T07:34:50Z</time>
      </trkpt>
      <trkpt lat="44.39657" lon="6.76738">
        <ele>1577</ele>
        <time>2010-09-18T07:35:09Z</time>
      </trkpt>
      <trkpt lat="44.396" lon="6.76728">
        <ele>1582</ele>
        <time>2010-09-18T07:35:25Z</time>
      </trkpt>
      <trkpt lat="44.3957" lon="6.76742">
        <ele>1585</ele>
        <time>2010-09-18T07:35:34Z</time>
      </trkpt>
      <trkpt lat="44.39517" lon="6.7679">
        <ele>1589</ele>
        <time>2010-09-18T07:35:52Z</time>
      </trkpt>
      <trkpt lat="44.39482" lon="6.7684">
        <ele>1593</ele>
        <time>2010-09-18T07:36:07Z</time>
      </trkpt>
      <trkpt lat="44.39467" lon="6.76885">
        <ele>1596</ele>
        <time>2010-09-18T07:36:17Z</time>
      </trkpt>
      <trkpt lat="44.39455" lon="6.76967">
        <ele>1601</ele>
        <time>2010-09-18T07:36:34Z</time>
      </trkpt>
      <trkpt lat="44.39438" lon="6.77022">
        <ele>1605</ele>
        <time>2010-09-18T07:36:46Z</time>
      </trkpt>
      <trkpt lat="44.3941" lon="6.77072">
        <ele>1609</ele>
        <time>2010-09-18T07:36:59Z</time>
      </trkpt>
      <trkpt lat="44.39342" lon="6.77155">
        <ele>1617</ele>
        <time>2010-09-18T07:37:25Z</time>
      </trkpt>
      <trkpt lat="44.39307" lon="6.77215">
        <ele>1621</ele>
        <time>2010-09-18T07:37:41Z</time>
      </trkpt>
      <trkpt lat="44.39293" lon="6.7726">
        <ele>1624</ele>
        <time>2010-09-18T07:37:51Z</time>
      </trkpt>
      <trkpt lat="44.39285" lon="6.77303">
        <ele>1627</ele>
        <time>2010-09-18T07:38:00Z</time>
      </trkpt>
      <trkpt lat="44.39252" lon="6.77378">
        <ele>1633</ele>
        <time>2010-09-18T07:38:18Z</time>
      </trkpt>
      <trkpt lat="44.3921" lon="6.77468">
        <ele>1640</ele>
        <time>2010-09-18T07:38:40Z</time>
      </trkpt>
      <trkpt lat="44.39168" lon="6.77513">
        <ele>1644</ele>
        <time>2010-09-18T07:38:55Z</time>
      </trkpt>
      <trkpt lat="44.39152" lon="6.7756">
        <ele>1646</ele>
        <time>2010-09-18T07:39:05Z</time>
      </trkpt>
      <trkpt lat="44.39148" lon="6.77598">
        <ele>1649</ele>
        <time>2010-09-18T07:39:13Z</time>
      </trkpt>
      <trkpt lat="44.3912" lon="6.77702">
        <ele>1653</ele>
        <time>2010-09-18T07:39:34Z</time>
      </trkpt>
      <trkpt lat="44.39097" lon="6.77733">
        <ele>1657</ele>
        <time>2010-09-18T07:39:43Z</time>
      </trkpt>
      <trkpt lat="44.39062" lon="6.77763">
        <ele>1656</ele>
        <time>2010-09-18T07:39:55Z</time>
      </trkpt>
      <trkpt lat="44.39028" lon="6.77777">
        <ele>1660</ele>
        <time>2010-09-18T07:40:05Z</time>
      </trkpt>
      <trkpt lat="44.39" lon="6.77805">
        <ele>1663</ele>
        <time>2010-09-18T07:40:16Z</time>
      </trkpt>
      <trkpt lat="44.38953" lon="6.77818">
        <ele>1668</ele>
        <time>2010-09-18T07:40:30Z</time>
      </trkpt>
      <trkpt lat="44.38893" lon="6.77785">
        <ele>1676</ele>
        <time>2010-09-18T07:40:50Z</time>
      </trkpt>
      <trkpt lat="44.38867" lon="6.77797">
        <ele>1679</ele>
        <time>2010-09-18T07:40:59Z</time>
      </trkpt>
      <trkpt lat="44.38838" lon="6.77835">
        <ele>1682</ele>
        <time>2010-09-18T07:41:10Z</time>
      </trkpt>
      <trkpt lat="44.38817" lon="6.77848">
        <ele>1684</ele>
        <time>2010-09-18T07:41:17Z</time>
      </trkpt>
      <trkpt lat="44.3882" lon="6.77872">
        <ele>1687</ele>
        <time>2010-09-18T07:41:25Z</time>
      </trkpt>
      <trkpt lat="44.38855" lon="6.7785">
        <ele>1690</ele>
        <time>2010-09-18T07:41:35Z</time>
      </trkpt>
      <trkpt lat="44.38877" lon="6.77828">
        <ele>1693</ele>
        <time>2010-09-18T07:41:43Z</time>
      </trkpt>
      <trkpt lat="44.38898" lon="6.77837">
        <ele>1696</ele>
        <time>2010-09-18T07:41:51Z</time>
      </trkpt>
      <trkpt lat="44.38945" lon="6.77927">
        <ele>1701</ele>
        <time>2010-09-18T07:42:14Z</time>
      </trkpt>
      <trkpt lat="44.38927" lon="6.7793">
        <ele>1704</ele>
        <time>2010-09-18T07:42:24Z</time>
      </trkpt>
      <trkpt lat="44.38898" lon="6.77897">
        <ele>1708</ele>
        <time>2010-09-18T07:42:36Z</time>
      </trkpt>
      <trkpt lat="44.38875" lon="6.77895">
        <ele>1710</ele>
        <time>2010-09-18T07:42:44Z</time>
      </trkpt>
      <trkpt lat="44.38845" lon="6.7796">
        <ele>1716</ele>
        <time>2010-09-18T07:43:02Z</time>
      </trkpt>
      <trkpt lat="44.3882" lon="6.77978">
        <ele>1719</ele>
        <time>2010-09-18T07:43:11Z</time>
      </trkpt>
      <trkpt lat="44.38795" lon="6.77967">
        <ele>1723</ele>
        <time>2010-09-18T07:43:20Z</time>
      </trkpt>
      <trkpt lat="44.38757" lon="6.77977">
        <ele>1725</ele>
        <time>2010-09-18T07:43:31Z</time>
      </trkpt>
      <trkpt lat="44.38772" lon="6.77998">
        <ele>1727</ele>
        <time>2010-09-18T07:43:41Z</time>
      </trkpt>
      <trkpt lat="44.38798" lon="6.78003">
        <ele>1730</ele>
        <time>2010-09-18T07:43:50Z</time>
      </trkpt>
      <trkpt lat="44.38875" lon="6.78022">
        <ele>1736</ele>
        <time>2010-09-18T07:44:15Z</time>
      </trkpt>
      <trkpt lat="44.38927" lon="6.78065">
        <ele>1739</ele>
        <time>2010-09-18T07:44:33Z</time>
      </trkpt>
      <trkpt lat="44.38897" lon="6.78055">
        <ele>1743</ele>
        <time>2010-09-18T07:44:47Z</time>
      </trkpt>
      <trkpt lat="44.38833" lon="6.78058">
        <ele>1750</ele>
        <time>2010-09-18T07:45:07Z</time>
      </trkpt>
      <trkpt lat="44.38793" lon="6.78065">
        <ele>1756</ele>
        <time>2010-09-18T07:45:20Z</time>
      </trkpt>
      <trkpt lat="44.38767" lon="6.78073">
        <ele>1761</ele>
        <time>2010-09-18T07:45:30Z</time>
      </trkpt>
      <trkpt lat="44.38732" lon="6.7808">
        <ele>1766</ele>
        <time>2010-09-18T07:45:42Z</time>
      </trkpt>
      <trkpt lat="44.38705" lon="6.78097">
        <ele>1768</ele>
        <time>2010-09-18T07:45:52Z</time>
      </trkpt>
      <trkpt lat="44.38675" lon="6.78085">
        <ele>1771</ele>
        <time>2010-09-18T07:46:03Z</time>
      </trkpt>
      <trkpt lat="44.3865" lon="6.78057">
        <ele>1776</ele>
        <time>2010-09-18T07:46:14Z</time>
      </trkpt>
      <trkpt lat="44.38615" lon="6.7804">
        <ele>1779</ele>
        <time>2010-09-18T07:46:25Z</time>
      </trkpt>
      <trkpt lat="44.38515" lon="6.78035">
        <ele>1788</ele>
        <time>2010-09-18T07:46:58Z</time>
      </trkpt>
      <trkpt lat="44.38483" lon="6.77995">
        <ele>1793</ele>
        <time>2010-09-18T07:47:12Z</time>
      </trkpt>
      <trkpt lat="44.38455" lon="6.77988">
        <ele>1794</ele>
        <time>2010-09-18T07:47:21Z</time>
      </trkpt>
      <trkpt lat="44.38392" lon="6.78028">
        <ele>1801</ele>
        <time>2010-09-18T07:47:43Z</time>
      </trkpt>
      <trkpt lat="44.3837" lon="6.78048">
        <ele>1802</ele>
        <time>2010-09-18T07:47:51Z</time>
      </trkpt>
      <trkpt lat="44.38333" lon="6.78038">
        <ele>1801</ele>
        <time>2010-09-18T07:48:00Z</time>
      </trkpt>
      <trkpt lat="44.38297" lon="6.78055">
        <ele>1801</ele>
        <time>2010-09-18T07:48:08Z</time>
      </trkpt>
      <trkpt lat="44.38265" lon="6.7803">
        <ele>1804</ele>
        <time>2010-09-18T07:48:17Z</time>
      </trkpt>
      <trkpt lat="44.3823" lon="6.78023">
        <ele>1806</ele>
        <time>2010-09-18T07:48:28Z</time>
      </trkpt>
      <trkpt lat="44.38192" lon="6.7803">
        <ele>1809</ele>
        <time>2010-09-18T07:48:40Z</time>
      </trkpt>
      <trkpt lat="44.38158" lon="6.78042">
        <ele>1813</ele>
        <time>2010-09-18T07:48:51Z</time>
      </trkpt>
      <trkpt lat="44.38135" lon="6.78032">
        <ele>1815</ele>
        <time>2010-09-18T07:48:59Z</time>
      </trkpt>
      <trkpt lat="44.38097" lon="6.78048">
        <ele>1820</ele>
        <time>2010-09-18T07:49:13Z</time>
      </trkpt>
      <trkpt lat="44.38067" lon="6.78052">
        <ele>1824</ele>
        <time>2010-09-18T07:49:23Z</time>
      </trkpt>
      <trkpt lat="44.38107" lon="6.78077">
        <ele>1827</ele>
        <time>2010-09-18T07:49:41Z</time>
      </trkpt>
      <trkpt lat="44.38147" lon="6.78117">
        <ele>1831</ele>
        <time>2010-09-18T07:49:57Z</time>
      </trkpt>
      <trkpt lat="44.38182" lon="6.78128">
        <ele>1834</ele>
        <time>2010-09-18T07:50:09Z</time>
      </trkpt>
      <trkpt lat="44.38177" lon="6.78155">
        <ele>1835</ele>
        <time>2010-09-18T07:50:18Z</time>
      </trkpt>
      <trkpt lat="44.38132" lon="6.7815">
        <ele>1838</ele>
        <time>2010-09-18T07:50:31Z</time>
      </trkpt>
      <trkpt lat="44.38097" lon="6.78145">
        <ele>1842</ele>
        <time>2010-09-18T07:50:43Z</time>
      </trkpt>
      <trkpt lat="44.3797" lon="6.78192">
        <ele>1854</ele>
        <time>2010-09-18T07:51:23Z</time>
      </trkpt>
      <trkpt lat="44.37885" lon="6.78182">
        <ele>1863</ele>
        <time>2010-09-18T07:51:50Z</time>
      </trkpt>
      <trkpt lat="44.3785" lon="6.78183">
        <ele>1865</ele>
        <time>2010-09-18T07:52:01Z</time>
      </trkpt>
      <trkpt lat="44.378" lon="6.78163">
        <ele>1870</ele>
        <time>2010-09-18T07:52:18Z</time>
      </trkpt>
      <trkpt lat="44.3777" lon="6.78127">
        <ele>1874</ele>
        <time>2010-09-18T07:52:31Z</time>
      </trkpt>
      <trkpt lat="44.37728" lon="6.7811">
        <ele>1879</ele>
        <time>2010-09-18T07:52:45Z</time>
      </trkpt>
      <trkpt lat="44.37702" lon="6.7811">
        <ele>1882</ele>
        <time>2010-09-18T07:52:55Z</time>
      </trkpt>
      <trkpt lat="44.3765" lon="6.7815">
        <ele>1887</ele>
        <time>2010-09-18T07:53:13Z</time>
      </trkpt>
      <trkpt lat="44.37622" lon="6.7819">
        <ele>1890</ele>
        <time>2010-09-18T07:53:25Z</time>
      </trkpt>
      <trkpt lat="44.37578" lon="6.78213">
        <ele>1893</ele>
        <time>2010-09-18T07:53:39Z</time>
      </trkpt>
      <trkpt lat="44.37533" lon="6.78225">
        <ele>1897</ele>
        <time>2010-09-18T07:53:53Z</time>
      </trkpt>
      <trkpt lat="44.37505" lon="6.78248">
        <ele>1899</ele>
        <time>2010-09-18T07:54:03Z</time>
      </trkpt>
      <trkpt lat="44.37457" lon="6.78247">
        <ele>1904</ele>
        <time>2010-09-18T07:54:19Z</time>
      </trkpt>
      <trkpt lat="44.37367" lon="6.7825">
        <ele>1913</ele>
        <time>2010-09-18T07:54:49Z</time>
      </trkpt>
      <trkpt lat="44.37328" lon="6.78223">
        <ele>1918</ele>
        <time>2010-09-18T07:55:03Z</time>
      </trkpt>
      <trkpt lat="44.37303" lon="6.78195">
        <ele>1921</ele>
        <time>2010-09-18T07:55:14Z</time>
      </trkpt>
      <trkpt lat="44.37277" lon="6.78183">
        <ele>1923</ele>
        <time>2010-09-18T07:55:23Z</time>
      </trkpt>
      <trkpt lat="44.37157" lon="6.78218">
        <ele>1934</ele>
        <time>2010-09-18T07:56:03Z</time>
      </trkpt>
      <trkpt lat="44.37082" lon="6.78275">
        <ele>1944</ele>
        <time>2010-09-18T07:56:32Z</time>
      </trkpt>
      <trkpt lat="44.3705" lon="6.7832">
        <ele>1949</ele>
        <time>2010-09-18T07:56:47Z</time>
      </trkpt>
      <trkpt lat="44.37022" lon="6.78383">
        <ele>1955</ele>
        <time>2010-09-18T07:57:06Z</time>
      </trkpt>
      <trkpt lat="44.36995" lon="6.78417">
        <ele>1959</ele>
        <time>2010-09-18T07:57:18Z</time>
      </trkpt>
      <trkpt lat="44.36937" lon="6.78477">
        <ele>1965</ele>
        <time>2010-09-18T07:57:42Z</time>
      </trkpt>
      <trkpt lat="44.36923" lon="6.7851">
        <ele>1967</ele>
        <time>2010-09-18T07:57:51Z</time>
      </trkpt>
      <trkpt lat="44.36902" lon="6.78528">
        <ele>1970</ele>
        <time>2010-09-18T07:58:00Z</time>
      </trkpt>
      <trkpt lat="44.36868" lon="6.7854">
        <ele>1972</ele>
        <time>2010-09-18T07:58:11Z</time>
      </trkpt>
      <trkpt lat="44.36817" lon="6.78588">
        <ele>1978</ele>
        <time>2010-09-18T07:58:32Z</time>
      </trkpt>
      <trkpt lat="44.36785" lon="6.78598">
        <ele>1982</ele>
        <time>2010-09-18T07:58:43Z</time>
      </trkpt>
      <trkpt lat="44.36768" lon="6.78615">
        <ele>1986</ele>
        <time>2010-09-18T08:02:24Z</time>
      </trkpt>
      <trkpt lat="44.36725" lon="6.78637">
        <ele>1989</ele>
        <time>2010-09-18T08:02:40Z</time>
      </trkpt>
      <trkpt lat="44.36672" lon="6.78648">
        <ele>1994</ele>
        <time>2010-09-18T08:02:59Z</time>
      </trkpt>
      <trkpt lat="44.3665" lon="6.78663">
        <ele>1996</ele>
        <time>2010-09-18T08:03:07Z</time>
      </trkpt>
      <trkpt lat="44.36668" lon="6.78682">
        <ele>1998</ele>
        <time>2010-09-18T08:03:17Z</time>
      </trkpt>
      <trkpt lat="44.36692" lon="6.7867">
        <ele>1999</ele>
        <time>2010-09-18T08:03:26Z</time>
      </trkpt>
      <trkpt lat="44.36732" lon="6.78688">
        <ele>2001</ele>
        <time>2010-09-18T08:03:40Z</time>
      </trkpt>
      <trkpt lat="44.36777" lon="6.78675">
        <ele>2004</ele>
        <time>2010-09-18T08:03:56Z</time>
      </trkpt>
      <trkpt lat="44.36825" lon="6.78683">
        <ele>2008</ele>
        <time>2010-09-18T08:04:13Z</time>
      </trkpt>
      <trkpt lat="44.36878" lon="6.7868">
        <ele>2012</ele>
        <time>2010-09-18T08:04:31Z</time>
      </trkpt>
      <trkpt lat="44.36863" lon="6.78703">
        <ele>2015</ele>
        <time>2010-09-18T08:04:44Z</time>
      </trkpt>
      <trkpt lat="44.36793" lon="6.78727">
        <ele>2023</ele>
        <time>2010-09-18T08:05:10Z</time>
      </trkpt>
      <trkpt lat="44.3676" lon="6.78752">
        <ele>2027</ele>
        <time>2010-09-18T08:05:24Z</time>
      </trkpt>
      <trkpt lat="44.36738" lon="6.78762">
        <ele>2029</ele>
        <time>2010-09-18T08:05:33Z</time>
      </trkpt>
      <trkpt lat="44.36702" lon="6.78808">
        <ele>2034</ele>
        <time>2010-09-18T08:05:51Z</time>
      </trkpt>
      <trkpt lat="44.3668" lon="6.78838">
        <ele>2037</ele>
        <time>2010-09-18T08:06:02Z</time>
      </trkpt>
      <trkpt lat="44.36647" lon="6.78848">
        <ele>2040</ele>
        <time>2010-09-18T08:06:13Z</time>
      </trkpt>
      <trkpt lat="44.36617" lon="6.78867">
        <ele>2043</ele>
        <time>2010-09-18T08:06:24Z</time>
      </trkpt>
      <trkpt lat="44.3652" lon="6.78848">
        <ele>2053</ele>
        <time>2010-09-18T08:06:56Z</time>
      </trkpt>
      <trkpt lat="44.3647" lon="6.78797">
        <ele>2057</ele>
        <time>2010-09-18T08:07:15Z</time>
      </trkpt>
      <trkpt lat="44.36405" lon="6.78807">
        <ele>2062</ele>
        <time>2010-09-18T08:07:34Z</time>
      </trkpt>
      <trkpt lat="44.36378" lon="6.78798">
        <ele>2063</ele>
        <time>2010-09-18T08:07:42Z</time>
      </trkpt>
      <trkpt lat="44.36345" lon="6.78813">
        <ele>2063</ele>
        <time>2010-09-18T08:07:50Z</time>
      </trkpt>
      <trkpt lat="44.3618" lon="6.78738">
        <ele>2062</ele>
        <time>2010-09-18T08:08:15Z</time>
      </trkpt>
      <trkpt lat="44.36138" lon="6.78693">
        <ele>2067</ele>
        <time>2010-09-18T08:08:27Z</time>
      </trkpt>
      <trkpt lat="44.36122" lon="6.78655">
        <ele>2071</ele>
        <time>2010-09-18T08:08:37Z</time>
      </trkpt>
      <trkpt lat="44.36115" lon="6.78615">
        <ele>2075</ele>
        <time>2010-09-18T08:08:47Z</time>
      </trkpt>
      <trkpt lat="44.3606" lon="6.78557">
        <ele>2081</ele>
        <time>2010-09-18T08:09:10Z</time>
      </trkpt>
      <trkpt lat="44.36037" lon="6.78547">
        <ele>2082</ele>
        <time>2010-09-18T08:09:18Z</time>
      </trkpt>
      <trkpt lat="44.36017" lon="6.78467">
        <ele>2090</ele>
        <time>2010-09-18T08:09:37Z</time>
      </trkpt>
      <trkpt lat="44.35995" lon="6.78427">
        <ele>2094</ele>
        <time>2010-09-18T08:09:48Z</time>
      </trkpt>
      <trkpt lat="44.35892" lon="6.783">
        <ele>2105</ele>
        <time>2010-09-18T08:10:27Z</time>
      </trkpt>
      <trkpt lat="44.35863" lon="6.78297">
        <ele>2106</ele>
        <time>2010-09-18T08:10:34Z</time>
      </trkpt>
      <trkpt lat="44.35825" lon="6.78347">
        <ele>2107</ele>
        <time>2010-09-18T08:10:46Z</time>
      </trkpt>
      <trkpt lat="44.35797" lon="6.78362">
        <ele>2109</ele>
        <time>2010-09-18T08:10:54Z</time>
      </trkpt>
      <trkpt lat="44.35678" lon="6.78323">
        <ele>2116</ele>
        <time>2010-09-18T08:11:26Z</time>
      </trkpt>
      <trkpt lat="44.35613" lon="6.78268">
        <ele>2122</ele>
        <time>2010-09-18T08:11:47Z</time>
      </trkpt>
      <trkpt lat="44.35553" lon="6.78248">
        <ele>2127</ele>
        <time>2010-09-18T08:12:05Z</time>
      </trkpt>
      <trkpt lat="44.35522" lon="6.78255">
        <ele>2130</ele>
        <time>2010-09-18T08:12:14Z</time>
      </trkpt>
      <trkpt lat="44.35487" lon="6.78275">
        <ele>2133</ele>
        <time>2010-09-18T08:12:26Z</time>
      </trkpt>
      <trkpt lat="44.35448" lon="6.78323">
        <ele>2138</ele>
        <time>2010-09-18T08:12:42Z</time>
      </trkpt>
      <trkpt lat="44.3542" lon="6.78325">
        <ele>2141</ele>
        <time>2010-09-18T08:12:53Z</time>
      </trkpt>
      <trkpt lat="44.3536" lon="6.78353">
        <ele>2148</ele>
        <time>2010-09-18T08:13:16Z</time>
      </trkpt>
      <trkpt lat="44.35317" lon="6.7835">
        <ele>2150</ele>
        <time>2010-09-18T08:13:29Z</time>
      </trkpt>
      <trkpt lat="44.35285" lon="6.7833">
        <ele>2152</ele>
        <time>2010-09-18T08:13:40Z</time>
      </trkpt>
      <trkpt lat="44.35218" lon="6.78278">
        <ele>2159</ele>
        <time>2010-09-18T08:14:05Z</time>
      </trkpt>
      <trkpt lat="44.35192" lon="6.7826">
        <ele>2162</ele>
        <time>2010-09-18T08:14:16Z</time>
      </trkpt>
      <trkpt lat="44.35165" lon="6.7827">
        <ele>2164</ele>
        <time>2010-09-18T08:14:26Z</time>
      </trkpt>
      <trkpt lat="44.35153" lon="6.78313">
        <ele>2168</ele>
        <time>2010-09-18T08:14:37Z</time>
      </trkpt>
      <trkpt lat="44.35155" lon="6.78383">
        <ele>2173</ele>
        <time>2010-09-18T08:14:55Z</time>
      </trkpt>
      <trkpt lat="44.35145" lon="6.78415">
        <ele>2176</ele>
        <time>2010-09-18T08:15:04Z</time>
      </trkpt>
      <trkpt lat="44.35143" lon="6.78448">
        <ele>2178</ele>
        <time>2010-09-18T08:15:13Z</time>
      </trkpt>
      <trkpt lat="44.35167" lon="6.7847">
        <ele>2180</ele>
        <time>2010-09-18T08:15:23Z</time>
      </trkpt>
      <trkpt lat="44.35172" lon="6.78497">
        <ele>2182</ele>
        <time>2010-09-18T08:15:30Z</time>
      </trkpt>
      <trkpt lat="44.35152" lon="6.78508">
        <ele>2185</ele>
        <time>2010-09-18T08:15:39Z</time>
      </trkpt>
      <trkpt lat="44.35098" lon="6.78477">
        <ele>2191</ele>
        <time>2010-09-18T08:16:01Z</time>
      </trkpt>
      <trkpt lat="44.35077" lon="6.78453">
        <ele>2195</ele>
        <time>2010-09-18T08:16:11Z</time>
      </trkpt>
      <trkpt lat="44.35057" lon="6.78445">
        <ele>2198</ele>
        <time>2010-09-18T08:16:19Z</time>
      </trkpt>
      <trkpt lat="44.35053" lon="6.78415">
        <ele>2200</ele>
        <time>2010-09-18T08:16:27Z</time>
      </trkpt>
      <trkpt lat="44.35027" lon="6.78348">
        <ele>2206</ele>
        <time>2010-09-18T08:16:47Z</time>
      </trkpt>
      <trkpt lat="44.34998" lon="6.7834">
        <ele>2209</ele>
        <time>2010-09-18T08:16:58Z</time>
      </trkpt>
      <trkpt lat="44.34948" lon="6.78353">
        <ele>2215</ele>
        <time>2010-09-18T08:17:16Z</time>
      </trkpt>
      <trkpt lat="44.34877" lon="6.78352">
        <ele>2223</ele>
        <time>2010-09-18T08:17:43Z</time>
      </trkpt>
      <trkpt lat="44.34862" lon="6.78375">
        <ele>2223</ele>
        <time>2010-09-18T08:17:50Z</time>
      </trkpt>
      <trkpt lat="44.34885" lon="6.78408">
        <ele>2225</ele>
        <time>2010-09-18T08:18:00Z</time>
      </trkpt>
      <trkpt lat="44.34902" lon="6.78443">
        <ele>2228</ele>
        <time>2010-09-18T08:18:09Z</time>
      </trkpt>
      <trkpt lat="44.34963" lon="6.7849">
        <ele>2232</ele>
        <time>2010-09-18T08:18:32Z</time>
      </trkpt>
      <trkpt lat="44.34988" lon="6.78515">
        <ele>2235</ele>
        <time>2010-09-18T08:18:42Z</time>
      </trkpt>
      <trkpt lat="44.34973" lon="6.78533">
        <ele>2236</ele>
        <time>2010-09-18T08:18:52Z</time>
      </trkpt>
      <trkpt lat="44.3495" lon="6.7851">
        <ele>2240</ele>
        <time>2010-09-18T08:19:02Z</time>
      </trkpt>
      <trkpt lat="44.34915" lon="6.78488">
        <ele>2245</ele>
        <time>2010-09-18T08:19:15Z</time>
      </trkpt>
      <trkpt lat="44.3485" lon="6.78485">
        <ele>2252</ele>
        <time>2010-09-18T08:19:39Z</time>
      </trkpt>
      <trkpt lat="44.34833" lon="6.78455">
        <ele>2255</ele>
        <time>2010-09-18T08:19:50Z</time>
      </trkpt>
      <trkpt lat="44.34825" lon="6.7842">
        <ele>2258</ele>
        <time>2010-09-18T08:19:59Z</time>
      </trkpt>
      <trkpt lat="44.3481" lon="6.78457">
        <ele>2262</ele>
        <time>2010-09-18T08:20:12Z</time>
      </trkpt>
      <trkpt lat="44.34787" lon="6.78492">
        <ele>2266</ele>
        <time>2010-09-18T08:20:26Z</time>
      </trkpt>
      <trkpt lat="44.34767" lon="6.78525">
        <ele>2268</ele>
        <time>2010-09-18T08:20:36Z</time>
      </trkpt>
      <trkpt lat="44.34777" lon="6.78557">
        <ele>2269</ele>
        <time>2010-09-18T08:20:44Z</time>
      </trkpt>
      <trkpt lat="44.34822" lon="6.78552">
        <ele>2270</ele>
        <time>2010-09-18T08:20:55Z</time>
      </trkpt>
      <trkpt lat="44.34833" lon="6.7857">
        <ele>2272</ele>
        <time>2010-09-18T08:21:02Z</time>
      </trkpt>
      <trkpt lat="44.34782" lon="6.78635">
        <ele>2280</ele>
        <time>2010-09-18T08:21:27Z</time>
      </trkpt>
      <trkpt lat="44.34725" lon="6.78695">
        <ele>2288</ele>
        <time>2010-09-18T08:21:53Z</time>
      </trkpt>
      <trkpt lat="44.34697" lon="6.78712">
        <ele>2289</ele>
        <time>2010-09-18T08:22:03Z</time>
      </trkpt>
      <trkpt lat="44.34608" lon="6.7866">
        <ele>2294</ele>
        <time>2010-09-18T08:22:31Z</time>
      </trkpt>
      <trkpt lat="44.3457" lon="6.78632">
        <ele>2297</ele>
        <time>2010-09-18T08:22:47Z</time>
      </trkpt>
      <trkpt lat="44.34545" lon="6.78595">
        <ele>2302</ele>
        <time>2010-09-18T08:23:02Z</time>
      </trkpt>
      <trkpt lat="44.34528" lon="6.78573">
        <ele>2304</ele>
        <time>2010-09-18T08:23:11Z</time>
      </trkpt>
      <trkpt lat="44.34502" lon="6.78557">
        <ele>2306</ele>
        <time>2010-09-18T08:23:23Z</time>
      </trkpt>
      <trkpt lat="44.34497" lon="6.78518">
        <ele>2309</ele>
        <time>2010-09-18T08:23:35Z</time>
      </trkpt>
      <trkpt lat="44.345" lon="6.78485">
        <ele>2312</ele>
        <time>2010-09-18T08:23:45Z</time>
      </trkpt>
      <trkpt lat="44.34492" lon="6.78453">
        <ele>2314</ele>
        <time>2010-09-18T08:23:55Z</time>
      </trkpt>
      <trkpt lat="44.34465" lon="6.78448">
        <ele>2317</ele>
        <time>2010-09-18T08:24:06Z</time>
      </trkpt>
      <trkpt lat="44.34417" lon="6.78437">
        <ele>2321</ele>
        <time>2010-09-18T08:24:24Z</time>
      </trkpt>
      <trkpt lat="44.344" lon="6.78443">
        <ele>2323</ele>
        <time>2010-09-18T08:26:50Z</time>
      </trkpt>
      <trkpt lat="44.34382" lon="6.78457">
        <ele>2325</ele>
        <time>2010-09-18T08:28:07Z</time>
      </trkpt>
      <trkpt lat="44.34353" lon="6.78462">
        <ele>2327</ele>
        <time>2010-09-18T08:28:21Z</time>
      </trkpt>
      <trkpt lat="44.3432" lon="6.78437">
        <ele>2330</ele>
        <time>2010-09-18T08:28:34Z</time>
      </trkpt>
      <trkpt lat="44.3431" lon="6.78397">
        <ele>2332</ele>
        <time>2010-09-18T08:28:44Z</time>
      </trkpt>
      <trkpt lat="44.34298" lon="6.78373">
        <ele>2332</ele>
        <time>2010-09-18T08:28:54Z</time>
      </trkpt>
      <trkpt lat="44.34287" lon="6.78385">
        <ele>2335</ele>
        <time>2010-09-18T08:31:42Z</time>
      </trkpt>
      <trkpt lat="44.34308" lon="6.78377">
        <ele>2334</ele>
        <time>2010-09-18T08:49:36Z</time>
      </trkpt>
      <trkpt lat="44.3432" lon="6.78327">
        <ele>2336</ele>
        <time>2010-09-18T08:49:47Z</time>
      </trkpt>
      <trkpt lat="44.3428" lon="6.78233">
        <ele>2339</ele>
        <time>2010-09-18T08:50:06Z</time>
      </trkpt>
      <trkpt lat="44.34202" lon="6.78213">
        <ele>2346</ele>
        <time>2010-09-18T08:50:25Z</time>
      </trkpt>
      <trkpt lat="44.34105" lon="6.78257">
        <ele>2350</ele>
        <time>2010-09-18T08:50:45Z</time>
      </trkpt>
      <trkpt lat="44.34017" lon="6.78268">
        <ele>2358</ele>
        <time>2010-09-18T08:51:03Z</time>
      </trkpt>
      <trkpt lat="44.33975" lon="6.78247">
        <ele>2361</ele>
        <time>2010-09-18T08:51:13Z</time>
      </trkpt>
      <trkpt lat="44.33897" lon="6.78308">
        <ele>2368</ele>
        <time>2010-09-18T08:51:33Z</time>
      </trkpt>
      <trkpt lat="44.3387" lon="6.7838">
        <ele>2373</ele>
        <time>2010-09-18T08:51:44Z</time>
      </trkpt>
      <trkpt lat="44.33848" lon="6.78413">
        <ele>2376</ele>
        <time>2010-09-18T08:51:51Z</time>
      </trkpt>
      <trkpt lat="44.33812" lon="6.78427">
        <ele>2376</ele>
        <time>2010-09-18T08:51:58Z</time>
      </trkpt>
      <trkpt lat="44.33803" lon="6.78462">
        <ele>2378</ele>
        <time>2010-09-18T08:52:03Z</time>
      </trkpt>
      <trkpt lat="44.33838" lon="6.78487">
        <ele>2379</ele>
        <time>2010-09-18T08:52:10Z</time>
      </trkpt>
      <trkpt lat="44.33838" lon="6.78555">
        <ele>2381</ele>
        <time>2010-09-18T08:52:19Z</time>
      </trkpt>
      <trkpt lat="44.3384" lon="6.78607">
        <ele>2381</ele>
        <time>2010-09-18T08:52:25Z</time>
      </trkpt>
      <trkpt lat="44.33755" lon="6.78742">
        <ele>2391</ele>
        <time>2010-09-18T08:52:50Z</time>
      </trkpt>
      <trkpt lat="44.33758" lon="6.78793">
        <ele>2393</ele>
        <time>2010-09-18T08:52:58Z</time>
      </trkpt>
      <trkpt lat="44.33768" lon="6.78843">
        <ele>2394</ele>
        <time>2010-09-18T08:53:05Z</time>
      </trkpt>
      <trkpt lat="44.33763" lon="6.78903">
        <ele>2396</ele>
        <time>2010-09-18T08:53:12Z</time>
      </trkpt>
      <trkpt lat="44.33778" lon="6.78973">
        <ele>2398</ele>
        <time>2010-09-18T08:53:21Z</time>
      </trkpt>
      <trkpt lat="44.33785" lon="6.79098">
        <ele>2403</ele>
        <time>2010-09-18T08:53:37Z</time>
      </trkpt>
      <trkpt lat="44.3379" lon="6.79173">
        <ele>2406</ele>
        <time>2010-09-18T08:53:47Z</time>
      </trkpt>
      <trkpt lat="44.33812" lon="6.792">
        <ele>2410</ele>
        <time>2010-09-18T08:53:53Z</time>
      </trkpt>
      <trkpt lat="44.33915" lon="6.79165">
        <ele>2417</ele>
        <time>2010-09-18T08:54:13Z</time>
      </trkpt>
      <trkpt lat="44.33977" lon="6.79155">
        <ele>2423</ele>
        <time>2010-09-18T08:54:29Z</time>
      </trkpt>
      <trkpt lat="44.34012" lon="6.7911">
        <ele>2429</ele>
        <time>2010-09-18T08:54:42Z</time>
      </trkpt>
      <trkpt lat="44.3403" lon="6.79065">
        <ele>2432</ele>
        <time>2010-09-18T08:54:52Z</time>
      </trkpt>
      <trkpt lat="44.34048" lon="6.7899">
        <ele>2439</ele>
        <time>2010-09-18T08:55:08Z</time>
      </trkpt>
      <trkpt lat="44.34075" lon="6.78925">
        <ele>2443</ele>
        <time>2010-09-18T08:55:20Z</time>
      </trkpt>
      <trkpt lat="44.34075" lon="6.78977">
        <ele>2449</ele>
        <time>2010-09-18T08:55:34Z</time>
      </trkpt>
      <trkpt lat="44.34082" lon="6.79077">
        <ele>2457</ele>
        <time>2010-09-18T08:55:53Z</time>
      </trkpt>
      <trkpt lat="44.34082" lon="6.79143">
        <ele>2463</ele>
        <time>2010-09-18T08:56:06Z</time>
      </trkpt>
      <trkpt lat="44.34068" lon="6.79183">
        <ele>2467</ele>
        <time>2010-09-18T08:56:15Z</time>
      </trkpt>
      <trkpt lat="44.33997" lon="6.7931">
        <ele>2480</ele>
        <time>2010-09-18T08:56:44Z</time>
      </trkpt>
      <trkpt lat="44.33998" lon="6.79347">
        <ele>2482</ele>
        <time>2010-09-18T08:56:51Z</time>
      </trkpt>
      <trkpt lat="44.34068" lon="6.79362">
        <ele>2488</ele>
        <time>2010-09-18T08:57:08Z</time>
      </trkpt>
      <trkpt lat="44.3409" lon="6.79392">
        <ele>2491</ele>
        <time>2010-09-18T08:57:17Z</time>
      </trkpt>
      <trkpt lat="44.341" lon="6.79432">
        <ele>2495</ele>
        <time>2010-09-18T08:57:26Z</time>
      </trkpt>
      <trkpt lat="44.34128" lon="6.7948">
        <ele>2500</ele>
        <time>2010-09-18T08:57:39Z</time>
      </trkpt>
      <trkpt lat="44.34177" lon="6.79482">
        <ele>2504</ele>
        <time>2010-09-18T08:57:52Z</time>
      </trkpt>
      <trkpt lat="44.34203" lon="6.79457">
        <ele>2508</ele>
        <time>2010-09-18T08:58:00Z</time>
      </trkpt>
      <trkpt lat="44.34323" lon="6.79425">
        <ele>2519</ele>
        <time>2010-09-18T08:58:30Z</time>
      </trkpt>
      <trkpt lat="44.34358" lon="6.7944">
        <ele>2521</ele>
        <time>2010-09-18T08:58:38Z</time>
      </trkpt>
      <trkpt lat="44.34383" lon="6.79438">
        <ele>2522</ele>
        <time>2010-09-18T08:58:43Z</time>
      </trkpt>
      <trkpt lat="44.34372" lon="6.7947">
        <ele>2525</ele>
        <time>2010-09-18T08:58:51Z</time>
      </trkpt>
      <trkpt lat="44.34333" lon="6.79465">
        <ele>2530</ele>
        <time>2010-09-18T08:59:01Z</time>
      </trkpt>
      <trkpt lat="44.34287" lon="6.79523">
        <ele>2537</ele>
        <time>2010-09-18T08:59:19Z</time>
      </trkpt>
      <trkpt lat="44.34253" lon="6.7954">
        <ele>2540</ele>
        <time>2010-09-18T08:59:29Z</time>
      </trkpt>
      <trkpt lat="44.34283" lon="6.79582">
        <ele>2544</ele>
        <time>2010-09-18T08:59:43Z</time>
      </trkpt>
      <trkpt lat="44.34305" lon="6.79617">
        <ele>2546</ele>
        <time>2010-09-18T08:59:50Z</time>
      </trkpt>
      <trkpt lat="44.34372" lon="6.79792">
        <ele>2557</ele>
        <time>2010-09-18T09:00:20Z</time>
      </trkpt>
      <trkpt lat="44.3438" lon="6.79827">
        <ele>2559</ele>
        <time>2010-09-18T09:00:26Z</time>
      </trkpt>
      <trkpt lat="44.34408" lon="6.79767">
        <ele>2562</ele>
        <time>2010-09-18T09:00:37Z</time>
      </trkpt>
      <trkpt lat="44.34388" lon="6.7971">
        <ele>2565</ele>
        <time>2010-09-18T09:00:46Z</time>
      </trkpt>
      <trkpt lat="44.34412" lon="6.79725">
        <ele>2568</ele>
        <time>2010-09-18T09:00:56Z</time>
      </trkpt>
      <trkpt lat="44.34443" lon="6.79755">
        <ele>2571</ele>
        <time>2010-09-18T09:01:04Z</time>
      </trkpt>
      <trkpt lat="44.34467" lon="6.79772">
        <ele>2574</ele>
        <time>2010-09-18T09:01:10Z</time>
      </trkpt>
      <trkpt lat="44.34485" lon="6.79792">
        <ele>2577</ele>
        <time>2010-09-18T09:01:17Z</time>
      </trkpt>
      <trkpt lat="44.34508" lon="6.79772">
        <ele>2579</ele>
        <time>2010-09-18T09:01:24Z</time>
      </trkpt>
      <trkpt lat="44.34522" lon="6.79793">
        <ele>2582</ele>
        <time>2010-09-18T09:01:31Z</time>
      </trkpt>
      <trkpt lat="44.34463" lon="6.7983">
        <ele>2590</ele>
        <time>2010-09-18T09:01:48Z</time>
      </trkpt>
      <trkpt lat="44.34432" lon="6.79867">
        <ele>2595</ele>
        <time>2010-09-18T09:01:59Z</time>
      </trkpt>
      <trkpt lat="44.34435" lon="6.79933">
        <ele>2598</ele>
        <time>2010-09-18T09:02:11Z</time>
      </trkpt>
      <trkpt lat="44.34427" lon="6.79992">
        <ele>2600</ele>
        <time>2010-09-18T09:02:19Z</time>
      </trkpt>
      <trkpt lat="44.34398" lon="6.80038">
        <ele>2602</ele>
        <time>2010-09-18T09:02:27Z</time>
      </trkpt>
      <trkpt lat="44.34372" lon="6.80117">
        <ele>2605</ele>
        <time>2010-09-18T09:02:39Z</time>
      </trkpt>
      <trkpt lat="44.34265" lon="6.80195">
        <ele>2612</ele>
        <time>2010-09-18T09:03:00Z</time>
      </trkpt>
      <trkpt lat="44.34213" lon="6.8019">
        <ele>2614</ele>
        <time>2010-09-18T09:03:09Z</time>
      </trkpt>
      <trkpt lat="44.34175" lon="6.80203">
        <ele>2618</ele>
        <time>2010-09-18T09:03:17Z</time>
      </trkpt>
      <trkpt lat="44.3404" lon="6.80158">
        <ele>2628</ele>
        <time>2010-09-18T09:03:45Z</time>
      </trkpt>
      <trkpt lat="44.33998" lon="6.8013">
        <ele>2632</ele>
        <time>2010-09-18T09:03:55Z</time>
      </trkpt>
      <trkpt lat="44.33968" lon="6.80167">
        <ele>2636</ele>
        <time>2010-09-18T09:04:07Z</time>
      </trkpt>
      <trkpt lat="44.33945" lon="6.80205">
        <ele>2640</ele>
        <time>2010-09-18T09:04:17Z</time>
      </trkpt>
      <trkpt lat="44.33885" lon="6.80243">
        <ele>2646</ele>
        <time>2010-09-18T09:04:34Z</time>
      </trkpt>
      <trkpt lat="44.33833" lon="6.80227">
        <ele>2651</ele>
        <time>2010-09-18T09:04:49Z</time>
      </trkpt>
      <trkpt lat="44.33752" lon="6.80173">
        <ele>2660</ele>
        <time>2010-09-18T09:05:10Z</time>
      </trkpt>
      <trkpt lat="44.3372" lon="6.80137">
        <ele>2663</ele>
        <time>2010-09-18T09:05:20Z</time>
      </trkpt>
      <trkpt lat="44.3369" lon="6.80123">
        <ele>2665</ele>
        <time>2010-09-18T09:05:28Z</time>
      </trkpt>
      <trkpt lat="44.3367" lon="6.8015">
        <ele>2667</ele>
        <time>2010-09-18T09:05:35Z</time>
      </trkpt>
      <trkpt lat="44.33665" lon="6.804">
        <ele>2677</ele>
        <time>2010-09-18T09:06:09Z</time>
      </trkpt>
      <trkpt lat="44.33655" lon="6.80462">
        <ele>2679</ele>
        <time>2010-09-18T09:06:17Z</time>
      </trkpt>
      <trkpt lat="44.33657" lon="6.80537">
        <ele>2680</ele>
        <time>2010-09-18T09:06:26Z</time>
      </trkpt>
      <trkpt lat="44.3363" lon="6.8077">
        <ele>2683</ele>
        <time>2010-09-18T09:06:52Z</time>
      </trkpt>
      <trkpt lat="44.33533" lon="6.8095">
        <ele>2686</ele>
        <time>2010-09-18T09:07:16Z</time>
      </trkpt>
      <trkpt lat="44.33465" lon="6.81008">
        <ele>2689</ele>
        <time>2010-09-18T09:07:28Z</time>
      </trkpt>
      <trkpt lat="44.33412" lon="6.81032">
        <ele>2692</ele>
        <time>2010-09-18T09:07:38Z</time>
      </trkpt>
      <trkpt lat="44.33358" lon="6.81055">
        <ele>2696</ele>
        <time>2010-09-18T09:07:49Z</time>
      </trkpt>
      <trkpt lat="44.33267" lon="6.81063">
        <ele>2701</ele>
        <time>2010-09-18T09:08:06Z</time>
      </trkpt>
      <trkpt lat="44.33232" lon="6.81077">
        <ele>2702</ele>
        <time>2010-09-18T09:08:13Z</time>
      </trkpt>
      <trkpt lat="44.33193" lon="6.81063">
        <ele>2705</ele>
        <time>2010-09-18T09:08:21Z</time>
      </trkpt>
      <trkpt lat="44.3315" lon="6.81018">
        <ele>2709</ele>
        <time>2010-09-18T09:08:32Z</time>
      </trkpt>
      <trkpt lat="44.33108" lon="6.80963">
        <ele>2714</ele>
        <time>2010-09-18T09:08:45Z</time>
      </trkpt>
      <trkpt lat="44.32983" lon="6.80823">
        <ele>2717</ele>
        <time>2010-09-18T09:09:17Z</time>
      </trkpt>
      <trkpt lat="44.32882" lon="6.80775">
        <ele>2718</ele>
        <time>2010-09-18T09:09:34Z</time>
      </trkpt>
      <trkpt lat="44.32763" lon="6.80793">
        <ele>2720</ele>
        <time>2010-09-18T09:09:52Z</time>
      </trkpt>
      <trkpt lat="44.32667" lon="6.80728">
        <ele>2721</ele>
        <time>2010-09-18T09:10:13Z</time>
      </trkpt>
      <trkpt lat="44.32605" lon="6.80665">
        <ele>2720</ele>
        <time>2010-09-18T09:10:25Z</time>
      </trkpt>
      <trkpt lat="44.32573" lon="6.80607">
        <ele>2721</ele>
        <time>2010-09-18T09:10:33Z</time>
      </trkpt>
      <trkpt lat="44.32518" lon="6.80637">
        <ele>2724</ele>
        <time>2010-09-18T09:10:44Z</time>
      </trkpt>
      <trkpt lat="44.32487" lon="6.80643">
        <ele>2728</ele>
        <time>2010-09-18T09:10:51Z</time>
      </trkpt>
      <trkpt lat="44.3242" lon="6.80615">
        <ele>2736</ele>
        <time>2010-09-18T09:11:13Z</time>
      </trkpt>
      <trkpt lat="44.3238" lon="6.80612">
        <ele>2740</ele>
        <time>2010-09-18T09:11:25Z</time>
      </trkpt>
      <trkpt lat="44.32338" lon="6.80588">
        <ele>2745</ele>
        <time>2010-09-18T09:11:40Z</time>
      </trkpt>
      <trkpt lat="44.32305" lon="6.80555">
        <ele>2749</ele>
        <time>2010-09-18T09:11:53Z</time>
      </trkpt>
      <trkpt lat="44.32258" lon="6.80535">
        <ele>2756</ele>
        <time>2010-09-18T09:12:13Z</time>
      </trkpt>
      <trkpt lat="44.3222" lon="6.80478">
        <ele>2762</ele>
        <time>2010-09-18T09:12:34Z</time>
      </trkpt>
      <trkpt lat="44.32205" lon="6.80453">
        <ele>2766</ele>
        <time>2010-09-18T09:12:44Z</time>
      </trkpt>
      <trkpt lat="44.3218" lon="6.80447">
        <ele>2769</ele>
        <time>2010-09-18T09:12:54Z</time>
      </trkpt>
      <trkpt lat="44.32145" lon="6.80452">
        <ele>2774</ele>
        <time>2010-09-18T09:13:07Z</time>
      </trkpt>
      <trkpt lat="44.3212" lon="6.80448">
        <ele>2778</ele>
        <time>2010-09-18T09:13:17Z</time>
      </trkpt>
      <trkpt lat="44.3209" lon="6.80447">
        <ele>2781</ele>
        <time>2010-09-18T09:13:27Z</time>
      </trkpt>
      <trkpt lat="44.32052" lon="6.80428">
        <ele>2786</ele>
        <time>2010-09-18T09:13:42Z</time>
      </trkpt>
      <trkpt lat="44.32033" lon="6.80437">
        <ele>2790</ele>
        <time>2010-09-18T09:13:49Z</time>
      </trkpt>
      <trkpt lat="44.32045" lon="6.80493">
        <ele>2794</ele>
        <time>2010-09-18T09:14:04Z</time>
      </trkpt>
      <trkpt lat="44.32053" lon="6.80548">
        <ele>2798</ele>
        <time>2010-09-18T09:14:18Z</time>
      </trkpt>
      <trkpt lat="44.32065" lon="6.8059">
        <ele>2802</ele>
        <time>2010-09-18T09:14:31Z</time>
      </trkpt>
      <trkpt lat="44.32078" lon="6.80625">
        <ele>2806</ele>
        <time>2010-09-18T09:14:41Z</time>
      </trkpt>
      <trkpt lat="44.32058" lon="6.8069">
        <ele>2809</ele>
        <time>2010-09-18T09:14:57Z</time>
      </trkpt>
      <trkpt lat="44.32048" lon="6.80715">
        <ele>2808</ele>
        <time>2010-09-18T09:15:05Z</time>
      </trkpt>
      <trkpt lat="44.32053" lon="6.80698">
        <ele>2809</ele>
        <time>2010-09-18T09:25:05Z</time>
      </trkpt>
      <trkpt lat="44.32045" lon="6.80727">
        <ele>2810</ele>
        <time>2010-09-18T09:31:55Z</time>
      </trkpt>
      <trkpt lat="44.32073" lon="6.80792">
        <ele>2806</ele>
        <time>2010-09-18T09:33:48Z</time>
      </trkpt>
      <trkpt lat="44.3215" lon="6.80945">
        <ele>2787</ele>
        <time>2010-09-18T09:34:06Z</time>
      </trkpt>
      <trkpt lat="44.32263" lon="6.80793">
        <ele>2762</ele>
        <time>2010-09-18T09:34:24Z</time>
      </trkpt>
      <trkpt lat="44.32353" lon="6.80722">
        <ele>2748</ele>
        <time>2010-09-18T09:34:35Z</time>
      </trkpt>
      <trkpt lat="44.3242" lon="6.80688">
        <ele>2738</ele>
        <time>2010-09-18T09:34:42Z</time>
      </trkpt>
      <trkpt lat="44.325" lon="6.80673">
        <ele>2728</ele>
        <time>2010-09-18T09:34:50Z</time>
      </trkpt>
      <trkpt lat="44.32593" lon="6.80692">
        <ele>2720</ele>
        <time>2010-09-18T09:35:00Z</time>
      </trkpt>
      <trkpt lat="44.32798" lon="6.80903">
        <ele>2702</ele>
        <time>2010-09-18T09:35:29Z</time>
      </trkpt>
      <trkpt lat="44.32847" lon="6.8094">
        <ele>2698</ele>
        <time>2010-09-18T09:35:35Z</time>
      </trkpt>
      <trkpt lat="44.32923" lon="6.81042">
        <ele>2687</ele>
        <time>2010-09-18T09:35:46Z</time>
      </trkpt>
      <trkpt lat="44.33008" lon="6.81072">
        <ele>2680</ele>
        <time>2010-09-18T09:35:55Z</time>
      </trkpt>
      <trkpt lat="44.3305" lon="6.81098">
        <ele>2676</ele>
        <time>2010-09-18T09:36:00Z</time>
      </trkpt>
      <trkpt lat="44.33087" lon="6.81192">
        <ele>2670</ele>
        <time>2010-09-18T09:36:08Z</time>
      </trkpt>
      <trkpt lat="44.33088" lon="6.81302">
        <ele>2663</ele>
        <time>2010-09-18T09:36:16Z</time>
      </trkpt>
      <trkpt lat="44.33057" lon="6.81397">
        <ele>2659</ele>
        <time>2010-09-18T09:36:24Z</time>
      </trkpt>
      <trkpt lat="44.33045" lon="6.816">
        <ele>2647</ele>
        <time>2010-09-18T09:36:40Z</time>
      </trkpt>
      <trkpt lat="44.33052" lon="6.81675">
        <ele>2642</ele>
        <time>2010-09-18T09:36:46Z</time>
      </trkpt>
      <trkpt lat="44.33083" lon="6.8173">
        <ele>2638</ele>
        <time>2010-09-18T09:36:52Z</time>
      </trkpt>
      <trkpt lat="44.3307" lon="6.81873">
        <ele>2630</ele>
        <time>2010-09-18T09:37:04Z</time>
      </trkpt>
      <trkpt lat="44.33052" lon="6.82102">
        <ele>2614</ele>
        <time>2010-09-18T09:37:23Z</time>
      </trkpt>
      <trkpt lat="44.33098" lon="6.82185">
        <ele>2607</ele>
        <time>2010-09-18T09:37:33Z</time>
      </trkpt>
      <trkpt lat="44.33098" lon="6.82287">
        <ele>2601</ele>
        <time>2010-09-18T09:37:41Z</time>
      </trkpt>
      <trkpt lat="44.33107" lon="6.82367">
        <ele>2596</ele>
        <time>2010-09-18T09:37:47Z</time>
      </trkpt>
      <trkpt lat="44.33103" lon="6.82442">
        <ele>2593</ele>
        <time>2010-09-18T09:37:53Z</time>
      </trkpt>
      <trkpt lat="44.33128" lon="6.82523">
        <ele>2586</ele>
        <time>2010-09-18T09:38:00Z</time>
      </trkpt>
      <trkpt lat="44.33158" lon="6.82572">
        <ele>2583</ele>
        <time>2010-09-18T09:38:05Z</time>
      </trkpt>
      <trkpt lat="44.3318" lon="6.82623">
        <ele>2581</ele>
        <time>2010-09-18T09:38:10Z</time>
      </trkpt>
      <trkpt lat="44.33228" lon="6.82618">
        <ele>2579</ele>
        <time>2010-09-18T09:38:16Z</time>
      </trkpt>
      <trkpt lat="44.33277" lon="6.82648">
        <ele>2578</ele>
        <time>2010-09-18T09:38:23Z</time>
      </trkpt>
      <trkpt lat="44.33333" lon="6.8263">
        <ele>2577</ele>
        <time>2010-09-18T09:38:31Z</time>
      </trkpt>
      <trkpt lat="44.3337" lon="6.82587">
        <ele>2574</ele>
        <time>2010-09-18T09:38:37Z</time>
      </trkpt>
      <trkpt lat="44.33418" lon="6.826">
        <ele>2571</ele>
        <time>2010-09-18T09:38:43Z</time>
      </trkpt>
      <trkpt lat="44.33452" lon="6.82595">
        <ele>2569</ele>
        <time>2010-09-18T09:38:47Z</time>
      </trkpt>
      <trkpt lat="44.33573" lon="6.82727">
        <ele>2560</ele>
        <time>2010-09-18T09:39:07Z</time>
      </trkpt>
      <trkpt lat="44.33637" lon="6.82792">
        <ele>2554</ele>
        <time>2010-09-18T09:39:16Z</time>
      </trkpt>
      <trkpt lat="44.33758" lon="6.82993">
        <ele>2540</ele>
        <time>2010-09-18T09:39:37Z</time>
      </trkpt>
      <trkpt lat="44.3382" lon="6.83065">
        <ele>2533</ele>
        <time>2010-09-18T09:39:46Z</time>
      </trkpt>
      <trkpt lat="44.33875" lon="6.83105">
        <ele>2529</ele>
        <time>2010-09-18T09:39:53Z</time>
      </trkpt>
      <trkpt lat="44.33952" lon="6.83128">
        <ele>2524</ele>
        <time>2010-09-18T09:40:02Z</time>
      </trkpt>
      <trkpt lat="44.34038" lon="6.83185">
        <ele>2517</ele>
        <time>2010-09-18T09:40:13Z</time>
      </trkpt>
      <trkpt lat="44.34042" lon="6.83245">
        <ele>2515</ele>
        <time>2010-09-18T09:40:19Z</time>
      </trkpt>
      <trkpt lat="44.34017" lon="6.83345">
        <ele>2513</ele>
        <time>2010-09-18T09:40:29Z</time>
      </trkpt>
      <trkpt lat="44.34007" lon="6.83422">
        <ele>2510</ele>
        <time>2010-09-18T09:40:36Z</time>
      </trkpt>
      <trkpt lat="44.34015" lon="6.83538">
        <ele>2505</ele>
        <time>2010-09-18T09:40:46Z</time>
      </trkpt>
      <trkpt lat="44.34042" lon="6.83598">
        <ele>2502</ele>
        <time>2010-09-18T09:40:52Z</time>
      </trkpt>
      <trkpt lat="44.34043" lon="6.8368">
        <ele>2499</ele>
        <time>2010-09-18T09:40:59Z</time>
      </trkpt>
      <trkpt lat="44.34087" lon="6.83777">
        <ele>2495</ele>
        <time>2010-09-18T09:41:09Z</time>
      </trkpt>
      <trkpt lat="44.34068" lon="6.83837">
        <ele>2492</ele>
        <time>2010-09-18T09:41:15Z</time>
      </trkpt>
      <trkpt lat="44.34063" lon="6.8393">
        <ele>2488</ele>
        <time>2010-09-18T09:41:23Z</time>
      </trkpt>
      <trkpt lat="44.34092" lon="6.84015">
        <ele>2484</ele>
        <time>2010-09-18T09:41:31Z</time>
      </trkpt>
      <trkpt lat="44.34062" lon="6.84125">
        <ele>2478</ele>
        <time>2010-09-18T09:41:41Z</time>
      </trkpt>
      <trkpt lat="44.34063" lon="6.842">
        <ele>2473</ele>
        <time>2010-09-18T09:41:47Z</time>
      </trkpt>
      <trkpt lat="44.34055" lon="6.84262">
        <ele>2471</ele>
        <time>2010-09-18T09:41:52Z</time>
      </trkpt>
      <trkpt lat="44.34075" lon="6.8433">
        <ele>2467</ele>
        <time>2010-09-18T09:41:58Z</time>
      </trkpt>
      <trkpt lat="44.34187" lon="6.84452">
        <ele>2457</ele>
        <time>2010-09-18T09:42:14Z</time>
      </trkpt>
      <trkpt lat="44.3422" lon="6.8454">
        <ele>2452</ele>
        <time>2010-09-18T09:42:22Z</time>
      </trkpt>
      <trkpt lat="44.34233" lon="6.84597">
        <ele>2450</ele>
        <time>2010-09-18T09:42:27Z</time>
      </trkpt>
      <trkpt lat="44.34177" lon="6.84675">
        <ele>2443</ele>
        <time>2010-09-18T09:42:36Z</time>
      </trkpt>
      <trkpt lat="44.34163" lon="6.84732">
        <ele>2440</ele>
        <time>2010-09-18T09:42:41Z</time>
      </trkpt>
      <trkpt lat="44.34117" lon="6.84747">
        <ele>2439</ele>
        <time>2010-09-18T09:42:47Z</time>
      </trkpt>
      <trkpt lat="44.3405" lon="6.84815">
        <ele>2437</ele>
        <time>2010-09-18T09:42:58Z</time>
      </trkpt>
      <trkpt lat="44.3403" lon="6.84887">
        <ele>2434</ele>
        <time>2010-09-18T09:43:05Z</time>
      </trkpt>
      <trkpt lat="44.34033" lon="6.84955">
        <ele>2430</ele>
        <time>2010-09-18T09:43:11Z</time>
      </trkpt>
      <trkpt lat="44.33973" lon="6.85007">
        <ele>2424</ele>
        <time>2010-09-18T09:43:19Z</time>
      </trkpt>
      <trkpt lat="44.3391" lon="6.8501">
        <ele>2418</ele>
        <time>2010-09-18T09:43:26Z</time>
      </trkpt>
      <trkpt lat="44.33817" lon="6.85053">
        <ele>2407</ele>
        <time>2010-09-18T09:43:36Z</time>
      </trkpt>
      <trkpt lat="44.3375" lon="6.85043">
        <ele>2402</ele>
        <time>2010-09-18T09:43:43Z</time>
      </trkpt>
      <trkpt lat="44.33685" lon="6.85038">
        <ele>2396</ele>
        <time>2010-09-18T09:43:50Z</time>
      </trkpt>
      <trkpt lat="44.33642" lon="6.85013">
        <ele>2393</ele>
        <time>2010-09-18T09:43:56Z</time>
      </trkpt>
      <trkpt lat="44.336" lon="6.85053">
        <ele>2388</ele>
        <time>2010-09-18T09:44:02Z</time>
      </trkpt>
      <trkpt lat="44.33523" lon="6.85065">
        <ele>2379</ele>
        <time>2010-09-18T09:44:10Z</time>
      </trkpt>
      <trkpt lat="44.3343" lon="6.85035">
        <ele>2369</ele>
        <time>2010-09-18T09:44:20Z</time>
      </trkpt>
      <trkpt lat="44.33337" lon="6.85038">
        <ele>2360</ele>
        <time>2010-09-18T09:44:38Z</time>
      </trkpt>
      <trkpt lat="44.333" lon="6.85058">
        <ele>2355</ele>
        <time>2010-09-18T09:48:14Z</time>
      </trkpt>
      <trkpt lat="44.33275" lon="6.8511">
        <ele>2350</ele>
        <time>2010-09-18T09:48:20Z</time>
      </trkpt>
      <trkpt lat="44.33273" lon="6.85208">
        <ele>2340</ele>
        <time>2010-09-18T09:48:28Z</time>
      </trkpt>
      <trkpt lat="44.33243" lon="6.8529">
        <ele>2334</ele>
        <time>2010-09-18T09:48:35Z</time>
      </trkpt>
      <trkpt lat="44.33207" lon="6.85478">
        <ele>2324</ele>
        <time>2010-09-18T09:48:51Z</time>
      </trkpt>
      <trkpt lat="44.33238" lon="6.85627">
        <ele>2318</ele>
        <time>2010-09-18T09:49:04Z</time>
      </trkpt>
      <trkpt lat="44.3323" lon="6.85812">
        <ele>2307</ele>
        <time>2010-09-18T09:49:19Z</time>
      </trkpt>
      <trkpt lat="44.33215" lon="6.85898">
        <ele>2302</ele>
        <time>2010-09-18T09:49:26Z</time>
      </trkpt>
      <trkpt lat="44.33177" lon="6.86012">
        <ele>2295</ele>
        <time>2010-09-18T09:49:36Z</time>
      </trkpt>
      <trkpt lat="44.33173" lon="6.86085">
        <ele>2290</ele>
        <time>2010-09-18T09:49:43Z</time>
      </trkpt>
      <trkpt lat="44.3322" lon="6.86145">
        <ele>2285</ele>
        <time>2010-09-18T09:49:50Z</time>
      </trkpt>
      <trkpt lat="44.33287" lon="6.86238">
        <ele>2279</ele>
        <time>2010-09-18T09:50:00Z</time>
      </trkpt>
      <trkpt lat="44.33383" lon="6.8634">
        <ele>2271</ele>
        <time>2010-09-18T09:50:13Z</time>
      </trkpt>
      <trkpt lat="44.33377" lon="6.8644">
        <ele>2272</ele>
        <time>2010-09-18T09:50:22Z</time>
      </trkpt>
      <trkpt lat="44.33372" lon="6.86585">
        <ele>2269</ele>
        <time>2010-09-18T09:50:36Z</time>
      </trkpt>
      <trkpt lat="44.33327" lon="6.86695">
        <ele>2263</ele>
        <time>2010-09-18T09:50:47Z</time>
      </trkpt>
      <trkpt lat="44.33338" lon="6.86815">
        <ele>2254</ele>
        <time>2010-09-18T09:50:56Z</time>
      </trkpt>
      <trkpt lat="44.33295" lon="6.86865">
        <ele>2249</ele>
        <time>2010-09-18T09:51:03Z</time>
      </trkpt>
      <trkpt lat="44.33293" lon="6.86802">
        <ele>2243</ele>
        <time>2010-09-18T09:51:11Z</time>
      </trkpt>
      <trkpt lat="44.33283" lon="6.86745">
        <ele>2239</ele>
        <time>2010-09-18T09:51:16Z</time>
      </trkpt>
      <trkpt lat="44.33238" lon="6.86743">
        <ele>2235</ele>
        <time>2010-09-18T09:51:21Z</time>
      </trkpt>
      <trkpt lat="44.33188" lon="6.86678">
        <ele>2231</ele>
        <time>2010-09-18T09:51:29Z</time>
      </trkpt>
      <trkpt lat="44.33162" lon="6.8666">
        <ele>2229</ele>
        <time>2010-09-18T09:51:34Z</time>
      </trkpt>
      <trkpt lat="44.33182" lon="6.86762">
        <ele>2221</ele>
        <time>2010-09-18T09:51:43Z</time>
      </trkpt>
      <trkpt lat="44.33143" lon="6.86843">
        <ele>2214</ele>
        <time>2010-09-18T09:51:51Z</time>
      </trkpt>
      <trkpt lat="44.33032" lon="6.86875">
        <ele>2205</ele>
        <time>2010-09-18T09:52:03Z</time>
      </trkpt>
      <trkpt lat="44.32878" lon="6.86827">
        <ele>2191</ele>
        <time>2010-09-18T09:52:20Z</time>
      </trkpt>
      <trkpt lat="44.32927" lon="6.86815">
        <ele>2188</ele>
        <time>2010-09-18T09:52:32Z</time>
      </trkpt>
      <trkpt lat="44.32997" lon="6.86795">
        <ele>2185</ele>
        <time>2010-09-18T09:52:41Z</time>
      </trkpt>
      <trkpt lat="44.33012" lon="6.86737">
        <ele>2182</ele>
        <time>2010-09-18T09:52:47Z</time>
      </trkpt>
      <trkpt lat="44.32933" lon="6.86543">
        <ele>2168</ele>
        <time>2010-09-18T09:53:04Z</time>
      </trkpt>
      <trkpt lat="44.32882" lon="6.86467">
        <ele>2161</ele>
        <time>2010-09-18T09:53:12Z</time>
      </trkpt>
      <trkpt lat="44.32892" lon="6.86392">
        <ele>2157</ele>
        <time>2010-09-18T09:53:18Z</time>
      </trkpt>
      <trkpt lat="44.32887" lon="6.86315">
        <ele>2152</ele>
        <time>2010-09-18T09:53:24Z</time>
      </trkpt>
      <trkpt lat="44.32863" lon="6.86283">
        <ele>2148</ele>
        <time>2010-09-18T09:53:30Z</time>
      </trkpt>
      <trkpt lat="44.32833" lon="6.86348">
        <ele>2142</ele>
        <time>2010-09-18T09:53:36Z</time>
      </trkpt>
      <trkpt lat="44.32783" lon="6.8637">
        <ele>2137</ele>
        <time>2010-09-18T09:53:42Z</time>
      </trkpt>
      <trkpt lat="44.32722" lon="6.86452">
        <ele>2130</ele>
        <time>2010-09-18T09:53:51Z</time>
      </trkpt>
      <trkpt lat="44.32707" lon="6.86495">
        <ele>2126</ele>
        <time>2010-09-18T09:53:55Z</time>
      </trkpt>
      <trkpt lat="44.32685" lon="6.86465">
        <ele>2121</ele>
        <time>2010-09-18T09:54:01Z</time>
      </trkpt>
      <trkpt lat="44.3271" lon="6.8639">
        <ele>2117</ele>
        <time>2010-09-18T09:54:08Z</time>
      </trkpt>
      <trkpt lat="44.3271" lon="6.86332">
        <ele>2113</ele>
        <time>2010-09-18T09:54:13Z</time>
      </trkpt>
      <trkpt lat="44.32793" lon="6.86213">
        <ele>2100</ele>
        <time>2010-09-18T09:54:26Z</time>
      </trkpt>
      <trkpt lat="44.32805" lon="6.86105">
        <ele>2093</ele>
        <time>2010-09-18T09:54:34Z</time>
      </trkpt>
      <trkpt lat="44.32817" lon="6.8604">
        <ele>2089</ele>
        <time>2010-09-18T09:54:39Z</time>
      </trkpt>
      <trkpt lat="44.3281" lon="6.85967">
        <ele>2085</ele>
        <time>2010-09-18T09:54:45Z</time>
      </trkpt>
      <trkpt lat="44.3278" lon="6.8605">
        <ele>2078</ele>
        <time>2010-09-18T09:54:56Z</time>
      </trkpt>
      <trkpt lat="44.32707" lon="6.86188">
        <ele>2071</ele>
        <time>2010-09-18T09:55:10Z</time>
      </trkpt>
      <trkpt lat="44.32642" lon="6.86223">
        <ele>2066</ele>
        <time>2010-09-18T09:55:18Z</time>
      </trkpt>
      <trkpt lat="44.32617" lon="6.86247">
        <ele>2062</ele>
        <time>2010-09-18T09:55:22Z</time>
      </trkpt>
      <trkpt lat="44.32652" lon="6.86193">
        <ele>2056</ele>
        <time>2010-09-18T09:55:32Z</time>
      </trkpt>
      <trkpt lat="44.3268" lon="6.86113">
        <ele>2049</ele>
        <time>2010-09-18T09:55:39Z</time>
      </trkpt>
      <trkpt lat="44.3271" lon="6.86047">
        <ele>2044</ele>
        <time>2010-09-18T09:55:45Z</time>
      </trkpt>
      <trkpt lat="44.32707" lon="6.8593">
        <ele>2037</ele>
        <time>2010-09-18T09:55:54Z</time>
      </trkpt>
      <trkpt lat="44.32705" lon="6.85838">
        <ele>2032</ele>
        <time>2010-09-18T09:56:01Z</time>
      </trkpt>
      <trkpt lat="44.327" lon="6.85735">
        <ele>2026</ele>
        <time>2010-09-18T09:56:09Z</time>
      </trkpt>
      <trkpt lat="44.3275" lon="6.85535">
        <ele>2013</ele>
        <time>2010-09-18T09:56:25Z</time>
      </trkpt>
      <trkpt lat="44.32708" lon="6.85392">
        <ele>2005</ele>
        <time>2010-09-18T09:56:37Z</time>
      </trkpt>
      <trkpt lat="44.32672" lon="6.85335">
        <ele>2002</ele>
        <time>2010-09-18T09:56:43Z</time>
      </trkpt>
      <trkpt lat="44.32672" lon="6.85238">
        <ele>1997</ele>
        <time>2010-09-18T09:56:51Z</time>
      </trkpt>
      <trkpt lat="44.32637" lon="6.85308">
        <ele>1991</ele>
        <time>2010-09-18T09:57:02Z</time>
      </trkpt>
      <trkpt lat="44.32602" lon="6.8542">
        <ele>1983</ele>
        <time>2010-09-18T09:57:12Z</time>
      </trkpt>
      <trkpt lat="44.32603" lon="6.85495">
        <ele>1979</ele>
        <time>2010-09-18T09:57:18Z</time>
      </trkpt>
      <trkpt lat="44.32527" lon="6.85578">
        <ele>1972</ele>
        <time>2010-09-18T09:57:29Z</time>
      </trkpt>
      <trkpt lat="44.3249" lon="6.85648">
        <ele>1967</ele>
        <time>2010-09-18T09:57:36Z</time>
      </trkpt>
      <trkpt lat="44.32428" lon="6.85807">
        <ele>1957</ele>
        <time>2010-09-18T09:57:50Z</time>
      </trkpt>
      <trkpt lat="44.3243" lon="6.85887">
        <ele>1952</ele>
        <time>2010-09-18T09:57:56Z</time>
      </trkpt>
      <trkpt lat="44.3238" lon="6.85967">
        <ele>1946</ele>
        <time>2010-09-18T09:58:04Z</time>
      </trkpt>
      <trkpt lat="44.32357" lon="6.8608">
        <ele>1938</ele>
        <time>2010-09-18T09:58:13Z</time>
      </trkpt>
      <trkpt lat="44.32323" lon="6.86145">
        <ele>1934</ele>
        <time>2010-09-18T09:58:19Z</time>
      </trkpt>
      <trkpt lat="44.32273" lon="6.86177">
        <ele>1930</ele>
        <time>2010-09-18T09:58:25Z</time>
      </trkpt>
      <trkpt lat="44.32292" lon="6.86232">
        <ele>1923</ele>
        <time>2010-09-18T09:58:31Z</time>
      </trkpt>
      <trkpt lat="44.32277" lon="6.86323">
        <ele>1918</ele>
        <time>2010-09-18T09:58:39Z</time>
      </trkpt>
      <trkpt lat="44.32262" lon="6.86387">
        <ele>1913</ele>
        <time>2010-09-18T09:58:45Z</time>
      </trkpt>
      <trkpt lat="44.32247" lon="6.86295">
        <ele>1904</ele>
        <time>2010-09-18T09:58:56Z</time>
      </trkpt>
      <trkpt lat="44.32197" lon="6.86238">
        <ele>1898</ele>
        <time>2010-09-18T09:59:03Z</time>
      </trkpt>
      <trkpt lat="44.32162" lon="6.86173">
        <ele>1893</ele>
        <time>2010-09-18T09:59:09Z</time>
      </trkpt>
      <trkpt lat="44.32203" lon="6.86105">
        <ele>1888</ele>
        <time>2010-09-18T09:59:18Z</time>
      </trkpt>
      <trkpt lat="44.32228" lon="6.86012">
        <ele>1883</ele>
        <time>2010-09-18T09:59:27Z</time>
      </trkpt>
      <trkpt lat="44.32265" lon="6.85945">
        <ele>1879</ele>
        <time>2010-09-18T09:59:34Z</time>
      </trkpt>
      <trkpt lat="44.322" lon="6.85997">
        <ele>1869</ele>
        <time>2010-09-18T09:59:46Z</time>
      </trkpt>
      <trkpt lat="44.32148" lon="6.86033">
        <ele>1864</ele>
        <time>2010-09-18T09:59:52Z</time>
      </trkpt>
      <trkpt lat="44.32125" lon="6.86102">
        <ele>1859</ele>
        <time>2010-09-18T09:59:58Z</time>
      </trkpt>
      <trkpt lat="44.32093" lon="6.86142">
        <ele>1855</ele>
        <time>2010-09-18T10:00:03Z</time>
      </trkpt>
      <trkpt lat="44.32108" lon="6.86403">
        <ele>1836</ele>
        <time>2010-09-18T10:00:23Z</time>
      </trkpt>
      <trkpt lat="44.32097" lon="6.86493">
        <ele>1830</ele>
        <time>2010-09-18T10:00:30Z</time>
      </trkpt>
      <trkpt lat="44.32087" lon="6.86555">
        <ele>1825</ele>
        <time>2010-09-18T10:00:35Z</time>
      </trkpt>
      <trkpt lat="44.3203" lon="6.86718">
        <ele>1811</ele>
        <time>2010-09-18T10:00:49Z</time>
      </trkpt>
      <trkpt lat="44.32018" lon="6.86795">
        <ele>1806</ele>
        <time>2010-09-18T10:00:55Z</time>
      </trkpt>
      <trkpt lat="44.3202" lon="6.86835">
        <ele>1803</ele>
        <time>2010-09-18T10:00:59Z</time>
      </trkpt>
      <trkpt lat="44.3201" lon="6.8664">
        <ele>1792</ele>
        <time>2010-09-18T10:01:19Z</time>
      </trkpt>
      <trkpt lat="44.31955" lon="6.87112">
        <ele>1763</ele>
        <time>2010-09-18T10:02:01Z</time>
      </trkpt>
      <trkpt lat="44.32003" lon="6.87475">
        <ele>1743</ele>
        <time>2010-09-18T10:02:30Z</time>
      </trkpt>
      <trkpt lat="44.32033" lon="6.87555">
        <ele>1736</ele>
        <time>2010-09-18T10:02:37Z</time>
      </trkpt>
      <trkpt lat="44.32065" lon="6.87675">
        <ele>1729</ele>
        <time>2010-09-18T10:02:47Z</time>
      </trkpt>
      <trkpt lat="44.32098" lon="6.87762">
        <ele>1723</ele>
        <time>2010-09-18T10:02:55Z</time>
      </trkpt>
      <trkpt lat="44.32233" lon="6.88208">
        <ele>1695</ele>
        <time>2010-09-18T10:03:33Z</time>
      </trkpt>
      <trkpt lat="44.32302" lon="6.88282">
        <ele>1687</ele>
        <time>2010-09-18T10:03:42Z</time>
      </trkpt>
      <trkpt lat="44.32347" lon="6.88343">
        <ele>1682</ele>
        <time>2010-09-18T10:03:49Z</time>
      </trkpt>
      <trkpt lat="44.32355" lon="6.88417">
        <ele>1680</ele>
        <time>2010-09-18T10:03:55Z</time>
      </trkpt>
      <trkpt lat="44.32172" lon="6.88708">
        <ele>1666</ele>
        <time>2010-09-18T10:04:27Z</time>
      </trkpt>
      <trkpt lat="44.3206" lon="6.88978">
        <ele>1661</ele>
        <time>2010-09-18T10:05:06Z</time>
      </trkpt>
      <trkpt lat="44.32043" lon="6.89148">
        <ele>1652</ele>
        <time>2010-09-18T10:05:21Z</time>
      </trkpt>
      <trkpt lat="44.32027" lon="6.89275">
        <ele>1645</ele>
        <time>2010-09-18T10:05:32Z</time>
      </trkpt>
      <trkpt lat="44.31985" lon="6.89377">
        <ele>1635</ele>
        <time>2010-09-18T10:05:42Z</time>
      </trkpt>
      <trkpt lat="44.31932" lon="6.89493">
        <ele>1629</ele>
        <time>2010-09-18T10:05:54Z</time>
      </trkpt>
      <trkpt lat="44.31892" lon="6.89583">
        <ele>1624</ele>
        <time>2010-09-18T10:06:03Z</time>
      </trkpt>
      <trkpt lat="44.31868" lon="6.89697">
        <ele>1619</ele>
        <time>2010-09-18T10:06:13Z</time>
      </trkpt>
      <trkpt lat="44.31787" lon="6.89815">
        <ele>1610</ele>
        <time>2010-09-18T10:06:26Z</time>
      </trkpt>
      <trkpt lat="44.31757" lon="6.89887">
        <ele>1605</ele>
        <time>2010-09-18T10:06:33Z</time>
      </trkpt>
      <trkpt lat="44.317" lon="6.89955">
        <ele>1599</ele>
        <time>2010-09-18T10:06:41Z</time>
      </trkpt>
      <trkpt lat="44.31633" lon="6.89997">
        <ele>1595</ele>
        <time>2010-09-18T10:06:49Z</time>
      </trkpt>
      <trkpt lat="44.3158" lon="6.9004">
        <ele>1590</ele>
        <time>2010-09-18T10:06:56Z</time>
      </trkpt>
      <trkpt lat="44.31462" lon="6.90067">
        <ele>1582</ele>
        <time>2010-09-18T10:07:09Z</time>
      </trkpt>
      <trkpt lat="44.31402" lon="6.90088">
        <ele>1578</ele>
        <time>2010-09-18T10:07:16Z</time>
      </trkpt>
      <trkpt lat="44.31228" lon="6.90042">
        <ele>1565</ele>
        <time>2010-09-18T10:07:35Z</time>
      </trkpt>
      <trkpt lat="44.31088" lon="6.90093">
        <ele>1553</ele>
        <time>2010-09-18T10:07:51Z</time>
      </trkpt>
      <trkpt lat="44.31008" lon="6.90108">
        <ele>1547</ele>
        <time>2010-09-18T10:08:00Z</time>
      </trkpt>
      <trkpt lat="44.3089" lon="6.90195">
        <ele>1537</ele>
        <time>2010-09-18T10:08:15Z</time>
      </trkpt>
      <trkpt lat="44.30827" lon="6.9021">
        <ele>1533</ele>
        <time>2010-09-18T10:08:22Z</time>
      </trkpt>
      <trkpt lat="44.30767" lon="6.90243">
        <ele>1531</ele>
        <time>2010-09-18T10:08:29Z</time>
      </trkpt>
      <trkpt lat="44.30717" lon="6.90263">
        <ele>1531</ele>
        <time>2010-09-18T10:08:35Z</time>
      </trkpt>
      <trkpt lat="44.3067" lon="6.90297">
        <ele>1527</ele>
        <time>2010-09-18T10:08:41Z</time>
      </trkpt>
      <trkpt lat="44.30625" lon="6.90312">
        <ele>1527</ele>
        <time>2010-09-18T10:08:46Z</time>
      </trkpt>
      <trkpt lat="44.30573" lon="6.90452">
        <ele>1522</ele>
        <time>2010-09-18T10:08:59Z</time>
      </trkpt>
      <trkpt lat="44.30565" lon="6.9049">
        <ele>1520</ele>
        <time>2010-09-18T10:09:03Z</time>
      </trkpt>
      <trkpt lat="44.30563" lon="6.9037">
        <ele>1509</ele>
        <time>2010-09-18T10:09:18Z</time>
      </trkpt>
      <trkpt lat="44.30575" lon="6.90333">
        <ele>1506</ele>
        <time>2010-09-18T10:09:22Z</time>
      </trkpt>
      <trkpt lat="44.3054" lon="6.90383">
        <ele>1500</ele>
        <time>2010-09-18T10:09:31Z</time>
      </trkpt>
      <trkpt lat="44.30538" lon="6.9044">
        <ele>1496</ele>
        <time>2010-09-18T10:09:36Z</time>
      </trkpt>
      <trkpt lat="44.30495" lon="6.90442">
        <ele>1491</ele>
        <time>2010-09-18T10:09:43Z</time>
      </trkpt>
      <trkpt lat="44.30438" lon="6.90375">
        <ele>1485</ele>
        <time>2010-09-18T10:09:51Z</time>
      </trkpt>
      <trkpt lat="44.30388" lon="6.90342">
        <ele>1481</ele>
        <time>2010-09-18T10:09:57Z</time>
      </trkpt>
      <trkpt lat="44.30288" lon="6.90317">
        <ele>1475</ele>
        <time>2010-09-18T10:10:08Z</time>
      </trkpt>
      <trkpt lat="44.30198" lon="6.90333">
        <ele>1467</ele>
        <time>2010-09-18T10:10:18Z</time>
      </trkpt>
      <trkpt lat="44.30145" lon="6.90317">
        <ele>1461</ele>
        <time>2010-09-18T10:10:24Z</time>
      </trkpt>
      <trkpt lat="44.3012" lon="6.90262">
        <ele>1455</ele>
        <time>2010-09-18T10:10:29Z</time>
      </trkpt>
      <trkpt lat="44.29982" lon="6.90178">
        <ele>1448</ele>
        <time>2010-09-18T10:10:46Z</time>
      </trkpt>
      <trkpt lat="44.29915" lon="6.9019">
        <ele>1444</ele>
        <time>2010-09-18T10:10:54Z</time>
      </trkpt>
      <trkpt lat="44.29785" lon="6.90152">
        <ele>1439</ele>
        <time>2010-09-18T10:11:10Z</time>
      </trkpt>
      <trkpt lat="44.29692" lon="6.90157">
        <ele>1436</ele>
        <time>2010-09-18T10:11:21Z</time>
      </trkpt>
      <trkpt lat="44.29617" lon="6.90162">
        <ele>1433</ele>
        <time>2010-09-18T10:11:30Z</time>
      </trkpt>
      <trkpt lat="44.29565" lon="6.90162">
        <ele>1430</ele>
        <time>2010-09-18T10:11:36Z</time>
      </trkpt>
      <trkpt lat="44.29515" lon="6.90168">
        <ele>1428</ele>
        <time>2010-09-18T10:11:41Z</time>
      </trkpt>
      <trkpt lat="44.29428" lon="6.90155">
        <ele>1425</ele>
        <time>2010-09-18T10:11:52Z</time>
      </trkpt>
      <trkpt lat="44.29332" lon="6.90158">
        <ele>1418</ele>
        <time>2010-09-18T10:12:03Z</time>
      </trkpt>
      <trkpt lat="44.29257" lon="6.90123">
        <ele>1419</ele>
        <time>2010-09-18T10:12:12Z</time>
      </trkpt>
      <trkpt lat="44.29217" lon="6.90098">
        <ele>1417</ele>
        <time>2010-09-18T10:12:18Z</time>
      </trkpt>
      <trkpt lat="44.29137" lon="6.90097">
        <ele>1412</ele>
        <time>2010-09-18T10:12:27Z</time>
      </trkpt>
      <trkpt lat="44.29083" lon="6.90058">
        <ele>1411</ele>
        <time>2010-09-18T10:12:34Z</time>
      </trkpt>
      <trkpt lat="44.29067" lon="6.8999">
        <ele>1408</ele>
        <time>2010-09-18T10:12:40Z</time>
      </trkpt>
      <trkpt lat="44.29" lon="6.89992">
        <ele>1405</ele>
        <time>2010-09-18T10:12:48Z</time>
      </trkpt>
      <trkpt lat="44.28898" lon="6.89937">
        <ele>1398</ele>
        <time>2010-09-18T10:13:00Z</time>
      </trkpt>
      <trkpt lat="44.28847" lon="6.89952">
        <ele>1395</ele>
        <time>2010-09-18T10:13:06Z</time>
      </trkpt>
      <trkpt lat="44.28788" lon="6.89922">
        <ele>1390</ele>
        <time>2010-09-18T10:13:13Z</time>
      </trkpt>
      <trkpt lat="44.28733" lon="6.89938">
        <ele>1386</ele>
        <time>2010-09-18T10:13:19Z</time>
      </trkpt>
      <trkpt lat="44.28695" lon="6.89915">
        <ele>1385</ele>
        <time>2010-09-18T10:13:24Z</time>
      </trkpt>
      <trkpt lat="44.28677" lon="6.8992">
        <ele>1379</ele>
        <time>2010-09-18T10:13:29Z</time>
      </trkpt>
      <trkpt lat="44.28687" lon="6.8994">
        <ele>1346</ele>
        <time>2010-09-18T10:14:56Z</time>
      </trkpt>
      <trkpt lat="44.28675" lon="6.90017">
        <ele>1343</ele>
        <time>2010-09-18T10:15:08Z</time>
      </trkpt>
      <trkpt lat="44.28633" lon="6.90047">
        <ele>1340</ele>
        <time>2010-09-18T10:15:14Z</time>
      </trkpt>
      <trkpt lat="44.28582" lon="6.90058">
        <ele>1337</ele>
        <time>2010-09-18T10:15:20Z</time>
      </trkpt>
      <trkpt lat="44.28527" lon="6.90063">
        <ele>1333</ele>
        <time>2010-09-18T10:15:26Z</time>
      </trkpt>
      <trkpt lat="44.28453" lon="6.9012">
        <ele>1324</ele>
        <time>2010-09-18T10:15:35Z</time>
      </trkpt>
      <trkpt lat="44.28393" lon="6.90158">
        <ele>1321</ele>
        <time>2010-09-18T10:15:42Z</time>
      </trkpt>
      <trkpt lat="44.28363" lon="6.902">
        <ele>1319</ele>
        <time>2010-09-18T10:15:47Z</time>
      </trkpt>
      <trkpt lat="44.28303" lon="6.90208">
        <ele>1314</ele>
        <time>2010-09-18T10:15:54Z</time>
      </trkpt>
      <trkpt lat="44.28145" lon="6.90337">
        <ele>1301</ele>
        <time>2010-09-18T10:16:14Z</time>
      </trkpt>
      <trkpt lat="44.28078" lon="6.90373">
        <ele>1298</ele>
        <time>2010-09-18T10:16:22Z</time>
      </trkpt>
      <trkpt lat="44.27972" lon="6.90528">
        <ele>1292</ele>
        <time>2010-09-18T10:16:39Z</time>
      </trkpt>
      <trkpt lat="44.27942" lon="6.90633">
        <ele>1287</ele>
        <time>2010-09-18T10:16:49Z</time>
      </trkpt>
      <trkpt lat="44.27865" lon="6.90762">
        <ele>1281</ele>
        <time>2010-09-18T10:17:03Z</time>
      </trkpt>
      <trkpt lat="44.27815" lon="6.90815">
        <ele>1277</ele>
        <time>2010-09-18T10:17:10Z</time>
      </trkpt>
      <trkpt lat="44.27777" lon="6.90932">
        <ele>1272</ele>
        <time>2010-09-18T10:17:20Z</time>
      </trkpt>
      <trkpt lat="44.27718" lon="6.91015">
        <ele>1266</ele>
        <time>2010-09-18T10:17:29Z</time>
      </trkpt>
      <trkpt lat="44.27662" lon="6.91055">
        <ele>1263</ele>
        <time>2010-09-18T10:17:36Z</time>
      </trkpt>
      <trkpt lat="44.27618" lon="6.9115">
        <ele>1259</ele>
        <time>2010-09-18T10:17:45Z</time>
      </trkpt>
      <trkpt lat="44.2759" lon="6.91242">
        <ele>1256</ele>
        <time>2010-09-18T10:17:53Z</time>
      </trkpt>
      <trkpt lat="44.27407" lon="6.91538">
        <ele>1253</ele>
        <time>2010-09-18T10:18:30Z</time>
      </trkpt>
      <trkpt lat="44.27372" lon="6.91642">
        <ele>1247</ele>
        <time>2010-09-18T10:18:39Z</time>
      </trkpt>
      <trkpt lat="44.27328" lon="6.91693">
        <ele>1243</ele>
        <time>2010-09-18T10:18:46Z</time>
      </trkpt>
      <trkpt lat="44.27225" lon="6.91742">
        <ele>1239</ele>
        <time>2010-09-18T10:18:59Z</time>
      </trkpt>
      <trkpt lat="44.27175" lon="6.91793">
        <ele>1236</ele>
        <time>2010-09-18T10:19:07Z</time>
      </trkpt>
      <trkpt lat="44.27102" lon="6.91965">
        <ele>1231</ele>
        <time>2010-09-18T10:19:25Z</time>
      </trkpt>
      <trkpt lat="44.27033" lon="6.92072">
        <ele>1227</ele>
        <time>2010-09-18T10:19:38Z</time>
      </trkpt>
      <trkpt lat="44.26937" lon="6.92108">
        <ele>1227</ele>
        <time>2010-09-18T10:19:52Z</time>
      </trkpt>
      <trkpt lat="44.26842" lon="6.92095">
        <ele>1228</ele>
        <time>2010-09-18T10:20:06Z</time>
      </trkpt>
      <trkpt lat="44.26793" lon="6.92073">
        <ele>1228</ele>
        <time>2010-09-18T10:20:14Z</time>
      </trkpt>
      <trkpt lat="44.2673" lon="6.92085">
        <ele>1228</ele>
        <time>2010-09-18T10:20:24Z</time>
      </trkpt>
      <trkpt lat="44.26552" lon="6.92153">
        <ele>1215</ele>
        <time>2010-09-18T10:20:47Z</time>
      </trkpt>
      <trkpt lat="44.26473" lon="6.9214">
        <ele>1211</ele>
        <time>2010-09-18T10:20:56Z</time>
      </trkpt>
      <trkpt lat="44.26345" lon="6.92137">
        <ele>1203</ele>
        <time>2010-09-18T10:21:10Z</time>
      </trkpt>
      <trkpt lat="44.26283" lon="6.9216">
        <ele>1201</ele>
        <time>2010-09-18T10:21:17Z</time>
      </trkpt>
      <trkpt lat="44.26208" lon="6.92135">
        <ele>1201</ele>
        <time>2010-09-18T10:21:26Z</time>
      </trkpt>
      <trkpt lat="44.26167" lon="6.92137">
        <ele>1197</ele>
        <time>2010-09-18T10:21:31Z</time>
      </trkpt>
      <trkpt lat="44.26103" lon="6.92157">
        <ele>1191</ele>
        <time>2010-09-18T10:21:39Z</time>
      </trkpt>
      <trkpt lat="44.26033" lon="6.92202">
        <ele>1184</ele>
        <time>2010-09-18T10:21:48Z</time>
      </trkpt>
      <trkpt lat="44.25988" lon="6.92278">
        <ele>1177</ele>
        <time>2010-09-18T10:21:56Z</time>
      </trkpt>
      <trkpt lat="44.2596" lon="6.92358">
        <ele>1171</ele>
        <time>2010-09-18T10:22:03Z</time>
      </trkpt>
      <trkpt lat="44.2594" lon="6.92468">
        <ele>1161</ele>
        <time>2010-09-18T10:22:12Z</time>
      </trkpt>
      <trkpt lat="44.25882" lon="6.92583">
        <ele>1153</ele>
        <time>2010-09-18T10:22:24Z</time>
      </trkpt>
      <trkpt lat="44.25862" lon="6.92597">
        <ele>1152</ele>
        <time>2010-09-18T10:22:31Z</time>
      </trkpt>
      <trkpt lat="44.25797" lon="6.92472">
        <ele>1147</ele>
        <time>2010-09-18T10:24:09Z</time>
      </trkpt>
      <trkpt lat="44.2577" lon="6.92433">
        <ele>1151</ele>
        <time>2010-09-18T10:24:23Z</time>
      </trkpt>
      <trkpt lat="44.25718" lon="6.92332">
        <ele>1158</ele>
        <time>2010-09-18T10:24:49Z</time>
      </trkpt>
      <trkpt lat="44.25692" lon="6.92253">
        <ele>1163</ele>
        <time>2010-09-18T10:25:02Z</time>
      </trkpt>
      <trkpt lat="44.25652" lon="6.92265">
        <ele>1165</ele>
        <time>2010-09-18T10:25:11Z</time>
      </trkpt>
      <trkpt lat="44.25598" lon="6.92353">
        <ele>1167</ele>
        <time>2010-09-18T10:25:25Z</time>
      </trkpt>
      <trkpt lat="44.25407" lon="6.92492">
        <ele>1164</ele>
        <time>2010-09-18T10:25:56Z</time>
      </trkpt>
      <trkpt lat="44.25283" lon="6.9264">
        <ele>1163</ele>
        <time>2010-09-18T10:26:22Z</time>
      </trkpt>
      <trkpt lat="44.25233" lon="6.92667">
        <ele>1167</ele>
        <time>2010-09-18T10:26:31Z</time>
      </trkpt>
      <trkpt lat="44.25112" lon="6.92737">
        <ele>1170</ele>
        <time>2010-09-18T10:26:51Z</time>
      </trkpt>
      <trkpt lat="44.25062" lon="6.92783">
        <ele>1172</ele>
        <time>2010-09-18T10:27:00Z</time>
      </trkpt>
      <trkpt lat="44.25012" lon="6.92822">
        <ele>1174</ele>
        <time>2010-09-18T10:27:10Z</time>
      </trkpt>
      <trkpt lat="44.24938" lon="6.92888">
        <ele>1180</ele>
        <time>2010-09-18T10:27:26Z</time>
      </trkpt>
      <trkpt lat="44.249" lon="6.92923">
        <ele>1180</ele>
        <time>2010-09-18T10:27:34Z</time>
      </trkpt>
      <trkpt lat="44.24857" lon="6.92962">
        <ele>1178</ele>
        <time>2010-09-18T10:27:42Z</time>
      </trkpt>
      <trkpt lat="44.24812" lon="6.93063">
        <ele>1177</ele>
        <time>2010-09-18T10:27:54Z</time>
      </trkpt>
      <trkpt lat="44.24755" lon="6.93143">
        <ele>1176</ele>
        <time>2010-09-18T10:28:05Z</time>
      </trkpt>
      <trkpt lat="44.24728" lon="6.93215">
        <ele>1176</ele>
        <time>2010-09-18T10:28:13Z</time>
      </trkpt>
      <trkpt lat="44.24683" lon="6.93267">
        <ele>1175</ele>
        <time>2010-09-18T10:28:21Z</time>
      </trkpt>
      <trkpt lat="44.24648" lon="6.93343">
        <ele>1177</ele>
        <time>2010-09-18T10:28:30Z</time>
      </trkpt>
      <trkpt lat="44.24608" lon="6.93392">
        <ele>1178</ele>
        <time>2010-09-18T10:28:38Z</time>
      </trkpt>
      <trkpt lat="44.24553" lon="6.93388">
        <ele>1183</ele>
        <time>2010-09-18T10:28:48Z</time>
      </trkpt>
      <trkpt lat="44.2451" lon="6.93372">
        <ele>1187</ele>
        <time>2010-09-18T10:28:57Z</time>
      </trkpt>
      <trkpt lat="44.24482" lon="6.93382">
        <ele>1188</ele>
        <time>2010-09-18T10:29:03Z</time>
      </trkpt>
      <trkpt lat="44.24465" lon="6.93428">
        <ele>1190</ele>
        <time>2010-09-18T10:29:11Z</time>
      </trkpt>
      <trkpt lat="44.24467" lon="6.93478">
        <ele>1193</ele>
        <time>2010-09-18T10:29:19Z</time>
      </trkpt>
      <trkpt lat="44.24333" lon="6.93667">
        <ele>1210</ele>
        <time>2010-09-18T10:29:59Z</time>
      </trkpt>
      <trkpt lat="44.24303" lon="6.9369">
        <ele>1212</ele>
        <time>2010-09-18T10:30:06Z</time>
      </trkpt>
      <trkpt lat="44.2427" lon="6.93688">
        <ele>1213</ele>
        <time>2010-09-18T10:30:12Z</time>
      </trkpt>
      <trkpt lat="44.24245" lon="6.93738">
        <ele>1212</ele>
        <time>2010-09-18T10:30:19Z</time>
      </trkpt>
      <trkpt lat="44.24197" lon="6.9377">
        <ele>1208</ele>
        <time>2010-09-18T10:30:26Z</time>
      </trkpt>
      <trkpt lat="44.24093" lon="6.9378">
        <ele>1200</ele>
        <time>2010-09-18T10:30:38Z</time>
      </trkpt>
      <trkpt lat="44.23803" lon="6.94145">
        <ele>1170</ele>
        <time>2010-09-18T10:31:21Z</time>
      </trkpt>
      <trkpt lat="44.23812" lon="6.94205">
        <ele>1167</ele>
        <time>2010-09-18T10:31:27Z</time>
      </trkpt>
      <trkpt lat="44.23882" lon="6.94113">
        <ele>1163</ele>
        <time>2010-09-18T10:31:39Z</time>
      </trkpt>
      <trkpt lat="44.2399" lon="6.9401">
        <ele>1155</ele>
        <time>2010-09-18T10:31:54Z</time>
      </trkpt>
      <trkpt lat="44.24027" lon="6.93962">
        <ele>1152</ele>
        <time>2010-09-18T10:32:00Z</time>
      </trkpt>
      <trkpt lat="44.24042" lon="6.94003">
        <ele>1148</ele>
        <time>2010-09-18T10:32:06Z</time>
      </trkpt>
      <trkpt lat="44.2394" lon="6.94148">
        <ele>1138</ele>
        <time>2010-09-18T10:32:22Z</time>
      </trkpt>
      <trkpt lat="44.23888" lon="6.94315">
        <ele>1128</ele>
        <time>2010-09-18T10:32:36Z</time>
      </trkpt>
      <trkpt lat="44.23842" lon="6.94375">
        <ele>1123</ele>
        <time>2010-09-18T10:32:43Z</time>
      </trkpt>
      <trkpt lat="44.23707" lon="6.94452">
        <ele>1113</ele>
        <time>2010-09-18T10:32:59Z</time>
      </trkpt>
      <trkpt lat="44.23608" lon="6.94567">
        <ele>1103</ele>
        <time>2010-09-18T10:33:13Z</time>
      </trkpt>
      <trkpt lat="44.23235" lon="6.95203">
        <ele>1081</ele>
        <time>2010-09-18T10:34:25Z</time>
      </trkpt>
      <trkpt lat="44.23167" lon="6.95375">
        <ele>1079</ele>
        <time>2010-09-18T10:34:44Z</time>
      </trkpt>
      <trkpt lat="44.2293" lon="6.95752">
        <ele>1074</ele>
        <time>2010-09-18T10:35:35Z</time>
      </trkpt>
      <trkpt lat="44.22877" lon="6.95795">
        <ele>1072</ele>
        <time>2010-09-18T10:35:44Z</time>
      </trkpt>
      <trkpt lat="44.22785" lon="6.95833">
        <ele>1070</ele>
        <time>2010-09-18T10:35:58Z</time>
      </trkpt>
      <trkpt lat="44.22683" lon="6.95912">
        <ele>1067</ele>
        <time>2010-09-18T10:36:15Z</time>
      </trkpt>
      <trkpt lat="44.2257" lon="6.95977">
        <ele>1062</ele>
        <time>2010-09-18T10:36:33Z</time>
      </trkpt>
      <trkpt lat="44.22533" lon="6.96038">
        <ele>1061</ele>
        <time>2010-09-18T10:36:41Z</time>
      </trkpt>
      <trkpt lat="44.22518" lon="6.96117">
        <ele>1060</ele>
        <time>2010-09-18T10:36:49Z</time>
      </trkpt>
      <trkpt lat="44.22512" lon="6.96175">
        <ele>1058</ele>
        <time>2010-09-18T10:36:57Z</time>
      </trkpt>
      <trkpt lat="44.22497" lon="6.9626">
        <ele>1054</ele>
        <time>2010-09-18T10:37:06Z</time>
      </trkpt>
      <trkpt lat="44.22467" lon="6.96318">
        <ele>1053</ele>
        <time>2010-09-18T10:37:13Z</time>
      </trkpt>
      <trkpt lat="44.22015" lon="6.96658">
        <ele>1049</ele>
        <time>2010-09-18T10:38:29Z</time>
      </trkpt>
      <trkpt lat="44.21927" lon="6.96777">
        <ele>1046</ele>
        <time>2010-09-18T10:38:46Z</time>
      </trkpt>
      <trkpt lat="44.21877" lon="6.96818">
        <ele>1044</ele>
        <time>2010-09-18T10:38:54Z</time>
      </trkpt>
      <trkpt lat="44.2165" lon="6.97072">
        <ele>1036</ele>
        <time>2010-09-18T10:39:35Z</time>
      </trkpt>
      <trkpt lat="44.2152" lon="6.97128">
        <ele>1032</ele>
        <time>2010-09-18T10:39:53Z</time>
      </trkpt>
      <trkpt lat="44.21267" lon="6.9741">
        <ele>1024</ele>
        <time>2010-09-18T10:40:36Z</time>
      </trkpt>
      <trkpt lat="44.21067" lon="6.97537">
        <ele>1019</ele>
        <time>2010-09-18T10:41:06Z</time>
      </trkpt>
      <trkpt lat="44.21027" lon="6.97582">
        <ele>1018</ele>
        <time>2010-09-18T10:41:13Z</time>
      </trkpt>
      <trkpt lat="44.20897" lon="6.97822">
        <ele>1015</ele>
        <time>2010-09-18T10:41:43Z</time>
      </trkpt>
      <trkpt lat="44.20863" lon="6.97867">
        <ele>1015</ele>
        <time>2010-09-18T10:41:50Z</time>
      </trkpt>
      <trkpt lat="44.20747" lon="6.97938">
        <ele>1015</ele>
        <time>2010-09-18T10:42:10Z</time>
      </trkpt>
      <trkpt lat="44.20702" lon="6.98015">
        <ele>1016</ele>
        <time>2010-09-18T10:42:21Z</time>
      </trkpt>
      <trkpt lat="44.20687" lon="6.98088">
        <ele>1014</ele>
        <time>2010-09-18T10:42:29Z</time>
      </trkpt>
      <trkpt lat="44.20673" lon="6.98295">
        <ele>1007</ele>
        <time>2010-09-18T10:42:49Z</time>
      </trkpt>
      <trkpt lat="44.20632" lon="6.98377">
        <ele>1006</ele>
        <time>2010-09-18T10:42:59Z</time>
      </trkpt>
      <trkpt lat="44.20515" lon="6.9851">
        <ele>1010</ele>
        <time>2010-09-18T10:43:52Z</time>
      </trkpt>
      <trkpt lat="44.20473" lon="6.9855">
        <ele>1016</ele>
        <time>2010-09-18T10:46:12Z</time>
      </trkpt>
      <trkpt lat="44.20307" lon="6.9889">
        <ele>1009</ele>
        <time>2010-09-18T10:46:54Z</time>
      </trkpt>
      <trkpt lat="44.20252" lon="6.98962">
        <ele>1007</ele>
        <time>2010-09-18T10:47:05Z</time>
      </trkpt>
      <trkpt lat="44.20192" lon="6.99003">
        <ele>1006</ele>
        <time>2010-09-18T10:47:15Z</time>
      </trkpt>
      <trkpt lat="44.2014" lon="6.99118">
        <ele>1004</ele>
        <time>2010-09-18T10:47:29Z</time>
      </trkpt>
      <trkpt lat="44.20125" lon="6.99173">
        <ele>1002</ele>
        <time>2010-09-18T10:47:35Z</time>
      </trkpt>
      <trkpt lat="44.20122" lon="6.99262">
        <ele>1000</ele>
        <time>2010-09-18T10:47:43Z</time>
      </trkpt>
      <trkpt lat="44.20107" lon="6.99442">
        <ele>995</ele>
        <time>2010-09-18T10:47:59Z</time>
      </trkpt>
      <trkpt lat="44.20077" lon="6.99513">
        <ele>994</ele>
        <time>2010-09-18T10:48:07Z</time>
      </trkpt>
      <trkpt lat="44.20033" lon="6.99583">
        <ele>992</ele>
        <time>2010-09-18T10:48:16Z</time>
      </trkpt>
      <trkpt lat="44.20008" lon="6.99667">
        <ele>989</ele>
        <time>2010-09-18T10:48:25Z</time>
      </trkpt>
      <trkpt lat="44.19978" lon="6.99852">
        <ele>988</ele>
        <time>2010-09-18T10:48:44Z</time>
      </trkpt>
      <trkpt lat="44.19945" lon="6.99938">
        <ele>986</ele>
        <time>2010-09-18T10:48:54Z</time>
      </trkpt>
      <trkpt lat="44.19843" lon="7.00095">
        <ele>981</ele>
        <time>2010-09-18T10:49:15Z</time>
      </trkpt>
      <trkpt lat="44.19807" lon="7.00215">
        <ele>979</ele>
        <time>2010-09-18T10:49:28Z</time>
      </trkpt>
      <trkpt lat="44.19778" lon="7.00393">
        <ele>975</ele>
        <time>2010-09-18T10:49:46Z</time>
      </trkpt>
      <trkpt lat="44.1975" lon="7.00467">
        <ele>974</ele>
        <time>2010-09-18T10:49:54Z</time>
      </trkpt>
      <trkpt lat="44.19587" lon="7.00683">
        <ele>967</ele>
        <time>2010-09-18T10:50:24Z</time>
      </trkpt>
      <trkpt lat="44.19542" lon="7.00732">
        <ele>966</ele>
        <time>2010-09-18T10:50:32Z</time>
      </trkpt>
      <trkpt lat="44.19482" lon="7.00785">
        <ele>965</ele>
        <time>2010-09-18T10:50:42Z</time>
      </trkpt>
      <trkpt lat="44.19452" lon="7.0084">
        <ele>964</ele>
        <time>2010-09-18T10:50:49Z</time>
      </trkpt>
      <trkpt lat="44.1941" lon="7.01025">
        <ele>960</ele>
        <time>2010-09-18T10:51:08Z</time>
      </trkpt>
      <trkpt lat="44.19188" lon="7.01397">
        <ele>943</ele>
        <time>2010-09-18T10:51:51Z</time>
      </trkpt>
      <trkpt lat="44.19157" lon="7.01473">
        <ele>942</ele>
        <time>2010-09-18T10:51:59Z</time>
      </trkpt>
      <trkpt lat="44.19067" lon="7.01648">
        <ele>938</ele>
        <time>2010-09-18T10:52:19Z</time>
      </trkpt>
      <trkpt lat="44.19018" lon="7.0173">
        <ele>936</ele>
        <time>2010-09-18T10:52:29Z</time>
      </trkpt>
      <trkpt lat="44.18983" lon="7.01802">
        <ele>933</ele>
        <time>2010-09-18T10:52:37Z</time>
      </trkpt>
      <trkpt lat="44.18945" lon="7.0186">
        <ele>931</ele>
        <time>2010-09-18T10:52:44Z</time>
      </trkpt>
      <trkpt lat="44.18935" lon="7.01937">
        <ele>930</ele>
        <time>2010-09-18T10:52:52Z</time>
      </trkpt>
      <trkpt lat="44.18945" lon="7.02005">
        <ele>929</ele>
        <time>2010-09-18T10:52:59Z</time>
      </trkpt>
      <trkpt lat="44.18947" lon="7.02078">
        <ele>924</ele>
        <time>2010-09-18T10:53:06Z</time>
      </trkpt>
      <trkpt lat="44.18957" lon="7.02167">
        <ele>921</ele>
        <time>2010-09-18T10:53:14Z</time>
      </trkpt>
      <trkpt lat="44.1891" lon="7.02515">
        <ele>916</ele>
        <time>2010-09-18T10:53:48Z</time>
      </trkpt>
      <trkpt lat="44.1904" lon="7.02982">
        <ele>907</ele>
        <time>2010-09-18T10:54:37Z</time>
      </trkpt>
      <trkpt lat="44.19038" lon="7.03173">
        <ele>905</ele>
        <time>2010-09-18T10:54:55Z</time>
      </trkpt>
      <trkpt lat="44.18987" lon="7.0346">
        <ele>902</ele>
        <time>2010-09-18T10:55:24Z</time>
      </trkpt>
      <trkpt lat="44.18895" lon="7.03622">
        <ele>898</ele>
        <time>2010-09-18T10:55:43Z</time>
      </trkpt>
      <trkpt lat="44.18825" lon="7.03928">
        <ele>892</ele>
        <time>2010-09-18T10:56:13Z</time>
      </trkpt>
      <trkpt lat="44.18815" lon="7.04097">
        <ele>889</ele>
        <time>2010-09-18T10:56:30Z</time>
      </trkpt>
      <trkpt lat="44.18637" lon="7.0452">
        <ele>882</ele>
        <time>2010-09-18T10:57:18Z</time>
      </trkpt>
      <trkpt lat="44.1862" lon="7.04612">
        <ele>880</ele>
        <time>2010-09-18T10:57:27Z</time>
      </trkpt>
      <trkpt lat="44.18602" lon="7.04772">
        <ele>878</ele>
        <time>2010-09-18T10:57:43Z</time>
      </trkpt>
      <trkpt lat="44.18433" lon="7.05285">
        <ele>871</ele>
        <time>2010-09-18T10:58:39Z</time>
      </trkpt>
      <trkpt lat="44.18487" lon="7.05303">
        <ele>875</ele>
        <time>2010-09-18T10:58:50Z</time>
      </trkpt>
      <trkpt lat="44.1851" lon="7.05307">
        <ele>876</ele>
        <time>2010-09-18T10:58:55Z</time>
      </trkpt>
      <trkpt lat="44.18503" lon="7.05378">
        <ele>875</ele>
        <time>2010-09-18T10:59:05Z</time>
      </trkpt>
      <trkpt lat="44.1848" lon="7.05437">
        <ele>874</ele>
        <time>2010-09-18T10:59:12Z</time>
      </trkpt>
      <trkpt lat="44.1845" lon="7.05495">
        <ele>870</ele>
        <time>2010-09-18T10:59:19Z</time>
      </trkpt>
      <trkpt lat="44.183" lon="7.05788">
        <ele>861</ele>
        <time>2010-09-18T10:59:52Z</time>
      </trkpt>
      <trkpt lat="44.18177" lon="7.05918">
        <ele>856</ele>
        <time>2010-09-18T11:00:13Z</time>
      </trkpt>
      <trkpt lat="44.1796" lon="7.06318">
        <ele>850</ele>
        <time>2010-09-18T11:01:03Z</time>
      </trkpt>
      <trkpt lat="44.17862" lon="7.06615">
        <ele>848</ele>
        <time>2010-09-18T11:01:37Z</time>
      </trkpt>
      <trkpt lat="44.1766" lon="7.0694">
        <ele>842</ele>
        <time>2010-09-18T11:02:20Z</time>
      </trkpt>
      <trkpt lat="44.17612" lon="7.07195">
        <ele>841</ele>
        <time>2010-09-18T11:02:48Z</time>
      </trkpt>
      <trkpt lat="44.17615" lon="7.07287">
        <ele>841</ele>
        <time>2010-09-18T11:02:58Z</time>
      </trkpt>
      <trkpt lat="44.17618" lon="7.07373">
        <ele>841</ele>
        <time>2010-09-18T11:03:07Z</time>
      </trkpt>
      <trkpt lat="44.17605" lon="7.07445">
        <ele>842</ele>
        <time>2010-09-18T11:03:15Z</time>
      </trkpt>
      <trkpt lat="44.17538" lon="7.07667">
        <ele>842</ele>
        <time>2010-09-18T11:03:40Z</time>
      </trkpt>
      <trkpt lat="44.17498" lon="7.078">
        <ele>842</ele>
        <time>2010-09-18T11:03:55Z</time>
      </trkpt>
      <trkpt lat="44.17435" lon="7.07897">
        <ele>831</ele>
        <time>2010-09-18T11:04:08Z</time>
      </trkpt>
      <trkpt lat="44.17393" lon="7.07965">
        <ele>829</ele>
        <time>2010-09-18T11:04:16Z</time>
      </trkpt>
      <trkpt lat="44.1732" lon="7.08027">
        <ele>828</ele>
        <time>2010-09-18T11:04:29Z</time>
      </trkpt>
      <trkpt lat="44.17302" lon="7.08093">
        <ele>827</ele>
        <time>2010-09-18T11:04:34Z</time>
      </trkpt>
      <trkpt lat="44.17285" lon="7.08262">
        <ele>822</ele>
        <time>2010-09-18T11:04:51Z</time>
      </trkpt>
      <trkpt lat="44.1722" lon="7.0837">
        <ele>822</ele>
        <time>2010-09-18T11:05:06Z</time>
      </trkpt>
      <trkpt lat="44.1704" lon="7.08588">
        <ele>824</ele>
        <time>2010-09-18T11:05:40Z</time>
      </trkpt>
      <trkpt lat="44.16878" lon="7.08705">
        <ele>823</ele>
        <time>2010-09-18T11:06:04Z</time>
      </trkpt>
      <trkpt lat="44.16763" lon="7.08778">
        <ele>823</ele>
        <time>2010-09-18T11:06:20Z</time>
      </trkpt>
      <trkpt lat="44.16437" lon="7.08852">
        <ele>818</ele>
        <time>2010-09-18T11:07:01Z</time>
      </trkpt>
      <trkpt lat="44.16255" lon="7.09012">
        <ele>818</ele>
        <time>2010-09-18T11:07:26Z</time>
      </trkpt>
      <trkpt lat="44.16192" lon="7.09027">
        <ele>818</ele>
        <time>2010-09-18T11:07:34Z</time>
      </trkpt>
      <trkpt lat="44.1605" lon="7.09038">
        <ele>817</ele>
        <time>2010-09-18T11:07:52Z</time>
      </trkpt>
      <trkpt lat="44.15887" lon="7.09098">
        <ele>817</ele>
        <time>2010-09-18T11:08:14Z</time>
      </trkpt>
      <trkpt lat="44.15807" lon="7.09088">
        <ele>817</ele>
        <time>2010-09-18T11:08:25Z</time>
      </trkpt>
      <trkpt lat="44.15662" lon="7.09042">
        <ele>815</ele>
        <time>2010-09-18T11:08:47Z</time>
      </trkpt>
      <trkpt lat="44.15593" lon="7.09055">
        <ele>813</ele>
        <time>2010-09-18T11:08:57Z</time>
      </trkpt>
      <trkpt lat="44.15467" lon="7.09158">
        <ele>813</ele>
        <time>2010-09-18T11:09:17Z</time>
      </trkpt>
      <trkpt lat="44.15418" lon="7.09238">
        <ele>810</ele>
        <time>2010-09-18T11:09:27Z</time>
      </trkpt>
      <trkpt lat="44.15373" lon="7.09348">
        <ele>763</ele>
        <time>2010-09-18T11:09:40Z</time>
      </trkpt>
      <trkpt lat="44.15325" lon="7.09393">
        <ele>762</ele>
        <time>2010-09-18T11:09:48Z</time>
      </trkpt>
      <trkpt lat="44.15197" lon="7.09408">
        <ele>759</ele>
        <time>2010-09-18T11:10:06Z</time>
      </trkpt>
      <trkpt lat="44.15148" lon="7.09448">
        <ele>759</ele>
        <time>2010-09-18T11:10:14Z</time>
      </trkpt>
      <trkpt lat="44.15065" lon="7.09582">
        <ele>758</ele>
        <time>2010-09-18T11:10:32Z</time>
      </trkpt>
      <trkpt lat="44.15012" lon="7.09642">
        <ele>758</ele>
        <time>2010-09-18T11:10:42Z</time>
      </trkpt>
      <trkpt lat="44.1495" lon="7.09667">
        <ele>758</ele>
        <time>2010-09-18T11:10:51Z</time>
      </trkpt>
      <trkpt lat="44.14752" lon="7.09643">
        <ele>758</ele>
        <time>2010-09-18T11:11:18Z</time>
      </trkpt>
      <trkpt lat="44.14638" lon="7.09703">
        <ele>758</ele>
        <time>2010-09-18T11:11:35Z</time>
      </trkpt>
      <trkpt lat="44.14563" lon="7.09785">
        <ele>758</ele>
        <time>2010-09-18T11:11:48Z</time>
      </trkpt>
      <trkpt lat="44.14507" lon="7.09817">
        <ele>758</ele>
        <time>2010-09-18T11:11:56Z</time>
      </trkpt>
      <trkpt lat="44.14297" lon="7.09777">
        <ele>758</ele>
        <time>2010-09-18T11:12:28Z</time>
      </trkpt>
      <trkpt lat="44.14082" lon="7.09872">
        <ele>758</ele>
        <time>2010-09-18T11:13:00Z</time>
      </trkpt>
      <trkpt lat="44.14027" lon="7.0987">
        <ele>758</ele>
        <time>2010-09-18T11:13:08Z</time>
      </trkpt>
      <trkpt lat="44.13847" lon="7.10005">
        <ele>758</ele>
        <time>2010-09-18T11:13:45Z</time>
      </trkpt>
      <trkpt lat="44.1376" lon="7.10028">
        <ele>758</ele>
        <time>2010-09-18T11:13:50Z</time>
      </trkpt>
      <trkpt lat="44.13633" lon="7.10003">
        <ele>758</ele>
        <time>2010-09-18T11:14:08Z</time>
      </trkpt>
      <trkpt lat="44.13555" lon="7.10032">
        <ele>758</ele>
        <time>2010-09-18T11:14:19Z</time>
      </trkpt>
      <trkpt lat="44.1348" lon="7.10067">
        <ele>758</ele>
        <time>2010-09-18T11:14:30Z</time>
      </trkpt>
      <trkpt lat="44.13273" lon="7.10115">
        <ele>758</ele>
        <time>2010-09-18T11:14:58Z</time>
      </trkpt>
      <trkpt lat="44.13213" lon="7.10098">
        <ele>758</ele>
        <time>2010-09-18T11:15:06Z</time>
      </trkpt>
      <trkpt lat="44.1313" lon="7.10052">
        <ele>758</ele>
        <time>2010-09-18T11:15:17Z</time>
      </trkpt>
      <trkpt lat="44.13037" lon="7.10032">
        <ele>758</ele>
        <time>2010-09-18T11:15:28Z</time>
      </trkpt>
      <trkpt lat="44.12982" lon="7.09987">
        <ele>741</ele>
        <time>2010-09-18T11:15:36Z</time>
      </trkpt>
      <trkpt lat="44.1294" lon="7.0992">
        <ele>684</ele>
        <time>2010-09-18T11:15:44Z</time>
      </trkpt>
      <trkpt lat="44.12877" lon="7.09767">
        <ele>683</ele>
        <time>2010-09-18T11:16:01Z</time>
      </trkpt>
      <trkpt lat="44.1277" lon="7.0963">
        <ele>677</ele>
        <time>2010-09-18T11:16:22Z</time>
      </trkpt>
      <trkpt lat="44.1271" lon="7.09477">
        <ele>673</ele>
        <time>2010-09-18T11:16:41Z</time>
      </trkpt>
      <trkpt lat="44.1266" lon="7.09417">
        <ele>672</ele>
        <time>2010-09-18T11:16:51Z</time>
      </trkpt>
      <trkpt lat="44.12537" lon="7.0935">
        <ele>669</ele>
        <time>2010-09-18T11:17:09Z</time>
      </trkpt>
      <trkpt lat="44.1243" lon="7.09243">
        <ele>669</ele>
        <time>2010-09-18T11:17:25Z</time>
      </trkpt>
      <trkpt lat="44.12218" lon="7.09188">
        <ele>662</ele>
        <time>2010-09-18T11:17:54Z</time>
      </trkpt>
      <trkpt lat="44.11967" lon="7.09217">
        <ele>656</ele>
        <time>2010-09-18T11:18:31Z</time>
      </trkpt>
      <trkpt lat="44.11807" lon="7.09272">
        <ele>652</ele>
        <time>2010-09-18T11:18:54Z</time>
      </trkpt>
      <trkpt lat="44.1168" lon="7.09235">
        <ele>650</ele>
        <time>2010-09-18T11:19:12Z</time>
      </trkpt>
      <trkpt lat="44.11627" lon="7.09258">
        <ele>651</ele>
        <time>2010-09-18T11:19:20Z</time>
      </trkpt>
      <trkpt lat="44.11517" lon="7.09473">
        <ele>644</ele>
        <time>2010-09-18T11:19:47Z</time>
      </trkpt>
      <trkpt lat="44.11488" lon="7.0954">
        <ele>641</ele>
        <time>2010-09-18T11:19:55Z</time>
      </trkpt>
      <trkpt lat="44.1125" lon="7.09725">
        <ele>639</ele>
        <time>2010-09-18T11:20:32Z</time>
      </trkpt>
      <trkpt lat="44.11172" lon="7.09745">
        <ele>637</ele>
        <time>2010-09-18T11:20:43Z</time>
      </trkpt>
      <trkpt lat="44.1112" lon="7.09772">
        <ele>635</ele>
        <time>2010-09-18T11:20:51Z</time>
      </trkpt>
      <trkpt lat="44.11017" lon="7.09902">
        <ele>633</ele>
        <time>2010-09-18T11:21:11Z</time>
      </trkpt>
      <trkpt lat="44.10883" lon="7.10155">
        <ele>625</ele>
        <time>2010-09-18T11:21:44Z</time>
      </trkpt>
      <trkpt lat="44.10832" lon="7.1019">
        <ele>626</ele>
        <time>2010-09-18T11:21:52Z</time>
      </trkpt>
      <trkpt lat="44.10682" lon="7.10207">
        <ele>622</ele>
        <time>2010-09-18T11:22:12Z</time>
      </trkpt>
      <trkpt lat="44.10613" lon="7.10183">
        <ele>621</ele>
        <time>2010-09-18T11:22:22Z</time>
      </trkpt>
      <trkpt lat="44.1046" lon="7.10208">
        <ele>624</ele>
        <time>2010-09-18T11:22:44Z</time>
      </trkpt>
      <trkpt lat="44.10373" lon="7.10252">
        <ele>623</ele>
        <time>2010-09-18T11:22:57Z</time>
      </trkpt>
      <trkpt lat="44.09887" lon="7.10355">
        <ele>603</ele>
        <time>2010-09-18T11:24:02Z</time>
      </trkpt>
      <trkpt lat="44.09832" lon="7.10375">
        <ele>600</ele>
        <time>2010-09-18T11:24:09Z</time>
      </trkpt>
      <trkpt lat="44.09758" lon="7.10445">
        <ele>594</ele>
        <time>2010-09-18T11:24:20Z</time>
      </trkpt>
      <trkpt lat="44.09663" lon="7.10485">
        <ele>591</ele>
        <time>2010-09-18T11:24:32Z</time>
      </trkpt>
      <trkpt lat="44.0961" lon="7.10565">
        <ele>585</ele>
        <time>2010-09-18T11:24:42Z</time>
      </trkpt>
      <trkpt lat="44.09545" lon="7.10612">
        <ele>583</ele>
        <time>2010-09-18T11:24:51Z</time>
      </trkpt>
      <trkpt lat="44.09435" lon="7.10622">
        <ele>578</ele>
        <time>2010-09-18T11:25:04Z</time>
      </trkpt>
      <trkpt lat="44.09307" lon="7.10655">
        <ele>573</ele>
        <time>2010-09-18T11:25:20Z</time>
      </trkpt>
      <trkpt lat="44.09098" lon="7.10763">
        <ele>551</ele>
        <time>2010-09-18T11:25:49Z</time>
      </trkpt>
      <trkpt lat="44.09015" lon="7.10725">
        <ele>543</ele>
        <time>2010-09-18T11:26:00Z</time>
      </trkpt>
      <trkpt lat="44.0885" lon="7.10747">
        <ele>535</ele>
        <time>2010-09-18T11:26:21Z</time>
      </trkpt>
      <trkpt lat="44.08792" lon="7.1073">
        <ele>530</ele>
        <time>2010-09-18T11:26:28Z</time>
      </trkpt>
      <trkpt lat="44.08733" lon="7.10662">
        <ele>524</ele>
        <time>2010-09-18T11:26:37Z</time>
      </trkpt>
      <trkpt lat="44.08703" lon="7.1061">
        <ele>521</ele>
        <time>2010-09-18T11:26:43Z</time>
      </trkpt>
      <trkpt lat="44.08608" lon="7.10602">
        <ele>521</ele>
        <time>2010-09-18T11:26:55Z</time>
      </trkpt>
      <trkpt lat="44.08545" lon="7.10617">
        <ele>520</ele>
        <time>2010-09-18T11:27:03Z</time>
      </trkpt>
      <trkpt lat="44.08478" lon="7.10615">
        <ele>515</ele>
        <time>2010-09-18T11:27:11Z</time>
      </trkpt>
      <trkpt lat="44.08413" lon="7.1049">
        <ele>511</ele>
        <time>2010-09-18T11:27:26Z</time>
      </trkpt>
      <trkpt lat="44.08367" lon="7.10495">
        <ele>511</ele>
        <time>2010-09-18T11:27:35Z</time>
      </trkpt>
      <trkpt lat="44.08343" lon="7.10518">
        <ele>504</ele>
        <time>2010-09-18T11:27:41Z</time>
      </trkpt>
      <trkpt lat="44.08343" lon="7.10543">
        <ele>506</ele>
        <time>2010-09-18T11:28:24Z</time>
      </trkpt>
      <trkpt lat="44.08345" lon="7.10562">
        <ele>524</ele>
        <time>2010-09-18T13:07:30Z</time>
      </trkpt>
      <trkpt lat="44.08328" lon="7.10555">
        <ele>524</ele>
        <time>2010-09-18T13:07:48Z</time>
      </trkpt>
      <trkpt lat="44.08272" lon="7.10573">
        <ele>515</ele>
        <time>2010-09-18T13:23:26Z</time>
      </trkpt>
      <trkpt lat="44.08138" lon="7.10668">
        <ele>509</ele>
        <time>2010-09-18T13:23:47Z</time>
      </trkpt>
      <trkpt lat="44.08045" lon="7.10653">
        <ele>510</ele>
        <time>2010-09-18T13:24:00Z</time>
      </trkpt>
      <trkpt lat="44.08003" lon="7.1058">
        <ele>510</ele>
        <time>2010-09-18T13:24:10Z</time>
      </trkpt>
      <trkpt lat="44.07972" lon="7.10532">
        <ele>510</ele>
        <time>2010-09-18T13:24:17Z</time>
      </trkpt>
      <trkpt lat="44.07915" lon="7.1051">
        <ele>510</ele>
        <time>2010-09-18T13:24:25Z</time>
      </trkpt>
      <trkpt lat="44.0785" lon="7.10503">
        <ele>510</ele>
        <time>2010-09-18T13:24:34Z</time>
      </trkpt>
      <trkpt lat="44.07797" lon="7.10482">
        <ele>510</ele>
        <time>2010-09-18T13:24:42Z</time>
      </trkpt>
      <trkpt lat="44.07735" lon="7.10535">
        <ele>508</ele>
        <time>2010-09-18T13:24:53Z</time>
      </trkpt>
      <trkpt lat="44.07688" lon="7.1064">
        <ele>505</ele>
        <time>2010-09-18T13:25:07Z</time>
      </trkpt>
      <trkpt lat="44.076" lon="7.1077">
        <ele>504</ele>
        <time>2010-09-18T13:25:26Z</time>
      </trkpt>
      <trkpt lat="44.07528" lon="7.10825">
        <ele>505</ele>
        <time>2010-09-18T13:25:38Z</time>
      </trkpt>
      <trkpt lat="44.07358" lon="7.10945">
        <ele>500</ele>
        <time>2010-09-18T13:26:06Z</time>
      </trkpt>
      <trkpt lat="44.0727" lon="7.10963">
        <ele>495</ele>
        <time>2010-09-18T13:26:19Z</time>
      </trkpt>
      <trkpt lat="44.0714" lon="7.1095">
        <ele>488</ele>
        <time>2010-09-18T13:26:38Z</time>
      </trkpt>
      <trkpt lat="44.06972" lon="7.11085">
        <ele>488</ele>
        <time>2010-09-18T13:27:07Z</time>
      </trkpt>
      <trkpt lat="44.06933" lon="7.11138">
        <ele>489</ele>
        <time>2010-09-18T13:27:15Z</time>
      </trkpt>
      <trkpt lat="44.0689" lon="7.11168">
        <ele>488</ele>
        <time>2010-09-18T13:27:22Z</time>
      </trkpt>
      <trkpt lat="44.06825" lon="7.11393">
        <ele>485</ele>
        <time>2010-09-18T13:27:48Z</time>
      </trkpt>
      <trkpt lat="44.06713" lon="7.11473">
        <ele>483</ele>
        <time>2010-09-18T13:28:06Z</time>
      </trkpt>
      <trkpt lat="44.06672" lon="7.11475">
        <ele>483</ele>
        <time>2010-09-18T13:28:12Z</time>
      </trkpt>
      <trkpt lat="44.06633" lon="7.11485">
        <ele>483</ele>
        <time>2010-09-18T13:28:18Z</time>
      </trkpt>
      <trkpt lat="44.06548" lon="7.11447">
        <ele>482</ele>
        <time>2010-09-18T13:28:31Z</time>
      </trkpt>
      <trkpt lat="44.06515" lon="7.11478">
        <ele>482</ele>
        <time>2010-09-18T13:28:38Z</time>
      </trkpt>
      <trkpt lat="44.06497" lon="7.11538">
        <ele>482</ele>
        <time>2010-09-18T13:28:45Z</time>
      </trkpt>
      <trkpt lat="44.06475" lon="7.11598">
        <ele>481</ele>
        <time>2010-09-18T13:28:52Z</time>
      </trkpt>
      <trkpt lat="44.06458" lon="7.11648">
        <ele>479</ele>
        <time>2010-09-18T13:28:58Z</time>
      </trkpt>
      <trkpt lat="44.06458" lon="7.11705">
        <ele>478</ele>
        <time>2010-09-18T13:29:04Z</time>
      </trkpt>
      <trkpt lat="44.06375" lon="7.11705">
        <ele>479</ele>
        <time>2010-09-18T13:29:17Z</time>
      </trkpt>
      <trkpt lat="44.06322" lon="7.11713">
        <ele>478</ele>
        <time>2010-09-18T13:29:25Z</time>
      </trkpt>
      <trkpt lat="44.06277" lon="7.11698">
        <ele>478</ele>
        <time>2010-09-18T13:29:32Z</time>
      </trkpt>
      <trkpt lat="44.06237" lon="7.1175">
        <ele>478</ele>
        <time>2010-09-18T13:29:41Z</time>
      </trkpt>
      <trkpt lat="44.06203" lon="7.11793">
        <ele>478</ele>
        <time>2010-09-18T13:29:48Z</time>
      </trkpt>
      <trkpt lat="44.06157" lon="7.11793">
        <ele>479</ele>
        <time>2010-09-18T13:29:55Z</time>
      </trkpt>
      <trkpt lat="44.06118" lon="7.11797">
        <ele>479</ele>
        <time>2010-09-18T13:30:01Z</time>
      </trkpt>
      <trkpt lat="44.06078" lon="7.11767">
        <ele>480</ele>
        <time>2010-09-18T13:30:08Z</time>
      </trkpt>
      <trkpt lat="44.06" lon="7.1177">
        <ele>480</ele>
        <time>2010-09-18T13:30:20Z</time>
      </trkpt>
      <trkpt lat="44.05962" lon="7.11815">
        <ele>481</ele>
        <time>2010-09-18T13:30:28Z</time>
      </trkpt>
      <trkpt lat="44.05917" lon="7.11828">
        <ele>481</ele>
        <time>2010-09-18T13:30:35Z</time>
      </trkpt>
      <trkpt lat="44.0587" lon="7.11858">
        <ele>482</ele>
        <time>2010-09-18T13:30:43Z</time>
      </trkpt>
      <trkpt lat="44.05817" lon="7.11847">
        <ele>483</ele>
        <time>2010-09-18T13:30:51Z</time>
      </trkpt>
      <trkpt lat="44.05773" lon="7.11847">
        <ele>483</ele>
        <time>2010-09-18T13:30:58Z</time>
      </trkpt>
      <trkpt lat="44.05745" lon="7.11882">
        <ele>484</ele>
        <time>2010-09-18T13:31:04Z</time>
      </trkpt>
      <trkpt lat="44.05697" lon="7.11897">
        <ele>485</ele>
        <time>2010-09-18T13:31:11Z</time>
      </trkpt>
      <trkpt lat="44.05657" lon="7.11882">
        <ele>486</ele>
        <time>2010-09-18T13:31:18Z</time>
      </trkpt>
      <trkpt lat="44.05605" lon="7.11927">
        <ele>488</ele>
        <time>2010-09-18T13:31:28Z</time>
      </trkpt>
      <trkpt lat="44.05562" lon="7.11932">
        <ele>488</ele>
        <time>2010-09-18T13:31:35Z</time>
      </trkpt>
      <trkpt lat="44.05515" lon="7.11895">
        <ele>488</ele>
        <time>2010-09-18T13:31:43Z</time>
      </trkpt>
      <trkpt lat="44.05477" lon="7.1187">
        <ele>488</ele>
        <time>2010-09-18T13:31:50Z</time>
      </trkpt>
      <trkpt lat="44.05448" lon="7.11892">
        <ele>487</ele>
        <time>2010-09-18T13:31:56Z</time>
      </trkpt>
      <trkpt lat="44.05468" lon="7.1195">
        <ele>483</ele>
        <time>2010-09-18T13:32:04Z</time>
      </trkpt>
      <trkpt lat="44.05473" lon="7.12068">
        <ele>481</ele>
        <time>2010-09-18T13:32:18Z</time>
      </trkpt>
      <trkpt lat="44.05458" lon="7.12172">
        <ele>481</ele>
        <time>2010-09-18T13:32:31Z</time>
      </trkpt>
      <trkpt lat="44.054" lon="7.12287">
        <ele>476</ele>
        <time>2010-09-18T13:32:45Z</time>
      </trkpt>
      <trkpt lat="44.05362" lon="7.1234">
        <ele>472</ele>
        <time>2010-09-18T13:32:53Z</time>
      </trkpt>
      <trkpt lat="44.05358" lon="7.12413">
        <ele>470</ele>
        <time>2010-09-18T13:32:59Z</time>
      </trkpt>
      <trkpt lat="44.05327" lon="7.12458">
        <ele>468</ele>
        <time>2010-09-18T13:33:06Z</time>
      </trkpt>
      <trkpt lat="44.05268" lon="7.1247">
        <ele>469</ele>
        <time>2010-09-18T13:33:12Z</time>
      </trkpt>
      <trkpt lat="44.0522" lon="7.12558">
        <ele>465</ele>
        <time>2010-09-18T13:33:22Z</time>
      </trkpt>
      <trkpt lat="44.05125" lon="7.12628">
        <ele>461</ele>
        <time>2010-09-18T13:33:35Z</time>
      </trkpt>
      <trkpt lat="44.05078" lon="7.12717">
        <ele>456</ele>
        <time>2010-09-18T13:33:45Z</time>
      </trkpt>
      <trkpt lat="44.04978" lon="7.12828">
        <ele>452</ele>
        <time>2010-09-18T13:34:01Z</time>
      </trkpt>
      <trkpt lat="44.04873" lon="7.12905">
        <ele>448</ele>
        <time>2010-09-18T13:34:16Z</time>
      </trkpt>
      <trkpt lat="44.0471" lon="7.12977">
        <ele>438</ele>
        <time>2010-09-18T13:34:36Z</time>
      </trkpt>
      <trkpt lat="44.04567" lon="7.1292">
        <ele>432</ele>
        <time>2010-09-18T13:34:54Z</time>
      </trkpt>
      <trkpt lat="44.04497" lon="7.12872">
        <ele>432</ele>
        <time>2010-09-18T13:35:06Z</time>
      </trkpt>
      <trkpt lat="44.0443" lon="7.12853">
        <ele>431</ele>
        <time>2010-09-18T13:35:18Z</time>
      </trkpt>
      <trkpt lat="44.04352" lon="7.1282">
        <ele>431</ele>
        <time>2010-09-18T13:35:34Z</time>
      </trkpt>
      <trkpt lat="44.04307" lon="7.1284">
        <ele>431</ele>
        <time>2010-09-18T13:35:42Z</time>
      </trkpt>
      <trkpt lat="44.04265" lon="7.12853">
        <ele>430</ele>
        <time>2010-09-18T13:35:49Z</time>
      </trkpt>
      <trkpt lat="44.04242" lon="7.12893">
        <ele>429</ele>
        <time>2010-09-18T13:35:55Z</time>
      </trkpt>
      <trkpt lat="44.04193" lon="7.12895">
        <ele>428</ele>
        <time>2010-09-18T13:36:02Z</time>
      </trkpt>
      <trkpt lat="44.04137" lon="7.12885">
        <ele>429</ele>
        <time>2010-09-18T13:36:10Z</time>
      </trkpt>
      <trkpt lat="44.04047" lon="7.12858">
        <ele>426</ele>
        <time>2010-09-18T13:36:22Z</time>
      </trkpt>
      <trkpt lat="44.04002" lon="7.12823">
        <ele>425</ele>
        <time>2010-09-18T13:36:29Z</time>
      </trkpt>
      <trkpt lat="44.03967" lon="7.12773">
        <ele>424</ele>
        <time>2010-09-18T13:36:36Z</time>
      </trkpt>
      <trkpt lat="44.03923" lon="7.12732">
        <ele>423</ele>
        <time>2010-09-18T13:36:43Z</time>
      </trkpt>
      <trkpt lat="44.03723" lon="7.12777">
        <ele>419</ele>
        <time>2010-09-18T13:37:09Z</time>
      </trkpt>
      <trkpt lat="44.03667" lon="7.12793">
        <ele>419</ele>
        <time>2010-09-18T13:37:18Z</time>
      </trkpt>
      <trkpt lat="44.03633" lon="7.12823">
        <ele>415</ele>
        <time>2010-09-18T13:37:24Z</time>
      </trkpt>
      <trkpt lat="44.03608" lon="7.12958">
        <ele>411</ele>
        <time>2010-09-18T13:37:38Z</time>
      </trkpt>
      <trkpt lat="44.03582" lon="7.13045">
        <ele>409</ele>
        <time>2010-09-18T13:37:47Z</time>
      </trkpt>
      <trkpt lat="44.03498" lon="7.13153">
        <ele>409</ele>
        <time>2010-09-18T13:38:02Z</time>
      </trkpt>
      <trkpt lat="44.03423" lon="7.13198">
        <ele>406</ele>
        <time>2010-09-18T13:38:13Z</time>
      </trkpt>
      <trkpt lat="44.03027" lon="7.132">
        <ele>378</ele>
        <time>2010-09-18T13:38:58Z</time>
      </trkpt>
      <trkpt lat="44.02828" lon="7.1311">
        <ele>368</ele>
        <time>2010-09-18T13:39:25Z</time>
      </trkpt>
      <trkpt lat="44.02643" lon="7.13125">
        <ele>365</ele>
        <time>2010-09-18T13:39:50Z</time>
      </trkpt>
      <trkpt lat="44.02538" lon="7.13167">
        <ele>364</ele>
        <time>2010-09-18T13:40:05Z</time>
      </trkpt>
      <trkpt lat="44.02147" lon="7.13115">
        <ele>362</ele>
        <time>2010-09-18T13:41:03Z</time>
      </trkpt>
      <trkpt lat="44.01905" lon="7.1316">
        <ele>357</ele>
        <time>2010-09-18T13:41:38Z</time>
      </trkpt>
      <trkpt lat="44.01542" lon="7.1308">
        <ele>353</ele>
        <time>2010-09-18T13:42:32Z</time>
      </trkpt>
      <trkpt lat="44.01463" lon="7.13102">
        <ele>353</ele>
        <time>2010-09-18T13:42:44Z</time>
      </trkpt>
      <trkpt lat="44.01375" lon="7.13143">
        <ele>354</ele>
        <time>2010-09-18T13:42:58Z</time>
      </trkpt>
      <trkpt lat="44.01035" lon="7.13192">
        <ele>355</ele>
        <time>2010-09-18T13:43:48Z</time>
      </trkpt>
      <trkpt lat="44.00967" lon="7.13242">
        <ele>353</ele>
        <time>2010-09-18T13:43:59Z</time>
      </trkpt>
      <trkpt lat="44.0072" lon="7.13512">
        <ele>349</ele>
        <time>2010-09-18T13:44:46Z</time>
      </trkpt>
      <trkpt lat="44.00668" lon="7.13588">
        <ele>349</ele>
        <time>2010-09-18T13:44:58Z</time>
      </trkpt>
      <trkpt lat="44.0056" lon="7.13685">
        <ele>349</ele>
        <time>2010-09-18T13:45:21Z</time>
      </trkpt>
      <trkpt lat="44.00308" lon="7.13822">
        <ele>349</ele>
        <time>2010-09-18T13:46:05Z</time>
      </trkpt>
      <trkpt lat="44.00222" lon="7.13837">
        <ele>349</ele>
        <time>2010-09-18T13:46:19Z</time>
      </trkpt>
      <trkpt lat="44.00042" lon="7.1376">
        <ele>349</ele>
        <time>2010-09-18T13:46:47Z</time>
      </trkpt>
      <trkpt lat="43.99998" lon="7.13732">
        <ele>349</ele>
        <time>2010-09-18T13:46:54Z</time>
      </trkpt>
      <trkpt lat="43.99897" lon="7.13702">
        <ele>350</ele>
        <time>2010-09-18T13:47:09Z</time>
      </trkpt>
      <trkpt lat="43.99845" lon="7.13725">
        <ele>348</ele>
        <time>2010-09-18T13:47:17Z</time>
      </trkpt>
      <trkpt lat="43.99753" lon="7.13773">
        <ele>352</ele>
        <time>2010-09-18T13:47:30Z</time>
      </trkpt>
      <trkpt lat="43.99658" lon="7.13773">
        <ele>352</ele>
        <time>2010-09-18T13:47:44Z</time>
      </trkpt>
      <trkpt lat="43.9962" lon="7.1376">
        <ele>352</ele>
        <time>2010-09-18T13:47:49Z</time>
      </trkpt>
      <trkpt lat="43.99552" lon="7.13715">
        <ele>352</ele>
        <time>2010-09-18T13:48:00Z</time>
      </trkpt>
      <trkpt lat="43.9937" lon="7.1367">
        <ele>349</ele>
        <time>2010-09-18T13:48:27Z</time>
      </trkpt>
      <trkpt lat="43.99183" lon="7.13708">
        <ele>348</ele>
        <time>2010-09-18T13:48:54Z</time>
      </trkpt>
      <trkpt lat="43.99105" lon="7.13695">
        <ele>348</ele>
        <time>2010-09-18T13:49:05Z</time>
      </trkpt>
      <trkpt lat="43.98982" lon="7.13637">
        <ele>348</ele>
        <time>2010-09-18T13:49:23Z</time>
      </trkpt>
      <trkpt lat="43.98713" lon="7.13608">
        <ele>348</ele>
        <time>2010-09-18T13:50:01Z</time>
      </trkpt>
      <trkpt lat="43.98555" lon="7.13657">
        <ele>334</ele>
        <time>2010-09-18T13:50:23Z</time>
      </trkpt>
      <trkpt lat="43.98162" lon="7.13935">
        <ele>324</ele>
        <time>2010-09-18T13:51:21Z</time>
      </trkpt>
      <trkpt lat="43.97773" lon="7.14048">
        <ele>317</ele>
        <time>2010-09-18T13:52:16Z</time>
      </trkpt>
      <trkpt lat="43.97703" lon="7.14037">
        <ele>314</ele>
        <time>2010-09-18T13:52:26Z</time>
      </trkpt>
      <trkpt lat="43.97658" lon="7.1401">
        <ele>311</ele>
        <time>2010-09-18T13:52:33Z</time>
      </trkpt>
      <trkpt lat="43.976" lon="7.13973">
        <ele>308</ele>
        <time>2010-09-18T13:52:42Z</time>
      </trkpt>
      <trkpt lat="43.97558" lon="7.13937">
        <ele>308</ele>
        <time>2010-09-18T13:52:49Z</time>
      </trkpt>
      <trkpt lat="43.9751" lon="7.13948">
        <ele>304</ele>
        <time>2010-09-18T13:52:56Z</time>
      </trkpt>
      <trkpt lat="43.97395" lon="7.1407">
        <ele>303</ele>
        <time>2010-09-18T13:53:15Z</time>
      </trkpt>
      <trkpt lat="43.97322" lon="7.14115">
        <ele>304</ele>
        <time>2010-09-18T13:53:27Z</time>
      </trkpt>
      <trkpt lat="43.97278" lon="7.1423">
        <ele>301</ele>
        <time>2010-09-18T13:53:41Z</time>
      </trkpt>
      <trkpt lat="43.97282" lon="7.14322">
        <ele>298</ele>
        <time>2010-09-18T13:53:50Z</time>
      </trkpt>
      <trkpt lat="43.97283" lon="7.1444">
        <ele>298</ele>
        <time>2010-09-18T13:54:02Z</time>
      </trkpt>
      <trkpt lat="43.97255" lon="7.14548">
        <ele>297</ele>
        <time>2010-09-18T13:54:15Z</time>
      </trkpt>
      <trkpt lat="43.97248" lon="7.1461">
        <ele>297</ele>
        <time>2010-09-18T13:54:22Z</time>
      </trkpt>
      <trkpt lat="43.96988" lon="7.14842">
        <ele>294</ele>
        <time>2010-09-18T13:55:07Z</time>
      </trkpt>
      <trkpt lat="43.96815" lon="7.1503">
        <ele>292</ele>
        <time>2010-09-18T13:55:38Z</time>
      </trkpt>
      <trkpt lat="43.9641" lon="7.15263">
        <ele>288</ele>
        <time>2010-09-18T13:56:41Z</time>
      </trkpt>
      <trkpt lat="43.9634" lon="7.15362">
        <ele>286</ele>
        <time>2010-09-18T13:56:55Z</time>
      </trkpt>
      <trkpt lat="43.96237" lon="7.15348">
        <ele>285</ele>
        <time>2010-09-18T13:57:10Z</time>
      </trkpt>
      <trkpt lat="43.96088" lon="7.15473">
        <ele>282</ele>
        <time>2010-09-18T13:57:35Z</time>
      </trkpt>
      <trkpt lat="43.96027" lon="7.155">
        <ele>281</ele>
        <time>2010-09-18T13:57:44Z</time>
      </trkpt>
      <trkpt lat="43.95988" lon="7.1554">
        <ele>279</ele>
        <time>2010-09-18T13:57:51Z</time>
      </trkpt>
      <trkpt lat="43.95958" lon="7.15598">
        <ele>278</ele>
        <time>2010-09-18T13:57:58Z</time>
      </trkpt>
      <trkpt lat="43.9591" lon="7.15625">
        <ele>277</ele>
        <time>2010-09-18T13:58:05Z</time>
      </trkpt>
      <trkpt lat="43.9586" lon="7.15633">
        <ele>277</ele>
        <time>2010-09-18T13:58:12Z</time>
      </trkpt>
      <trkpt lat="43.95753" lon="7.15695">
        <ele>275</ele>
        <time>2010-09-18T13:58:28Z</time>
      </trkpt>
      <trkpt lat="43.95705" lon="7.1574">
        <ele>273</ele>
        <time>2010-09-18T13:58:36Z</time>
      </trkpt>
      <trkpt lat="43.95623" lon="7.15792">
        <ele>271</ele>
        <time>2010-09-18T13:58:48Z</time>
      </trkpt>
      <trkpt lat="43.95003" lon="7.16033">
        <ele>258</ele>
        <time>2010-09-18T14:00:17Z</time>
      </trkpt>
      <trkpt lat="43.94787" lon="7.16005">
        <ele>255</ele>
        <time>2010-09-18T14:00:48Z</time>
      </trkpt>
      <trkpt lat="43.94697" lon="7.16053">
        <ele>255</ele>
        <time>2010-09-18T14:01:02Z</time>
      </trkpt>
      <trkpt lat="43.9453" lon="7.1628">
        <ele>248</ele>
        <time>2010-09-18T14:01:34Z</time>
      </trkpt>
      <trkpt lat="43.94482" lon="7.163">
        <ele>247</ele>
        <time>2010-09-18T14:01:41Z</time>
      </trkpt>
      <trkpt lat="43.94373" lon="7.16282">
        <ele>244</ele>
        <time>2010-09-18T14:01:56Z</time>
      </trkpt>
      <trkpt lat="43.94253" lon="7.16237">
        <ele>243</ele>
        <time>2010-09-18T14:02:14Z</time>
      </trkpt>
      <trkpt lat="43.94157" lon="7.16148">
        <ele>242</ele>
        <time>2010-09-18T14:02:31Z</time>
      </trkpt>
      <trkpt lat="43.93942" lon="7.16103">
        <ele>235</ele>
        <time>2010-09-18T14:03:03Z</time>
      </trkpt>
      <trkpt lat="43.93897" lon="7.1613">
        <ele>234</ele>
        <time>2010-09-18T14:03:10Z</time>
      </trkpt>
      <trkpt lat="43.93848" lon="7.1621">
        <ele>234</ele>
        <time>2010-09-18T14:03:20Z</time>
      </trkpt>
      <trkpt lat="43.93835" lon="7.16278">
        <ele>233</ele>
        <time>2010-09-18T14:03:27Z</time>
      </trkpt>
      <trkpt lat="43.93855" lon="7.16457">
        <ele>231</ele>
        <time>2010-09-18T14:03:44Z</time>
      </trkpt>
      <trkpt lat="43.93838" lon="7.1651">
        <ele>231</ele>
        <time>2010-09-18T14:03:50Z</time>
      </trkpt>
      <trkpt lat="43.93777" lon="7.16537">
        <ele>231</ele>
        <time>2010-09-18T14:04:00Z</time>
      </trkpt>
      <trkpt lat="43.93665" lon="7.1666">
        <ele>231</ele>
        <time>2010-09-18T14:04:32Z</time>
      </trkpt>
      <trkpt lat="43.93667" lon="7.16873">
        <ele>231</ele>
        <time>2010-09-18T14:05:00Z</time>
      </trkpt>
      <trkpt lat="43.93753" lon="7.1711">
        <ele>259</ele>
        <time>2010-09-18T14:05:02Z</time>
      </trkpt>
      <trkpt lat="43.93727" lon="7.17127">
        <ele>251</ele>
        <time>2010-09-18T14:05:07Z</time>
      </trkpt>
      <trkpt lat="43.93665" lon="7.17172">
        <ele>251</ele>
        <time>2010-09-18T14:05:23Z</time>
      </trkpt>
      <trkpt lat="43.93595" lon="7.17175">
        <ele>251</ele>
        <time>2010-09-18T14:05:29Z</time>
      </trkpt>
      <trkpt lat="43.93557" lon="7.1718">
        <ele>217</ele>
        <time>2010-09-18T14:05:35Z</time>
      </trkpt>
      <trkpt lat="43.93478" lon="7.17175">
        <ele>221</ele>
        <time>2010-09-18T14:05:47Z</time>
      </trkpt>
      <trkpt lat="43.93428" lon="7.17198">
        <ele>223</ele>
        <time>2010-09-18T14:05:55Z</time>
      </trkpt>
      <trkpt lat="43.9339" lon="7.17252">
        <ele>225</ele>
        <time>2010-09-18T14:06:03Z</time>
      </trkpt>
      <trkpt lat="43.93375" lon="7.173">
        <ele>225</ele>
        <time>2010-09-18T14:06:09Z</time>
      </trkpt>
      <trkpt lat="43.93243" lon="7.17415">
        <ele>230</ele>
        <time>2010-09-18T14:06:33Z</time>
      </trkpt>
      <trkpt lat="43.93208" lon="7.17485">
        <ele>232</ele>
        <time>2010-09-18T14:06:45Z</time>
      </trkpt>
      <trkpt lat="43.9319" lon="7.17557">
        <ele>231</ele>
        <time>2010-09-18T14:06:51Z</time>
      </trkpt>
      <trkpt lat="43.93162" lon="7.176">
        <ele>234</ele>
        <time>2010-09-18T14:06:58Z</time>
      </trkpt>
      <trkpt lat="43.9314" lon="7.17677">
        <ele>234</ele>
        <time>2010-09-18T14:07:07Z</time>
      </trkpt>
      <trkpt lat="43.93122" lon="7.17745">
        <ele>240</ele>
        <time>2010-09-18T14:07:15Z</time>
      </trkpt>
      <trkpt lat="43.93008" lon="7.18025">
        <ele>231</ele>
        <time>2010-09-18T14:07:49Z</time>
      </trkpt>
      <trkpt lat="43.92955" lon="7.18065">
        <ele>230</ele>
        <time>2010-09-18T14:07:58Z</time>
      </trkpt>
      <trkpt lat="43.92883" lon="7.18078">
        <ele>230</ele>
        <time>2010-09-18T14:08:09Z</time>
      </trkpt>
      <trkpt lat="43.9272" lon="7.18175">
        <ele>230</ele>
        <time>2010-09-18T14:08:35Z</time>
      </trkpt>
      <trkpt lat="43.92625" lon="7.18293">
        <ele>229</ele>
        <time>2010-09-18T14:08:53Z</time>
      </trkpt>
      <trkpt lat="43.92583" lon="7.18437">
        <ele>225</ele>
        <time>2010-09-18T14:09:09Z</time>
      </trkpt>
      <trkpt lat="43.92555" lon="7.18502">
        <ele>224</ele>
        <time>2010-09-18T14:09:17Z</time>
      </trkpt>
      <trkpt lat="43.92532" lon="7.18568">
        <ele>223</ele>
        <time>2010-09-18T14:09:25Z</time>
      </trkpt>
      <trkpt lat="43.92495" lon="7.18623">
        <ele>223</ele>
        <time>2010-09-18T14:09:33Z</time>
      </trkpt>
      <trkpt lat="43.92402" lon="7.18638">
        <ele>222</ele>
        <time>2010-09-18T14:09:47Z</time>
      </trkpt>
      <trkpt lat="43.92345" lon="7.18628">
        <ele>221</ele>
        <time>2010-09-18T14:09:55Z</time>
      </trkpt>
      <trkpt lat="43.92275" lon="7.18587">
        <ele>219</ele>
        <time>2010-09-18T14:10:05Z</time>
      </trkpt>
      <trkpt lat="43.92128" lon="7.18655">
        <ele>214</ele>
        <time>2010-09-18T14:10:25Z</time>
      </trkpt>
      <trkpt lat="43.92078" lon="7.1877">
        <ele>212</ele>
        <time>2010-09-18T14:10:37Z</time>
      </trkpt>
      <trkpt lat="43.92048" lon="7.18802">
        <ele>212</ele>
        <time>2010-09-18T14:11:30Z</time>
      </trkpt>
      <trkpt lat="43.9171" lon="7.18918">
        <ele>212</ele>
        <time>2010-09-18T14:11:33Z</time>
      </trkpt>
      <trkpt lat="43.91675" lon="7.189">
        <ele>212</ele>
        <time>2010-09-18T14:11:38Z</time>
      </trkpt>
      <trkpt lat="43.9162" lon="7.18793">
        <ele>212</ele>
        <time>2010-09-18T14:11:51Z</time>
      </trkpt>
      <trkpt lat="43.91595" lon="7.18733">
        <ele>212</ele>
        <time>2010-09-18T14:11:59Z</time>
      </trkpt>
      <trkpt lat="43.91557" lon="7.18698">
        <ele>212</ele>
        <time>2010-09-18T14:12:06Z</time>
      </trkpt>
      <trkpt lat="43.915" lon="7.18707">
        <ele>212</ele>
        <time>2010-09-18T14:12:19Z</time>
      </trkpt>
      <trkpt lat="43.91435" lon="7.18767">
        <ele>212</ele>
        <time>2010-09-18T14:12:24Z</time>
      </trkpt>
      <trkpt lat="43.91387" lon="7.1879">
        <ele>212</ele>
        <time>2010-09-18T14:12:30Z</time>
      </trkpt>
      <trkpt lat="43.9135" lon="7.1879">
        <ele>212</ele>
        <time>2010-09-18T14:12:35Z</time>
      </trkpt>
      <trkpt lat="43.91312" lon="7.18752">
        <ele>212</ele>
        <time>2010-09-18T14:12:41Z</time>
      </trkpt>
      <trkpt lat="43.91292" lon="7.18708">
        <ele>212</ele>
        <time>2010-09-18T14:12:48Z</time>
      </trkpt>
      <trkpt lat="43.9127" lon="7.18647">
        <ele>212</ele>
        <time>2010-09-18T14:12:54Z</time>
      </trkpt>
      <trkpt lat="43.91237" lon="7.1858">
        <ele>212</ele>
        <time>2010-09-18T14:13:02Z</time>
      </trkpt>
      <trkpt lat="43.91128" lon="7.18565">
        <ele>198</ele>
        <time>2010-09-18T14:13:18Z</time>
      </trkpt>
      <trkpt lat="43.90128" lon="7.18767">
        <ele>167</ele>
        <time>2010-09-18T14:15:38Z</time>
      </trkpt>
      <trkpt lat="43.89865" lon="7.18913">
        <ele>166</ele>
        <time>2010-09-18T14:17:37Z</time>
      </trkpt>
      <trkpt lat="43.89205" lon="7.18855">
        <ele>166</ele>
        <time>2010-09-18T14:17:39Z</time>
      </trkpt>
      <trkpt lat="43.89157" lon="7.18903">
        <ele>166</ele>
        <time>2010-09-18T14:17:48Z</time>
      </trkpt>
      <trkpt lat="43.89102" lon="7.18903">
        <ele>166</ele>
        <time>2010-09-18T14:17:56Z</time>
      </trkpt>
      <trkpt lat="43.89052" lon="7.18877">
        <ele>166</ele>
        <time>2010-09-18T14:18:18Z</time>
      </trkpt>
      <trkpt lat="43.89037" lon="7.18868">
        <ele>166</ele>
        <time>2010-09-18T14:18:26Z</time>
      </trkpt>
      <trkpt lat="43.8891" lon="7.18777">
        <ele>166</ele>
        <time>2010-09-18T14:19:01Z</time>
      </trkpt>
      <trkpt lat="43.88847" lon="7.18775">
        <ele>166</ele>
        <time>2010-09-18T14:19:10Z</time>
      </trkpt>
      <trkpt lat="43.88573" lon="7.18928">
        <ele>166</ele>
        <time>2010-09-18T14:19:52Z</time>
      </trkpt>
      <trkpt lat="43.88435" lon="7.18977">
        <ele>166</ele>
        <time>2010-09-18T14:20:14Z</time>
      </trkpt>
      <trkpt lat="43.88358" lon="7.18963">
        <ele>178</ele>
        <time>2010-09-18T14:20:25Z</time>
      </trkpt>
      <trkpt lat="43.88323" lon="7.18975">
        <ele>156</ele>
        <time>2010-09-18T14:20:31Z</time>
      </trkpt>
      <trkpt lat="43.8824" lon="7.1899">
        <ele>152</ele>
        <time>2010-09-18T14:20:44Z</time>
      </trkpt>
      <trkpt lat="43.88025" lon="7.1894">
        <ele>156</ele>
        <time>2010-09-18T14:21:16Z</time>
      </trkpt>
      <trkpt lat="43.87942" lon="7.18963">
        <ele>156</ele>
        <time>2010-09-18T14:21:28Z</time>
      </trkpt>
      <trkpt lat="43.87748" lon="7.19142">
        <ele>156</ele>
        <time>2010-09-18T14:22:02Z</time>
      </trkpt>
      <trkpt lat="43.87673" lon="7.1924">
        <ele>156</ele>
        <time>2010-09-18T14:22:17Z</time>
      </trkpt>
      <trkpt lat="43.87632" lon="7.19267">
        <ele>156</ele>
        <time>2010-09-18T14:22:23Z</time>
      </trkpt>
      <trkpt lat="43.87573" lon="7.19267">
        <ele>156</ele>
        <time>2010-09-18T14:22:32Z</time>
      </trkpt>
      <trkpt lat="43.87505" lon="7.19242">
        <ele>156</ele>
        <time>2010-09-18T14:22:52Z</time>
      </trkpt>
      <trkpt lat="43.87413" lon="7.19278">
        <ele>156</ele>
        <time>2010-09-18T14:22:57Z</time>
      </trkpt>
      <trkpt lat="43.87363" lon="7.19342">
        <ele>156</ele>
        <time>2010-09-18T14:23:07Z</time>
      </trkpt>
      <trkpt lat="43.87303" lon="7.1947">
        <ele>156</ele>
        <time>2010-09-18T14:23:23Z</time>
      </trkpt>
      <trkpt lat="43.8718" lon="7.19588">
        <ele>156</ele>
        <time>2010-09-18T14:23:44Z</time>
      </trkpt>
      <trkpt lat="43.87055" lon="7.19727">
        <ele>131</ele>
        <time>2010-09-18T14:24:06Z</time>
      </trkpt>
      <trkpt lat="43.86813" lon="7.1985">
        <ele>131</ele>
        <time>2010-09-18T14:24:41Z</time>
      </trkpt>
      <trkpt lat="43.86595" lon="7.19868">
        <ele>136</ele>
        <time>2010-09-18T14:25:12Z</time>
      </trkpt>
      <trkpt lat="43.86098" lon="7.19823">
        <ele>136</ele>
        <time>2010-09-18T14:26:25Z</time>
      </trkpt>
      <trkpt lat="43.86007" lon="7.19773">
        <ele>139</ele>
        <time>2010-09-18T14:26:41Z</time>
      </trkpt>
      <trkpt lat="43.85802" lon="7.19608">
        <ele>132</ele>
        <time>2010-09-18T14:27:13Z</time>
      </trkpt>
      <trkpt lat="43.85723" lon="7.19587">
        <ele>132</ele>
        <time>2010-09-18T14:27:24Z</time>
      </trkpt>
      <trkpt lat="43.85637" lon="7.19602">
        <ele>131</ele>
        <time>2010-09-18T14:27:36Z</time>
      </trkpt>
      <trkpt lat="43.85365" lon="7.19782">
        <ele>129</ele>
        <time>2010-09-18T14:28:19Z</time>
      </trkpt>
      <trkpt lat="43.85302" lon="7.19788">
        <ele>129</ele>
        <time>2010-09-18T14:28:29Z</time>
      </trkpt>
      <trkpt lat="43.85168" lon="7.19782">
        <ele>129</ele>
        <time>2010-09-18T14:28:47Z</time>
      </trkpt>
      <trkpt lat="43.85068" lon="7.19783">
        <ele>129</ele>
        <time>2010-09-18T14:29:01Z</time>
      </trkpt>
      <trkpt lat="43.84637" lon="7.19683">
        <ele>130</ele>
        <time>2010-09-18T14:30:04Z</time>
      </trkpt>
      <trkpt lat="43.84583" lon="7.197">
        <ele>131</ele>
        <time>2010-09-18T14:30:12Z</time>
      </trkpt>
      <trkpt lat="43.82178" lon="7.18848">
        <ele>110</ele>
        <time>2010-09-18T14:36:13Z</time>
      </trkpt>
      <trkpt lat="43.8204" lon="7.18833">
        <ele>110</ele>
        <time>2010-09-18T14:36:33Z</time>
      </trkpt>
      <trkpt lat="43.81867" lon="7.18793">
        <ele>108</ele>
        <time>2010-09-18T14:36:58Z</time>
      </trkpt>
      <trkpt lat="43.81533" lon="7.1884">
        <ele>105</ele>
        <time>2010-09-18T14:37:46Z</time>
      </trkpt>
      <trkpt lat="43.81195" lon="7.18997">
        <ele>102</ele>
        <time>2010-09-18T14:38:38Z</time>
      </trkpt>
      <trkpt lat="43.81035" lon="7.1912">
        <ele>101</ele>
        <time>2010-09-18T14:39:04Z</time>
      </trkpt>
      <trkpt lat="43.79108" lon="7.21372">
        <ele>80</ele>
        <time>2010-09-18T14:45:01Z</time>
      </trkpt>
      <trkpt lat="43.79085" lon="7.21405">
        <ele>80</ele>
        <time>2010-09-18T14:45:07Z</time>
      </trkpt>
      <trkpt lat="43.79105" lon="7.21462">
        <ele>79</ele>
        <time>2010-09-18T14:45:14Z</time>
      </trkpt>
      <trkpt lat="43.79105" lon="7.21513">
        <ele>78</ele>
        <time>2010-09-18T14:45:20Z</time>
      </trkpt>
      <trkpt lat="43.79075" lon="7.2154">
        <ele>78</ele>
        <time>2010-09-18T14:47:29Z</time>
      </trkpt>
      <trkpt lat="43.79042" lon="7.2157">
        <ele>81</ele>
        <time>2010-09-18T14:49:27Z</time>
      </trkpt>
      <trkpt lat="43.79035" lon="7.21602">
        <ele>80</ele>
        <time>2010-09-18T14:49:33Z</time>
      </trkpt>
      <trkpt lat="43.79068" lon="7.2164">
        <ele>82</ele>
        <time>2010-09-18T14:49:43Z</time>
      </trkpt>
      <trkpt lat="43.7919" lon="7.21833">
        <ele>99</ele>
        <time>2010-09-18T14:50:33Z</time>
      </trkpt>
      <trkpt lat="43.79207" lon="7.21867">
        <ele>99</ele>
        <time>2010-09-18T14:50:41Z</time>
      </trkpt>
      <trkpt lat="43.79233" lon="7.2197">
        <ele>104</ele>
        <time>2010-09-18T14:51:02Z</time>
      </trkpt>
      <trkpt lat="43.79245" lon="7.21997">
        <ele>105</ele>
        <time>2010-09-18T14:51:08Z</time>
      </trkpt>
      <trkpt lat="43.7924" lon="7.21878">
        <ele>112</ele>
        <time>2010-09-18T14:51:33Z</time>
      </trkpt>
      <trkpt lat="43.79222" lon="7.21807">
        <ele>114</ele>
        <time>2010-09-18T14:51:45Z</time>
      </trkpt>
      <trkpt lat="43.79205" lon="7.21772">
        <ele>115</ele>
        <time>2010-09-18T14:51:51Z</time>
      </trkpt>
      <trkpt lat="43.79215" lon="7.21722">
        <ele>116</ele>
        <time>2010-09-18T14:51:59Z</time>
      </trkpt>
      <trkpt lat="43.79243" lon="7.21667">
        <ele>117</ele>
        <time>2010-09-18T14:52:08Z</time>
      </trkpt>
      <trkpt lat="43.79295" lon="7.21637">
        <ele>118</ele>
        <time>2010-09-18T14:52:17Z</time>
      </trkpt>
      <trkpt lat="43.79325" lon="7.21643">
        <ele>119</ele>
        <time>2010-09-18T14:52:25Z</time>
      </trkpt>
      <trkpt lat="43.79343" lon="7.21622">
        <ele>125</ele>
        <time>2010-09-18T14:52:59Z</time>
      </trkpt>
      <trkpt lat="43.79375" lon="7.21532">
        <ele>126</ele>
        <time>2010-09-18T14:53:16Z</time>
      </trkpt>
      <trkpt lat="43.79403" lon="7.21487">
        <ele>127</ele>
        <time>2010-09-18T14:53:25Z</time>
      </trkpt>
      <trkpt lat="43.79425" lon="7.21445">
        <ele>132</ele>
        <time>2010-09-18T14:53:33Z</time>
      </trkpt>
      <trkpt lat="43.79457" lon="7.21422">
        <ele>137</ele>
        <time>2010-09-18T14:53:43Z</time>
      </trkpt>
      <trkpt lat="43.79487" lon="7.21437">
        <ele>138</ele>
        <time>2010-09-18T14:53:52Z</time>
      </trkpt>
      <trkpt lat="43.79493" lon="7.21473">
        <ele>138</ele>
        <time>2010-09-18T14:53:59Z</time>
      </trkpt>
      <trkpt lat="43.79542" lon="7.21413">
        <ele>143</ele>
        <time>2010-09-18T14:54:13Z</time>
      </trkpt>
      <trkpt lat="43.79577" lon="7.21422">
        <ele>145</ele>
        <time>2010-09-18T14:54:21Z</time>
      </trkpt>
      <trkpt lat="43.796" lon="7.21437">
        <ele>145</ele>
        <time>2010-09-18T14:54:27Z</time>
      </trkpt>
      <trkpt lat="43.79613" lon="7.21397">
        <ele>144</ele>
        <time>2010-09-18T14:54:32Z</time>
      </trkpt>
      <trkpt lat="43.79602" lon="7.2129">
        <ele>143</ele>
        <time>2010-09-18T14:54:44Z</time>
      </trkpt>
      <trkpt lat="43.7964" lon="7.21257">
        <ele>144</ele>
        <time>2010-09-18T14:54:52Z</time>
      </trkpt>
      <trkpt lat="43.79713" lon="7.21248">
        <ele>146</ele>
        <time>2010-09-18T14:55:04Z</time>
      </trkpt>
      <trkpt lat="43.79775" lon="7.2123">
        <ele>154</ele>
        <time>2010-09-18T14:55:19Z</time>
      </trkpt>
      <trkpt lat="43.79752" lon="7.21247">
        <ele>155</ele>
        <time>2010-09-18T14:55:28Z</time>
      </trkpt>
      <trkpt lat="43.79722" lon="7.21267">
        <ele>157</ele>
        <time>2010-09-18T14:55:38Z</time>
      </trkpt>
      <trkpt lat="43.79695" lon="7.21277">
        <ele>157</ele>
        <time>2010-09-18T14:55:46Z</time>
      </trkpt>
      <trkpt lat="43.79662" lon="7.2131">
        <ele>161</ele>
        <time>2010-09-18T14:55:59Z</time>
      </trkpt>
      <trkpt lat="43.7965" lon="7.21347">
        <ele>164</ele>
        <time>2010-09-18T14:56:08Z</time>
      </trkpt>
      <trkpt lat="43.79658" lon="7.21375">
        <ele>165</ele>
        <time>2010-09-18T14:56:15Z</time>
      </trkpt>
      <trkpt lat="43.7967" lon="7.2141">
        <ele>169</ele>
        <time>2010-09-18T14:56:24Z</time>
      </trkpt>
      <trkpt lat="43.79678" lon="7.21492">
        <ele>178</ele>
        <time>2010-09-18T14:56:44Z</time>
      </trkpt>
      <trkpt lat="43.79675" lon="7.21547">
        <ele>179</ele>
        <time>2010-09-18T14:56:57Z</time>
      </trkpt>
      <trkpt lat="43.79675" lon="7.21592">
        <ele>181</ele>
        <time>2010-09-18T14:57:07Z</time>
      </trkpt>
      <trkpt lat="43.79668" lon="7.21632">
        <ele>180</ele>
        <time>2010-09-18T14:57:17Z</time>
      </trkpt>
      <trkpt lat="43.79637" lon="7.21682">
        <ele>186</ele>
        <time>2010-09-18T14:57:34Z</time>
      </trkpt>
      <trkpt lat="43.7962" lon="7.21695">
        <ele>189</ele>
        <time>2010-09-18T14:57:42Z</time>
      </trkpt>
      <trkpt lat="43.79605" lon="7.2167">
        <ele>191</ele>
        <time>2010-09-18T14:57:53Z</time>
      </trkpt>
      <trkpt lat="43.79597" lon="7.21642">
        <ele>190</ele>
        <time>2010-09-18T14:58:01Z</time>
      </trkpt>
      <trkpt lat="43.79552" lon="7.21667">
        <ele>192</ele>
        <time>2010-09-18T14:58:14Z</time>
      </trkpt>
      <trkpt lat="43.79507" lon="7.21722">
        <ele>186</ele>
        <time>2010-09-18T14:58:23Z</time>
      </trkpt>
      <trkpt lat="43.7946" lon="7.21723">
        <ele>187</ele>
        <time>2010-09-18T14:58:29Z</time>
      </trkpt>
      <trkpt lat="43.79408" lon="7.21835">
        <ele>193</ele>
        <time>2010-09-18T14:58:47Z</time>
      </trkpt>
      <trkpt lat="43.79382" lon="7.21855">
        <ele>195</ele>
        <time>2010-09-18T14:58:54Z</time>
      </trkpt>
      <trkpt lat="43.79393" lon="7.21925">
        <ele>198</ele>
        <time>2010-09-18T14:59:07Z</time>
      </trkpt>
      <trkpt lat="43.7945" lon="7.21983">
        <ele>201</ele>
        <time>2010-09-18T14:59:27Z</time>
      </trkpt>
      <trkpt lat="43.79475" lon="7.22008">
        <ele>206</ele>
        <time>2010-09-18T14:59:37Z</time>
      </trkpt>
      <trkpt lat="43.79502" lon="7.22035">
        <ele>211</ele>
        <time>2010-09-18T14:59:47Z</time>
      </trkpt>
      <trkpt lat="43.79558" lon="7.22122">
        <ele>222</ele>
        <time>2010-09-18T15:00:14Z</time>
      </trkpt>
      <trkpt lat="43.7963" lon="7.22173">
        <ele>232</ele>
        <time>2010-09-18T15:00:37Z</time>
      </trkpt>
      <trkpt lat="43.79657" lon="7.222">
        <ele>236</ele>
        <time>2010-09-18T15:00:47Z</time>
      </trkpt>
      <trkpt lat="43.79677" lon="7.22225">
        <ele>238</ele>
        <time>2010-09-18T15:00:55Z</time>
      </trkpt>
      <trkpt lat="43.7967" lon="7.2219">
        <ele>244</ele>
        <time>2010-09-18T15:01:11Z</time>
      </trkpt>
      <trkpt lat="43.79658" lon="7.22158">
        <ele>247</ele>
        <time>2010-09-18T15:01:23Z</time>
      </trkpt>
      <trkpt lat="43.79627" lon="7.22127">
        <ele>251</ele>
        <time>2010-09-18T15:01:36Z</time>
      </trkpt>
      <trkpt lat="43.79598" lon="7.22072">
        <ele>254</ele>
        <time>2010-09-18T15:01:56Z</time>
      </trkpt>
      <trkpt lat="43.79583" lon="7.22052">
        <ele>256</ele>
        <time>2010-09-18T15:02:04Z</time>
      </trkpt>
      <trkpt lat="43.7961" lon="7.22072">
        <ele>259</ele>
        <time>2010-09-18T15:02:16Z</time>
      </trkpt>
      <trkpt lat="43.79648" lon="7.22115">
        <ele>263</ele>
        <time>2010-09-18T15:02:30Z</time>
      </trkpt>
      <trkpt lat="43.79697" lon="7.22138">
        <ele>270</ele>
        <time>2010-09-18T15:02:47Z</time>
      </trkpt>
      <trkpt lat="43.79728" lon="7.22133">
        <ele>274</ele>
        <time>2010-09-18T15:02:57Z</time>
      </trkpt>
      <trkpt lat="43.7976" lon="7.2212">
        <ele>278</ele>
        <time>2010-09-18T15:03:08Z</time>
      </trkpt>
      <trkpt lat="43.79797" lon="7.22143">
        <ele>281</ele>
        <time>2010-09-18T15:03:20Z</time>
      </trkpt>
      <trkpt lat="43.79827" lon="7.22167">
        <ele>282</ele>
        <time>2010-09-18T15:03:28Z</time>
      </trkpt>
      <trkpt lat="43.79843" lon="7.22215">
        <ele>286</ele>
        <time>2010-09-18T15:03:37Z</time>
      </trkpt>
      <trkpt lat="43.79868" lon="7.22227">
        <ele>289</ele>
        <time>2010-09-18T15:03:45Z</time>
      </trkpt>
      <trkpt lat="43.79917" lon="7.22222">
        <ele>298</ele>
        <time>2010-09-18T15:04:04Z</time>
      </trkpt>
      <trkpt lat="43.79955" lon="7.22233">
        <ele>305</ele>
        <time>2010-09-18T15:04:22Z</time>
      </trkpt>
      <trkpt lat="43.79978" lon="7.22248">
        <ele>310</ele>
        <time>2010-09-18T15:04:34Z</time>
      </trkpt>
      <trkpt lat="43.8" lon="7.2228">
        <ele>316</ele>
        <time>2010-09-18T15:04:50Z</time>
      </trkpt>
      <trkpt lat="43.80077" lon="7.2234">
        <ele>331</ele>
        <time>2010-09-18T15:05:30Z</time>
      </trkpt>
      <trkpt lat="43.80115" lon="7.22348">
        <ele>334</ele>
        <time>2010-09-18T15:05:47Z</time>
      </trkpt>
      <trkpt lat="43.80135" lon="7.22322">
        <ele>333</ele>
        <time>2010-09-18T15:05:56Z</time>
      </trkpt>
      <trkpt lat="43.80142" lon="7.22283">
        <ele>334</ele>
        <time>2010-09-18T15:06:03Z</time>
      </trkpt>
      <trkpt lat="43.80168" lon="7.22265">
        <ele>337</ele>
        <time>2010-09-18T15:06:10Z</time>
      </trkpt>
      <trkpt lat="43.8022" lon="7.22278">
        <ele>337</ele>
        <time>2010-09-18T15:06:22Z</time>
      </trkpt>
      <trkpt lat="43.80275" lon="7.22275">
        <ele>339</ele>
        <time>2010-09-18T15:06:34Z</time>
      </trkpt>
      <trkpt lat="43.80308" lon="7.2228">
        <ele>340</ele>
        <time>2010-09-18T15:06:45Z</time>
      </trkpt>
      <trkpt lat="43.80345" lon="7.2231">
        <ele>343</ele>
        <time>2010-09-18T15:06:58Z</time>
      </trkpt>
      <trkpt lat="43.80358" lon="7.22332">
        <ele>346</ele>
        <time>2010-09-18T15:07:07Z</time>
      </trkpt>
      <trkpt lat="43.80362" lon="7.22372">
        <ele>348</ele>
        <time>2010-09-18T15:07:16Z</time>
      </trkpt>
      <trkpt lat="43.80353" lon="7.2244">
        <ele>351</ele>
        <time>2010-09-18T15:07:33Z</time>
      </trkpt>
      <trkpt lat="43.80343" lon="7.2247">
        <ele>351</ele>
        <time>2010-09-18T15:07:40Z</time>
      </trkpt>
      <trkpt lat="43.80375" lon="7.22493">
        <ele>357</ele>
        <time>2010-09-18T15:07:54Z</time>
      </trkpt>
      <trkpt lat="43.80413" lon="7.22532">
        <ele>359</ele>
        <time>2010-09-18T15:08:08Z</time>
      </trkpt>
      <trkpt lat="43.80435" lon="7.22567">
        <ele>361</ele>
        <time>2010-09-18T15:08:17Z</time>
      </trkpt>
      <trkpt lat="43.80477" lon="7.22623">
        <ele>364</ele>
        <time>2010-09-18T15:08:34Z</time>
      </trkpt>
      <trkpt lat="43.80488" lon="7.22678">
        <ele>369</ele>
        <time>2010-09-18T15:08:50Z</time>
      </trkpt>
      <trkpt lat="43.80513" lon="7.22725">
        <ele>375</ele>
        <time>2010-09-18T15:09:08Z</time>
      </trkpt>
      <trkpt lat="43.80527" lon="7.22775">
        <ele>378</ele>
        <time>2010-09-18T15:09:22Z</time>
      </trkpt>
      <trkpt lat="43.80542" lon="7.2283">
        <ele>384</ele>
        <time>2010-09-18T15:09:41Z</time>
      </trkpt>
      <trkpt lat="43.80543" lon="7.22798">
        <ele>384</ele>
        <time>2010-09-18T15:09:53Z</time>
      </trkpt>
      <trkpt lat="43.80542" lon="7.22753">
        <ele>386</ele>
        <time>2010-09-18T15:10:05Z</time>
      </trkpt>
      <trkpt lat="43.80562" lon="7.22785">
        <ele>389</ele>
        <time>2010-09-18T15:10:19Z</time>
      </trkpt>
      <trkpt lat="43.80642" lon="7.22927">
        <ele>401</ele>
        <time>2010-09-18T15:11:05Z</time>
      </trkpt>
      <trkpt lat="43.80652" lon="7.2297">
        <ele>403</ele>
        <time>2010-09-18T15:11:17Z</time>
      </trkpt>
      <trkpt lat="43.80665" lon="7.23022">
        <ele>403</ele>
        <time>2010-09-18T15:11:29Z</time>
      </trkpt>
      <trkpt lat="43.80623" lon="7.23102">
        <ele>401</ele>
        <time>2010-09-18T15:11:47Z</time>
      </trkpt>
      <trkpt lat="43.80583" lon="7.23257">
        <ele>401</ele>
        <time>2010-09-18T15:12:09Z</time>
      </trkpt>
      <trkpt lat="43.80597" lon="7.23317">
        <ele>401</ele>
        <time>2010-09-18T15:12:17Z</time>
      </trkpt>
      <trkpt lat="43.80595" lon="7.23395">
        <ele>401</ele>
        <time>2010-09-18T15:12:26Z</time>
      </trkpt>
      <trkpt lat="43.80565" lon="7.23418">
        <ele>402</ele>
        <time>2010-09-18T15:12:32Z</time>
      </trkpt>
      <trkpt lat="43.80523" lon="7.23398">
        <ele>402</ele>
        <time>2010-09-18T15:12:39Z</time>
      </trkpt>
      <trkpt lat="43.80448" lon="7.23362">
        <ele>403</ele>
        <time>2010-09-18T15:12:51Z</time>
      </trkpt>
      <trkpt lat="43.8037" lon="7.23395">
        <ele>404</ele>
        <time>2010-09-18T15:13:04Z</time>
      </trkpt>
      <trkpt lat="43.80322" lon="7.2337">
        <ele>407</ele>
        <time>2010-09-18T15:13:12Z</time>
      </trkpt>
      <trkpt lat="43.80285" lon="7.23345">
        <ele>407</ele>
        <time>2010-09-18T15:13:19Z</time>
      </trkpt>
      <trkpt lat="43.80235" lon="7.23355">
        <ele>405</ele>
        <time>2010-09-18T15:13:27Z</time>
      </trkpt>
      <trkpt lat="43.80182" lon="7.23382">
        <ele>405</ele>
        <time>2010-09-18T15:13:36Z</time>
      </trkpt>
      <trkpt lat="43.80143" lon="7.23372">
        <ele>405</ele>
        <time>2010-09-18T15:13:43Z</time>
      </trkpt>
      <trkpt lat="43.80085" lon="7.23317">
        <ele>426</ele>
        <time>2010-09-18T15:13:56Z</time>
      </trkpt>
      <trkpt lat="43.80037" lon="7.2331">
        <ele>427</ele>
        <time>2010-09-18T15:14:05Z</time>
      </trkpt>
      <trkpt lat="43.79997" lon="7.23348">
        <ele>426</ele>
        <time>2010-09-18T15:14:14Z</time>
      </trkpt>
      <trkpt lat="43.79943" lon="7.23385">
        <ele>428</ele>
        <time>2010-09-18T15:14:24Z</time>
      </trkpt>
      <trkpt lat="43.79895" lon="7.2337">
        <ele>431</ele>
        <time>2010-09-18T15:14:33Z</time>
      </trkpt>
      <trkpt lat="43.79825" lon="7.23312">
        <ele>434</ele>
        <time>2010-09-18T15:14:48Z</time>
      </trkpt>
      <trkpt lat="43.79737" lon="7.23267">
        <ele>437</ele>
        <time>2010-09-18T15:15:05Z</time>
      </trkpt>
      <trkpt lat="43.7964" lon="7.23272">
        <ele>440</ele>
        <time>2010-09-18T15:15:23Z</time>
      </trkpt>
      <trkpt lat="43.79502" lon="7.23367">
        <ele>445</ele>
        <time>2010-09-18T15:15:52Z</time>
      </trkpt>
      <trkpt lat="43.79355" lon="7.23435">
        <ele>451</ele>
        <time>2010-09-18T15:16:21Z</time>
      </trkpt>
      <trkpt lat="43.79237" lon="7.23583">
        <ele>453</ele>
        <time>2010-09-18T15:16:51Z</time>
      </trkpt>
      <trkpt lat="43.79215" lon="7.23648">
        <ele>453</ele>
        <time>2010-09-18T15:17:01Z</time>
      </trkpt>
      <trkpt lat="43.79198" lon="7.23753">
        <ele>454</ele>
        <time>2010-09-18T15:17:15Z</time>
      </trkpt>
      <trkpt lat="43.79187" lon="7.23817">
        <ele>453</ele>
        <time>2010-09-18T15:17:24Z</time>
      </trkpt>
      <trkpt lat="43.79202" lon="7.23882">
        <ele>454</ele>
        <time>2010-09-18T15:17:33Z</time>
      </trkpt>
      <trkpt lat="43.79185" lon="7.2393">
        <ele>456</ele>
        <time>2010-09-18T15:17:45Z</time>
      </trkpt>
      <trkpt lat="43.79178" lon="7.2395">
        <ele>456</ele>
        <time>2010-09-18T15:18:00Z</time>
      </trkpt>
      <trkpt lat="43.7918" lon="7.23983">
        <ele>460</ele>
        <time>2010-09-18T15:24:17Z</time>
      </trkpt>
      <trkpt lat="43.79187" lon="7.24038">
        <ele>462</ele>
        <time>2010-09-18T15:24:29Z</time>
      </trkpt>
      <trkpt lat="43.79167" lon="7.24083">
        <ele>464</ele>
        <time>2010-09-18T15:24:37Z</time>
      </trkpt>
      <trkpt lat="43.79137" lon="7.2411">
        <ele>467</ele>
        <time>2010-09-18T15:24:44Z</time>
      </trkpt>
      <trkpt lat="43.79115" lon="7.24178">
        <ele>468</ele>
        <time>2010-09-18T15:24:54Z</time>
      </trkpt>
      <trkpt lat="43.79082" lon="7.2429">
        <ele>472</ele>
        <time>2010-09-18T15:25:10Z</time>
      </trkpt>
      <trkpt lat="43.79033" lon="7.24323">
        <ele>475</ele>
        <time>2010-09-18T15:25:20Z</time>
      </trkpt>
      <trkpt lat="43.79002" lon="7.24358">
        <ele>477</ele>
        <time>2010-09-18T15:25:28Z</time>
      </trkpt>
      <trkpt lat="43.78937" lon="7.24342">
        <ele>479</ele>
        <time>2010-09-18T15:25:39Z</time>
      </trkpt>
      <trkpt lat="43.78887" lon="7.24307">
        <ele>482</ele>
        <time>2010-09-18T15:25:49Z</time>
      </trkpt>
      <trkpt lat="43.78698" lon="7.24275">
        <ele>494</ele>
        <time>2010-09-18T15:26:23Z</time>
      </trkpt>
      <trkpt lat="43.7858" lon="7.24328">
        <ele>499</ele>
        <time>2010-09-18T15:26:45Z</time>
      </trkpt>
      <trkpt lat="43.7855" lon="7.2429">
        <ele>502</ele>
        <time>2010-09-18T15:26:52Z</time>
      </trkpt>
      <trkpt lat="43.7843" lon="7.24332">
        <ele>506</ele>
        <time>2010-09-18T15:27:14Z</time>
      </trkpt>
      <trkpt lat="43.7841" lon="7.24323">
        <ele>506</ele>
        <time>2010-09-18T15:27:23Z</time>
      </trkpt>
      <trkpt lat="43.78428" lon="7.24363">
        <ele>504</ele>
        <time>2010-09-18T15:27:45Z</time>
      </trkpt>
      <trkpt lat="43.7843" lon="7.24435">
        <ele>501</ele>
        <time>2010-09-18T15:27:56Z</time>
      </trkpt>
      <trkpt lat="43.78398" lon="7.245">
        <ele>499</ele>
        <time>2010-09-18T15:28:04Z</time>
      </trkpt>
      <trkpt lat="43.78342" lon="7.24542">
        <ele>496</ele>
        <time>2010-09-18T15:28:12Z</time>
      </trkpt>
      <trkpt lat="43.7827" lon="7.24518">
        <ele>493</ele>
        <time>2010-09-18T15:28:21Z</time>
      </trkpt>
      <trkpt lat="43.78227" lon="7.2447">
        <ele>490</ele>
        <time>2010-09-18T15:28:28Z</time>
      </trkpt>
      <trkpt lat="43.78167" lon="7.24362">
        <ele>484</ele>
        <time>2010-09-18T15:28:40Z</time>
      </trkpt>
      <trkpt lat="43.78158" lon="7.24308">
        <ele>482</ele>
        <time>2010-09-18T15:28:45Z</time>
      </trkpt>
      <trkpt lat="43.78232" lon="7.24218">
        <ele>476</ele>
        <time>2010-09-18T15:28:57Z</time>
      </trkpt>
      <trkpt lat="43.78275" lon="7.24197">
        <ele>474</ele>
        <time>2010-09-18T15:29:03Z</time>
      </trkpt>
      <trkpt lat="43.7828" lon="7.24122">
        <ele>470</ele>
        <time>2010-09-18T15:29:11Z</time>
      </trkpt>
      <trkpt lat="43.78252" lon="7.24057">
        <ele>467</ele>
        <time>2010-09-18T15:29:18Z</time>
      </trkpt>
      <trkpt lat="43.78192" lon="7.23938">
        <ele>454</ele>
        <time>2010-09-18T15:29:31Z</time>
      </trkpt>
      <trkpt lat="43.78185" lon="7.23898">
        <ele>452</ele>
        <time>2010-09-18T15:29:35Z</time>
      </trkpt>
      <trkpt lat="43.7814" lon="7.23908">
        <ele>450</ele>
        <time>2010-09-18T15:29:41Z</time>
      </trkpt>
      <trkpt lat="43.78093" lon="7.239">
        <ele>448</ele>
        <time>2010-09-18T15:29:47Z</time>
      </trkpt>
      <trkpt lat="43.78025" lon="7.23962">
        <ele>445</ele>
        <time>2010-09-18T15:29:57Z</time>
      </trkpt>
      <trkpt lat="43.77975" lon="7.23982">
        <ele>441</ele>
        <time>2010-09-18T15:30:04Z</time>
      </trkpt>
      <trkpt lat="43.77827" lon="7.23925">
        <ele>433</ele>
        <time>2010-09-18T15:30:22Z</time>
      </trkpt>
      <trkpt lat="43.7777" lon="7.23937">
        <ele>426</ele>
        <time>2010-09-18T15:30:31Z</time>
      </trkpt>
      <trkpt lat="43.77727" lon="7.23913">
        <ele>423</ele>
        <time>2010-09-18T15:30:37Z</time>
      </trkpt>
      <trkpt lat="43.7767" lon="7.23915">
        <ele>421</ele>
        <time>2010-09-18T15:30:44Z</time>
      </trkpt>
      <trkpt lat="43.77645" lon="7.2387">
        <ele>419</ele>
        <time>2010-09-18T15:30:50Z</time>
      </trkpt>
      <trkpt lat="43.77583" lon="7.2383">
        <ele>411</ele>
        <time>2010-09-18T15:30:59Z</time>
      </trkpt>
      <trkpt lat="43.77537" lon="7.23828">
        <ele>410</ele>
        <time>2010-09-18T15:31:06Z</time>
      </trkpt>
      <trkpt lat="43.7749" lon="7.23758">
        <ele>407</ele>
        <time>2010-09-18T15:31:15Z</time>
      </trkpt>
      <trkpt lat="43.77433" lon="7.23753">
        <ele>406</ele>
        <time>2010-09-18T15:31:22Z</time>
      </trkpt>
      <trkpt lat="43.77385" lon="7.23755">
        <ele>403</ele>
        <time>2010-09-18T15:31:28Z</time>
      </trkpt>
      <trkpt lat="43.77352" lon="7.23783">
        <ele>402</ele>
        <time>2010-09-18T15:31:32Z</time>
      </trkpt>
      <trkpt lat="43.77312" lon="7.23803">
        <ele>398</ele>
        <time>2010-09-18T15:31:38Z</time>
      </trkpt>
      <trkpt lat="43.7727" lon="7.23773">
        <ele>397</ele>
        <time>2010-09-18T15:31:44Z</time>
      </trkpt>
      <trkpt lat="43.77218" lon="7.23795">
        <ele>394</ele>
        <time>2010-09-18T15:31:51Z</time>
      </trkpt>
      <trkpt lat="43.77178" lon="7.23782">
        <ele>392</ele>
        <time>2010-09-18T15:31:57Z</time>
      </trkpt>
      <trkpt lat="43.77168" lon="7.23768">
        <ele>395</ele>
        <time>2010-09-18T15:33:18Z</time>
      </trkpt>
      <trkpt lat="43.77162" lon="7.2372">
        <ele>391</ele>
        <time>2010-09-18T15:33:27Z</time>
      </trkpt>
      <trkpt lat="43.77107" lon="7.23765">
        <ele>386</ele>
        <time>2010-09-18T15:33:37Z</time>
      </trkpt>
      <trkpt lat="43.77053" lon="7.23758">
        <ele>382</ele>
        <time>2010-09-18T15:33:44Z</time>
      </trkpt>
      <trkpt lat="43.77013" lon="7.23757">
        <ele>378</ele>
        <time>2010-09-18T15:33:49Z</time>
      </trkpt>
      <trkpt lat="43.77002" lon="7.23668">
        <ele>373</ele>
        <time>2010-09-18T15:33:57Z</time>
      </trkpt>
      <trkpt lat="43.76955" lon="7.23642">
        <ele>371</ele>
        <time>2010-09-18T15:34:04Z</time>
      </trkpt>
      <trkpt lat="43.76905" lon="7.23677">
        <ele>369</ele>
        <time>2010-09-18T15:34:11Z</time>
      </trkpt>
      <trkpt lat="43.7686" lon="7.23663">
        <ele>366</ele>
        <time>2010-09-18T15:34:17Z</time>
      </trkpt>
      <trkpt lat="43.76833" lon="7.2362">
        <ele>364</ele>
        <time>2010-09-18T15:34:22Z</time>
      </trkpt>
      <trkpt lat="43.76788" lon="7.23608">
        <ele>360</ele>
        <time>2010-09-18T15:34:28Z</time>
      </trkpt>
      <trkpt lat="43.7674" lon="7.23598">
        <ele>362</ele>
        <time>2010-09-18T15:34:35Z</time>
      </trkpt>
      <trkpt lat="43.76702" lon="7.23602">
        <ele>364</ele>
        <time>2010-09-18T15:34:43Z</time>
      </trkpt>
      <trkpt lat="43.7667" lon="7.23588">
        <ele>365</ele>
        <time>2010-09-18T15:34:50Z</time>
      </trkpt>
      <trkpt lat="43.76587" lon="7.23582">
        <ele>371</ele>
        <time>2010-09-18T15:35:08Z</time>
      </trkpt>
      <trkpt lat="43.76528" lon="7.23543">
        <ele>374</ele>
        <time>2010-09-18T15:35:25Z</time>
      </trkpt>
      <trkpt lat="43.76467" lon="7.23568">
        <ele>382</ele>
        <time>2010-09-18T15:40:37Z</time>
      </trkpt>
      <trkpt lat="43.76387" lon="7.2358">
        <ele>384</ele>
        <time>2010-09-18T15:40:55Z</time>
      </trkpt>
      <trkpt lat="43.7625" lon="7.23678">
        <ele>386</ele>
        <time>2010-09-18T15:41:22Z</time>
      </trkpt>
      <trkpt lat="43.76193" lon="7.237">
        <ele>385</ele>
        <time>2010-09-18T15:41:31Z</time>
      </trkpt>
      <trkpt lat="43.75928" lon="7.23768">
        <ele>389</ele>
        <time>2010-09-18T15:42:15Z</time>
      </trkpt>
      <trkpt lat="43.75868" lon="7.23805">
        <ele>386</ele>
        <time>2010-09-18T15:42:27Z</time>
      </trkpt>
      <trkpt lat="43.75795" lon="7.23797">
        <ele>376</ele>
        <time>2010-09-18T15:42:35Z</time>
      </trkpt>
      <trkpt lat="43.7563" lon="7.23843">
        <ele>386</ele>
        <time>2010-09-18T15:43:19Z</time>
      </trkpt>
      <trkpt lat="43.75528" lon="7.23847">
        <ele>387</ele>
        <time>2010-09-18T15:43:44Z</time>
      </trkpt>
      <trkpt lat="43.75398" lon="7.23902">
        <ele>377</ele>
        <time>2010-09-18T15:44:02Z</time>
      </trkpt>
      <trkpt lat="43.75252" lon="7.23862">
        <ele>366</ele>
        <time>2010-09-18T15:44:18Z</time>
      </trkpt>
      <trkpt lat="43.75137" lon="7.23892">
        <ele>362</ele>
        <time>2010-09-18T15:44:33Z</time>
      </trkpt>
      <trkpt lat="43.74808" lon="7.2351">
        <ele>317</ele>
        <time>2010-09-18T15:45:18Z</time>
      </trkpt>
      <trkpt lat="43.74757" lon="7.23487">
        <ele>314</ele>
        <time>2010-09-18T15:45:24Z</time>
      </trkpt>
      <trkpt lat="43.74707" lon="7.23492">
        <ele>310</ele>
        <time>2010-09-18T15:45:30Z</time>
      </trkpt>
      <trkpt lat="43.74633" lon="7.23427">
        <ele>305</ele>
        <time>2010-09-18T15:45:40Z</time>
      </trkpt>
      <trkpt lat="43.74615" lon="7.23392">
        <ele>304</ele>
        <time>2010-09-18T15:45:44Z</time>
      </trkpt>
      <trkpt lat="43.74698" lon="7.23538">
        <ele>295</ele>
        <time>2010-09-18T15:46:05Z</time>
      </trkpt>
      <trkpt lat="43.74743" lon="7.2357">
        <ele>292</ele>
        <time>2010-09-18T15:46:11Z</time>
      </trkpt>
      <trkpt lat="43.7477" lon="7.23618">
        <ele>289</ele>
        <time>2010-09-18T15:46:16Z</time>
      </trkpt>
      <trkpt lat="43.74748" lon="7.23693">
        <ele>286</ele>
        <time>2010-09-18T15:46:23Z</time>
      </trkpt>
      <trkpt lat="43.74797" lon="7.2373">
        <ele>282</ele>
        <time>2010-09-18T15:46:32Z</time>
      </trkpt>
      <trkpt lat="43.74823" lon="7.23788">
        <ele>280</ele>
        <time>2010-09-18T15:46:37Z</time>
      </trkpt>
      <trkpt lat="43.74895" lon="7.23815">
        <ele>277</ele>
        <time>2010-09-18T15:46:46Z</time>
      </trkpt>
      <trkpt lat="43.74948" lon="7.23942">
        <ele>274</ele>
        <time>2010-09-18T15:46:59Z</time>
      </trkpt>
      <trkpt lat="43.74978" lon="7.24008">
        <ele>273</ele>
        <time>2010-09-18T15:47:06Z</time>
      </trkpt>
      <trkpt lat="43.75013" lon="7.24062">
        <ele>269</ele>
        <time>2010-09-18T15:47:14Z</time>
      </trkpt>
      <trkpt lat="43.7507" lon="7.241">
        <ele>265</ele>
        <time>2010-09-18T15:47:19Z</time>
      </trkpt>
      <trkpt lat="43.75127" lon="7.24127">
        <ele>265</ele>
        <time>2010-09-18T15:47:26Z</time>
      </trkpt>
      <trkpt lat="43.7519" lon="7.2416">
        <ele>262</ele>
        <time>2010-09-18T15:47:34Z</time>
      </trkpt>
      <trkpt lat="43.75285" lon="7.24172">
        <ele>254</ele>
        <time>2010-09-18T15:47:45Z</time>
      </trkpt>
      <trkpt lat="43.75343" lon="7.2421">
        <ele>251</ele>
        <time>2010-09-18T15:47:52Z</time>
      </trkpt>
      <trkpt lat="43.75355" lon="7.24278">
        <ele>247</ele>
        <time>2010-09-18T15:47:58Z</time>
      </trkpt>
      <trkpt lat="43.754" lon="7.24325">
        <ele>247</ele>
        <time>2010-09-18T15:48:06Z</time>
      </trkpt>
      <trkpt lat="43.75445" lon="7.2432">
        <ele>249</ele>
        <time>2010-09-18T15:48:15Z</time>
      </trkpt>
      <trkpt lat="43.75475" lon="7.24307">
        <ele>252</ele>
        <time>2010-09-18T15:48:22Z</time>
      </trkpt>
      <trkpt lat="43.7552" lon="7.24338">
        <ele>254</ele>
        <time>2010-09-18T15:48:35Z</time>
      </trkpt>
      <trkpt lat="43.75532" lon="7.24378">
        <ele>258</ele>
        <time>2010-09-18T15:48:43Z</time>
      </trkpt>
      <trkpt lat="43.75498" lon="7.24362">
        <ele>260</ele>
        <time>2010-09-18T15:48:53Z</time>
      </trkpt>
      <trkpt lat="43.75472" lon="7.24342">
        <ele>262</ele>
        <time>2010-09-18T15:49:00Z</time>
      </trkpt>
      <trkpt lat="43.7543" lon="7.24367">
        <ele>264</ele>
        <time>2010-09-18T15:49:09Z</time>
      </trkpt>
      <trkpt lat="43.75395" lon="7.24368">
        <ele>265</ele>
        <time>2010-09-18T15:49:16Z</time>
      </trkpt>
      <trkpt lat="43.75367" lon="7.2439">
        <ele>267</ele>
        <time>2010-09-18T15:49:22Z</time>
      </trkpt>
      <trkpt lat="43.75345" lon="7.24362">
        <ele>271</ele>
        <time>2010-09-18T15:49:29Z</time>
      </trkpt>
      <trkpt lat="43.7531" lon="7.24362">
        <ele>274</ele>
        <time>2010-09-18T15:49:36Z</time>
      </trkpt>
      <trkpt lat="43.75282" lon="7.244">
        <ele>271</ele>
        <time>2010-09-18T15:49:44Z</time>
      </trkpt>
      <trkpt lat="43.75252" lon="7.24428">
        <ele>273</ele>
        <time>2010-09-18T15:49:51Z</time>
      </trkpt>
      <trkpt lat="43.75223" lon="7.2441">
        <ele>276</ele>
        <time>2010-09-18T15:49:58Z</time>
      </trkpt>
      <trkpt lat="43.75172" lon="7.244">
        <ele>280</ele>
        <time>2010-09-18T15:50:10Z</time>
      </trkpt>
      <trkpt lat="43.7514" lon="7.24412">
        <ele>282</ele>
        <time>2010-09-18T15:50:17Z</time>
      </trkpt>
      <trkpt lat="43.75095" lon="7.24388">
        <ele>285</ele>
        <time>2010-09-18T15:50:27Z</time>
      </trkpt>
      <trkpt lat="43.75028" lon="7.24382">
        <ele>291</ele>
        <time>2010-09-18T15:52:46Z</time>
      </trkpt>
      <trkpt lat="43.74997" lon="7.24393">
        <ele>293</ele>
        <time>2010-09-18T15:52:58Z</time>
      </trkpt>
      <trkpt lat="43.74972" lon="7.24417">
        <ele>295</ele>
        <time>2010-09-18T15:53:02Z</time>
      </trkpt>
      <trkpt lat="43.7492" lon="7.24382">
        <ele>298</ele>
        <time>2010-09-18T15:53:13Z</time>
      </trkpt>
      <trkpt lat="43.74878" lon="7.24393">
        <ele>300</ele>
        <time>2010-09-18T15:53:21Z</time>
      </trkpt>
      <trkpt lat="43.74837" lon="7.24357">
        <ele>302</ele>
        <time>2010-09-18T15:53:30Z</time>
      </trkpt>
      <trkpt lat="43.74782" lon="7.2427">
        <ele>307</ele>
        <time>2010-09-18T15:53:45Z</time>
      </trkpt>
      <trkpt lat="43.7465" lon="7.2425">
        <ele>314</ele>
        <time>2010-09-18T15:54:09Z</time>
      </trkpt>
      <trkpt lat="43.74622" lon="7.24182">
        <ele>311</ele>
        <time>2010-09-18T15:54:20Z</time>
      </trkpt>
      <trkpt lat="43.74528" lon="7.24102">
        <ele>307</ele>
        <time>2010-09-18T15:54:33Z</time>
      </trkpt>
      <trkpt lat="43.74442" lon="7.24083">
        <ele>303</ele>
        <time>2010-09-18T15:54:44Z</time>
      </trkpt>
      <trkpt lat="43.74382" lon="7.24083">
        <ele>302</ele>
        <time>2010-09-18T15:54:52Z</time>
      </trkpt>
      <trkpt lat="43.74358" lon="7.24093">
        <ele>302</ele>
        <time>2010-09-18T15:55:12Z</time>
      </trkpt>
      <trkpt lat="43.74267" lon="7.24053">
        <ele>298</ele>
        <time>2010-09-18T15:55:34Z</time>
      </trkpt>
      <trkpt lat="43.74162" lon="7.2388">
        <ele>305</ele>
        <time>2010-09-18T15:56:00Z</time>
      </trkpt>
      <trkpt lat="43.74088" lon="7.23812">
        <ele>306</ele>
        <time>2010-09-18T15:56:14Z</time>
      </trkpt>
      <trkpt lat="43.74005" lon="7.23708">
        <ele>305</ele>
        <time>2010-09-18T15:56:31Z</time>
      </trkpt>
      <trkpt lat="43.73925" lon="7.23728">
        <ele>305</ele>
        <time>2010-09-18T15:56:44Z</time>
      </trkpt>
      <trkpt lat="43.73883" lon="7.23772">
        <ele>305</ele>
        <time>2010-09-18T15:56:52Z</time>
      </trkpt>
      <trkpt lat="43.73808" lon="7.23735">
        <ele>303</ele>
        <time>2010-09-18T15:57:05Z</time>
      </trkpt>
      <trkpt lat="43.73303" lon="7.2377">
        <ele>286</ele>
        <time>2010-09-18T15:58:08Z</time>
      </trkpt>
      <trkpt lat="43.73198" lon="7.2384">
        <ele>280</ele>
        <time>2010-09-18T15:58:24Z</time>
      </trkpt>
      <trkpt lat="43.73145" lon="7.2389">
        <ele>278</ele>
        <time>2010-09-18T15:58:32Z</time>
      </trkpt>
      <trkpt lat="43.7311" lon="7.23877">
        <ele>277</ele>
        <time>2010-09-18T15:58:38Z</time>
      </trkpt>
      <trkpt lat="43.73092" lon="7.23805">
        <ele>276</ele>
        <time>2010-09-18T15:58:46Z</time>
      </trkpt>
      <trkpt lat="43.73053" lon="7.2376">
        <ele>275</ele>
        <time>2010-09-18T15:58:53Z</time>
      </trkpt>
      <trkpt lat="43.72887" lon="7.23757">
        <ele>276</ele>
        <time>2010-09-18T15:59:17Z</time>
      </trkpt>
      <trkpt lat="43.72842" lon="7.23767">
        <ele>276</ele>
        <time>2010-09-18T15:59:24Z</time>
      </trkpt>
      <trkpt lat="43.72805" lon="7.23792">
        <ele>275</ele>
        <time>2010-09-18T15:59:30Z</time>
      </trkpt>
      <trkpt lat="43.72688" lon="7.23732">
        <ele>267</ele>
        <time>2010-09-18T15:59:46Z</time>
      </trkpt>
      <trkpt lat="43.72638" lon="7.23732">
        <ele>264</ele>
        <time>2010-09-18T15:59:52Z</time>
      </trkpt>
      <trkpt lat="43.72622" lon="7.23833">
        <ele>259</ele>
        <time>2010-09-18T16:00:02Z</time>
      </trkpt>
      <trkpt lat="43.72455" lon="7.2392">
        <ele>254</ele>
        <time>2010-09-18T16:00:23Z</time>
      </trkpt>
      <trkpt lat="43.72417" lon="7.23942">
        <ele>250</ele>
        <time>2010-09-18T16:00:31Z</time>
      </trkpt>
      <trkpt lat="43.72372" lon="7.23927">
        <ele>249</ele>
        <time>2010-09-18T16:00:34Z</time>
      </trkpt>
      <trkpt lat="43.72332" lon="7.23832">
        <ele>246</ele>
        <time>2010-09-18T16:00:44Z</time>
      </trkpt>
      <trkpt lat="43.72278" lon="7.23828">
        <ele>243</ele>
        <time>2010-09-18T16:00:51Z</time>
      </trkpt>
      <trkpt lat="43.72232" lon="7.2387">
        <ele>238</ele>
        <time>2010-09-18T16:00:58Z</time>
      </trkpt>
      <trkpt lat="43.72185" lon="7.23898">
        <ele>235</ele>
        <time>2010-09-18T16:01:04Z</time>
      </trkpt>
      <trkpt lat="43.72182" lon="7.23957">
        <ele>233</ele>
        <time>2010-09-18T16:01:10Z</time>
      </trkpt>
      <trkpt lat="43.72337" lon="7.24002">
        <ele>224</ele>
        <time>2010-09-18T16:01:31Z</time>
      </trkpt>
      <trkpt lat="43.72338" lon="7.24053">
        <ele>222</ele>
        <time>2010-09-18T16:01:37Z</time>
      </trkpt>
      <trkpt lat="43.72243" lon="7.24128">
        <ele>217</ele>
        <time>2010-09-18T16:01:51Z</time>
      </trkpt>
      <trkpt lat="43.72213" lon="7.24205">
        <ele>212</ele>
        <time>2010-09-18T16:01:59Z</time>
      </trkpt>
      <trkpt lat="43.7228" lon="7.24272">
        <ele>200</ele>
        <time>2010-09-18T16:02:10Z</time>
      </trkpt>
      <trkpt lat="43.723" lon="7.24337">
        <ele>197</ele>
        <time>2010-09-18T16:02:16Z</time>
      </trkpt>
      <trkpt lat="43.72365" lon="7.24337">
        <ele>191</ele>
        <time>2010-09-18T16:02:24Z</time>
      </trkpt>
      <trkpt lat="43.7239" lon="7.24307">
        <ele>189</ele>
        <time>2010-09-18T16:02:28Z</time>
      </trkpt>
      <trkpt lat="43.7233" lon="7.24378">
        <ele>182</ele>
        <time>2010-09-18T16:02:43Z</time>
      </trkpt>
      <trkpt lat="43.72282" lon="7.24395">
        <ele>174</ele>
        <time>2010-09-18T16:02:49Z</time>
      </trkpt>
      <trkpt lat="43.7224" lon="7.24467">
        <ele>170</ele>
        <time>2010-09-18T16:02:57Z</time>
      </trkpt>
      <trkpt lat="43.7213" lon="7.2457">
        <ele>173</ele>
        <time>2010-09-18T16:03:15Z</time>
      </trkpt>
      <trkpt lat="43.72085" lon="7.24615">
        <ele>173</ele>
        <time>2010-09-18T16:03:23Z</time>
      </trkpt>
      <trkpt lat="43.7203" lon="7.2463">
        <ele>171</ele>
        <time>2010-09-18T16:03:31Z</time>
      </trkpt>
      <trkpt lat="43.71967" lon="7.24668">
        <ele>171</ele>
        <time>2010-09-18T16:03:41Z</time>
      </trkpt>
      <trkpt lat="43.71918" lon="7.2467">
        <ele>172</ele>
        <time>2010-09-18T16:03:48Z</time>
      </trkpt>
      <trkpt lat="43.71857" lon="7.24652">
        <ele>170</ele>
        <time>2010-09-18T16:03:57Z</time>
      </trkpt>
      <trkpt lat="43.71778" lon="7.24653">
        <ele>167</ele>
        <time>2010-09-18T16:04:07Z</time>
      </trkpt>
      <trkpt lat="43.71592" lon="7.24758">
        <ele>159</ele>
        <time>2010-09-18T16:04:31Z</time>
      </trkpt>
      <trkpt lat="43.71562" lon="7.2484">
        <ele>155</ele>
        <time>2010-09-18T16:04:39Z</time>
      </trkpt>
      <trkpt lat="43.71538" lon="7.24888">
        <ele>153</ele>
        <time>2010-09-18T16:04:44Z</time>
      </trkpt>
      <trkpt lat="43.71597" lon="7.24933">
        <ele>149</ele>
        <time>2010-09-18T16:04:53Z</time>
      </trkpt>
      <trkpt lat="43.71655" lon="7.24937">
        <ele>146</ele>
        <time>2010-09-18T16:05:00Z</time>
      </trkpt>
      <trkpt lat="43.71737" lon="7.24912">
        <ele>144</ele>
        <time>2010-09-18T16:05:10Z</time>
      </trkpt>
      <trkpt lat="43.71778" lon="7.24917">
        <ele>142</ele>
        <time>2010-09-18T16:05:15Z</time>
      </trkpt>
      <trkpt lat="43.71732" lon="7.24925">
        <ele>138</ele>
        <time>2010-09-18T16:05:27Z</time>
      </trkpt>
      <trkpt lat="43.7164" lon="7.24972">
        <ele>131</ele>
        <time>2010-09-18T16:05:39Z</time>
      </trkpt>
      <trkpt lat="43.71558" lon="7.25067">
        <ele>123</ele>
        <time>2010-09-18T16:05:52Z</time>
      </trkpt>
      <trkpt lat="43.7149" lon="7.25085">
        <ele>125</ele>
        <time>2010-09-18T16:06:02Z</time>
      </trkpt>
      <trkpt lat="43.7138" lon="7.25038">
        <ele>122</ele>
        <time>2010-09-18T16:06:18Z</time>
      </trkpt>
      <trkpt lat="43.71338" lon="7.24953">
        <ele>117</ele>
        <time>2010-09-18T16:06:28Z</time>
      </trkpt>
      <trkpt lat="43.71295" lon="7.24955">
        <ele>120</ele>
        <time>2010-09-18T16:06:41Z</time>
      </trkpt>
      <trkpt lat="43.7133" lon="7.24952">
        <ele>120</ele>
        <time>2010-09-18T16:06:53Z</time>
      </trkpt>
      <trkpt lat="43.71353" lon="7.2493">
        <ele>118</ele>
        <time>2010-09-18T16:06:59Z</time>
      </trkpt>
      <trkpt lat="43.71375" lon="7.2499">
        <ele>112</ele>
        <time>2010-09-18T16:07:06Z</time>
      </trkpt>
      <trkpt lat="43.71402" lon="7.25008">
        <ele>114</ele>
        <time>2010-09-18T16:07:10Z</time>
      </trkpt>
      <trkpt lat="43.71442" lon="7.25002">
        <ele>114</ele>
        <time>2010-09-18T16:07:15Z</time>
      </trkpt>
      <trkpt lat="43.7143" lon="7.2496">
        <ele>111</ele>
        <time>2010-09-18T16:07:21Z</time>
      </trkpt>
      <trkpt lat="43.71438" lon="7.249">
        <ele>107</ele>
        <time>2010-09-18T16:07:27Z</time>
      </trkpt>
      <trkpt lat="43.71407" lon="7.2485">
        <ele>104</ele>
        <time>2010-09-18T16:07:33Z</time>
      </trkpt>
      <trkpt lat="43.71398" lon="7.24797">
        <ele>100</ele>
        <time>2010-09-18T16:07:38Z</time>
      </trkpt>
      <trkpt lat="43.71438" lon="7.24725">
        <ele>95</ele>
        <time>2010-09-18T16:07:46Z</time>
      </trkpt>
      <trkpt lat="43.71518" lon="7.24627">
        <ele>94</ele>
        <time>2010-09-18T16:07:59Z</time>
      </trkpt>
      <trkpt lat="43.7146" lon="7.2464">
        <ele>93</ele>
        <time>2010-09-18T16:08:10Z</time>
      </trkpt>
      <trkpt lat="43.71372" lon="7.24738">
        <ele>85</ele>
        <time>2010-09-18T16:08:23Z</time>
      </trkpt>
      <trkpt lat="43.7134" lon="7.2478">
        <ele>78</ele>
        <time>2010-09-18T16:08:28Z</time>
      </trkpt>
      <trkpt lat="43.71253" lon="7.24747">
        <ele>74</ele>
        <time>2010-09-18T16:08:39Z</time>
      </trkpt>
      <trkpt lat="43.71072" lon="7.24922">
        <ele>64</ele>
        <time>2010-09-18T16:09:07Z</time>
      </trkpt>
      <trkpt lat="43.71012" lon="7.2505">
        <ele>63</ele>
        <time>2010-09-18T16:09:19Z</time>
      </trkpt>
      <trkpt lat="43.70925" lon="7.25178">
        <ele>56</ele>
        <time>2010-09-18T16:09:52Z</time>
      </trkpt>
      <trkpt lat="43.70898" lon="7.25218">
        <ele>53</ele>
        <time>2010-09-18T16:09:59Z</time>
      </trkpt>
      <trkpt lat="43.70907" lon="7.25288">
        <ele>53</ele>
        <time>2010-09-18T16:10:06Z</time>
      </trkpt>
      <trkpt lat="43.70945" lon="7.25417">
        <ele>46</ele>
        <time>2010-09-18T16:10:19Z</time>
      </trkpt>
      <trkpt lat="43.70947" lon="7.25582">
        <ele>42</ele>
        <time>2010-09-18T16:10:46Z</time>
      </trkpt>
      <trkpt lat="43.70823" lon="7.25593">
        <ele>42</ele>
        <time>2010-09-18T16:11:59Z</time>
      </trkpt>
      <trkpt lat="43.70648" lon="7.25595">
        <ele>38</ele>
        <time>2010-09-18T16:12:30Z</time>
      </trkpt>
      <trkpt lat="43.70397" lon="7.25598">
        <ele>40</ele>
        <time>2010-09-18T16:13:07Z</time>
      </trkpt>
      <trkpt lat="43.70313" lon="7.25605">
        <ele>26</ele>
        <time>2010-09-18T16:13:27Z</time>
      </trkpt>
      <trkpt lat="43.70218" lon="7.25602">
        <ele>23</ele>
        <time>2010-09-18T16:13:47Z</time>
      </trkpt>
      <trkpt lat="43.70025" lon="7.25605">
        <ele>16</ele>
        <time>2010-09-18T16:14:18Z</time>
      </trkpt>
      <trkpt lat="43.69993" lon="7.25603">
        <ele>55</ele>
        <time>2010-09-18T16:14:47Z</time>
      </trkpt>
      <trkpt lat="43.69815" lon="7.25607">
        <ele>41</ele>
        <time>2010-09-18T16:15:17Z</time>
      </trkpt>
      <trkpt lat="43.69727" lon="7.2561">
        <ele>41</ele>
        <time>2010-09-18T16:15:38Z</time>
      </trkpt>
      <trkpt lat="43.69618" lon="7.25615">
        <ele>45</ele>
        <time>2010-09-18T16:16:43Z</time>
      </trkpt>
      <trkpt lat="43.69438" lon="7.25623">
        <ele>44</ele>
        <time>2010-09-18T16:17:28Z</time>
      </trkpt>
      <trkpt lat="43.694" lon="7.25623">
        <ele>29</ele>
        <time>2010-09-18T16:17:41Z</time>
      </trkpt>
      <trkpt lat="43.69395" lon="7.25638">
        <ele>22</ele>
        <time>2010-09-18T16:18:29Z</time>
      </trkpt>
      <trkpt lat="43.69383" lon="7.25648">
        <ele>26</ele>
        <time>2010-09-18T16:19:03Z</time>
      </trkpt>
      <trkpt lat="43.69378" lon="7.25698">
        <ele>24</ele>
        <time>2010-09-18T16:19:17Z</time>
      </trkpt>
      <trkpt lat="43.69412" lon="7.25838">
        <ele>20</ele>
        <time>2010-09-18T16:19:34Z</time>
      </trkpt>
      <trkpt lat="43.6948" lon="7.26602">
        <ele>5</ele>
        <time>2010-09-18T16:21:08Z</time>
      </trkpt>
      <trkpt lat="43.6948" lon="7.26617">
        <ele>9</ele>
        <time>2010-09-18T16:23:48Z</time>
      </trkpt>
      <trkpt lat="43.69487" lon="7.26637">
        <ele>7</ele>
        <time>2010-09-18T16:25:08Z</time>
      </trkpt>
      <trkpt lat="43.69513" lon="7.2663">
        <ele>5</ele>
        <time>2010-09-18T16:25:34Z</time>
      </trkpt>
      <trkpt lat="43.6952" lon="7.26667">
        <ele>6</ele>
        <time>2010-09-18T16:25:42Z</time>
      </trkpt>
      <trkpt lat="43.69525" lon="7.26707">
        <ele>6</ele>
        <time>2010-09-18T16:25:49Z</time>
      </trkpt>
      <trkpt lat="43.69517" lon="7.2675">
        <ele>6</ele>
        <time>2010-09-18T16:25:57Z</time>
      </trkpt>
      <trkpt lat="43.69518" lon="7.26812">
        <ele>7</ele>
        <time>2010-09-18T16:26:10Z</time>
      </trkpt>
      <trkpt lat="43.69522" lon="7.26862">
        <ele>8</ele>
        <time>2010-09-18T16:26:31Z</time>
      </trkpt>
      <trkpt lat="43.69523" lon="7.2689">
        <ele>6</ele>
        <time>2010-09-18T16:26:40Z</time>
      </trkpt>
      <trkpt lat="43.69538" lon="7.2688">
        <ele>18</ele>
        <time>2010-09-18T16:27:12Z</time>
      </trkpt>
      <trkpt lat="43.6958" lon="7.26878">
        <ele>16</ele>
        <time>2010-09-18T16:27:24Z</time>
      </trkpt>
      <trkpt lat="43.69608" lon="7.26885">
        <ele>16</ele>
        <time>2010-09-18T16:27:33Z</time>
      </trkpt>
      <trkpt lat="43.69642" lon="7.26957">
        <ele>12</ele>
        <time>2010-09-18T16:27:47Z</time>
      </trkpt>
      <trkpt lat="43.69662" lon="7.2698">
        <ele>11</ele>
        <time>2010-09-18T16:27:54Z</time>
      </trkpt>
      <trkpt lat="43.69677" lon="7.26973">
        <ele>11</ele>
        <time>2010-09-18T16:28:12Z</time>
      </trkpt>
      <trkpt lat="43.6965" lon="7.26955">
        <ele>10</ele>
        <time>2010-09-18T16:28:35Z</time>
      </trkpt>
      <trkpt lat="43.69618" lon="7.26888">
        <ele>8</ele>
        <time>2010-09-18T16:28:48Z</time>
      </trkpt>
      <trkpt lat="43.69602" lon="7.2687">
        <ele>11</ele>
        <time>2010-09-18T16:28:54Z</time>
      </trkpt>
      <trkpt lat="43.69573" lon="7.26858">
        <ele>9</ele>
        <time>2010-09-18T16:29:01Z</time>
      </trkpt>
      <trkpt lat="43.69553" lon="7.26837">
        <ele>9</ele>
        <time>2010-09-18T16:29:07Z</time>
      </trkpt>
      <trkpt lat="43.69535" lon="7.268">
        <ele>9</ele>
        <time>2010-09-18T16:29:16Z</time>
      </trkpt>
      <trkpt lat="43.69523" lon="7.26788">
        <ele>13</ele>
        <time>2010-09-18T16:31:58Z</time>
      </trkpt>
      <trkpt lat="43.69542" lon="7.26803">
        <ele>13</ele>
        <time>2010-09-18T16:32:09Z</time>
      </trkpt>
      <trkpt lat="43.69537" lon="7.2683">
        <ele>12</ele>
        <time>2010-09-18T16:33:34Z</time>
      </trkpt>
      <trkpt lat="43.69575" lon="7.26837">
        <ele>11</ele>
        <time>2010-09-18T16:33:44Z</time>
      </trkpt>
      <trkpt lat="43.69595" lon="7.26852">
        <ele>10</ele>
        <time>2010-09-18T16:33:50Z</time>
      </trkpt>
      <trkpt lat="43.69617" lon="7.26863">
        <ele>8</ele>
        <time>2010-09-18T16:33:59Z</time>
      </trkpt>
      <trkpt lat="43.69643" lon="7.26922">
        <ele>8</ele>
        <time>2010-09-18T16:34:11Z</time>
      </trkpt>
      <trkpt lat="43.69665" lon="7.2697">
        <ele>9</ele>
        <time>2010-09-18T16:34:21Z</time>
      </trkpt>
      <trkpt lat="43.69685" lon="7.26985">
        <ele>9</ele>
        <time>2010-09-18T16:34:31Z</time>
      </trkpt>
      <trkpt lat="43.6967" lon="7.27017">
        <ele>16</ele>
        <time>2010-09-18T16:35:33Z</time>
      </trkpt>
      <trkpt lat="43.69652" lon="7.27035">
        <ele>13</ele>
        <time>2010-09-18T16:36:37Z</time>
      </trkpt>
      <trkpt lat="43.69657" lon="7.2705">
        <ele>14</ele>
        <time>2010-09-18T16:37:29Z</time>
      </trkpt>
      <trkpt lat="43.69655" lon="7.27035">
        <ele>19</ele>
        <time>2010-09-18T16:40:05Z</time>
      </trkpt>
    </trkseg>
  </trk>
</gpx>